<?xml version="1.0" encoding="UTF-8" standalone="no" ?>
<gpx xmlns="http://www.topografix.com/GPX/1/1" xmlns:xsi="http://www.w3.org/2001/XMLSchema-instance" xsi:schemaLocation="http://www.topografix.com/GPX/1/1 http://www.topografix.com/GPX/1/1/gpx.xsd" version="1.1" creator="VisuGPX - https://www.visugpx.com">
  <metadata>
    <name>2010 05 24 Croix en Ternois</name>
    <desc><![CDATA[34 kms avec Régis à Croix]]></desc>
  </metadata>
  <trk>
    <name><![CDATA[2010-05-24T06:36:43Z]]></name>
    <trkseg>
      <trkpt lat="50.38369" lon="2.27931">
        <ele>139.5284424</ele>
        <time>2010-05-24T06:36:43Z</time>
      </trkpt>
      <trkpt lat="50.38369" lon="2.27931">
        <ele>140.0091553</ele>
        <time>2010-05-24T06:36:44Z</time>
      </trkpt>
      <trkpt lat="50.38374" lon="2.27931">
        <ele>139.0478516</ele>
        <time>2010-05-24T06:36:49Z</time>
      </trkpt>
      <trkpt lat="50.38377" lon="2.27916">
        <ele>137.605835</ele>
        <time>2010-05-24T06:36:53Z</time>
      </trkpt>
      <trkpt lat="50.38382" lon="2.27882">
        <ele>136.6446533</ele>
        <time>2010-05-24T06:37:00Z</time>
      </trkpt>
      <trkpt lat="50.38385" lon="2.27869">
        <ele>136.6446533</ele>
        <time>2010-05-24T06:37:03Z</time>
      </trkpt>
      <trkpt lat="50.38389" lon="2.27848">
        <ele>138.0865479</ele>
        <time>2010-05-24T06:37:08Z</time>
      </trkpt>
      <trkpt lat="50.38399" lon="2.27847">
        <ele>139.0478516</ele>
        <time>2010-05-24T06:37:12Z</time>
      </trkpt>
      <trkpt lat="50.38423" lon="2.27862">
        <ele>141.4510498</ele>
        <time>2010-05-24T06:37:20Z</time>
      </trkpt>
      <trkpt lat="50.38439" lon="2.27871">
        <ele>142.4124756</ele>
        <time>2010-05-24T06:37:26Z</time>
      </trkpt>
      <trkpt lat="50.38455" lon="2.2788">
        <ele>143.8543701</ele>
        <time>2010-05-24T06:37:32Z</time>
      </trkpt>
      <trkpt lat="50.38464" lon="2.27873">
        <ele>145.2963867</ele>
        <time>2010-05-24T06:37:36Z</time>
      </trkpt>
      <trkpt lat="50.38465" lon="2.2787">
        <ele>145.2963867</ele>
        <time>2010-05-24T06:37:37Z</time>
      </trkpt>
      <trkpt lat="50.38472" lon="2.27834">
        <ele>148.1804199</ele>
        <time>2010-05-24T06:37:45Z</time>
      </trkpt>
      <trkpt lat="50.3848" lon="2.27797">
        <ele>146.7384033</ele>
        <time>2010-05-24T06:37:51Z</time>
      </trkpt>
      <trkpt lat="50.38486" lon="2.27763">
        <ele>145.2963867</ele>
        <time>2010-05-24T06:37:56Z</time>
      </trkpt>
      <trkpt lat="50.38488" lon="2.27755">
        <ele>144.8157959</ele>
        <time>2010-05-24T06:37:57Z</time>
      </trkpt>
      <trkpt lat="50.38493" lon="2.2774">
        <ele>143.8543701</ele>
        <time>2010-05-24T06:37:59Z</time>
      </trkpt>
      <trkpt lat="50.3851" lon="2.27696">
        <ele>140.0091553</ele>
        <time>2010-05-24T06:38:06Z</time>
      </trkpt>
      <trkpt lat="50.38524" lon="2.27663">
        <ele>138.0865479</ele>
        <time>2010-05-24T06:38:12Z</time>
      </trkpt>
      <trkpt lat="50.38548" lon="2.27624">
        <ele>136.1639404</ele>
        <time>2010-05-24T06:38:19Z</time>
      </trkpt>
      <trkpt lat="50.38581" lon="2.27579">
        <ele>136.1639404</ele>
        <time>2010-05-24T06:38:27Z</time>
      </trkpt>
      <trkpt lat="50.38606" lon="2.27537">
        <ele>135.6831055</ele>
        <time>2010-05-24T06:38:33Z</time>
      </trkpt>
      <trkpt lat="50.38633" lon="2.27461">
        <ele>132.7993164</ele>
        <time>2010-05-24T06:38:42Z</time>
      </trkpt>
      <trkpt lat="50.38648" lon="2.27414">
        <ele>130.3959961</ele>
        <time>2010-05-24T06:38:48Z</time>
      </trkpt>
      <trkpt lat="50.38652" lon="2.27383">
        <ele>129.4346924</ele>
        <time>2010-05-24T06:38:52Z</time>
      </trkpt>
      <trkpt lat="50.38645" lon="2.27332">
        <ele>124.6280518</ele>
        <time>2010-05-24T06:38:59Z</time>
      </trkpt>
      <trkpt lat="50.38642" lon="2.27318">
        <ele>124.6280518</ele>
        <time>2010-05-24T06:39:01Z</time>
      </trkpt>
      <trkpt lat="50.38637" lon="2.27296">
        <ele>124.6280518</ele>
        <time>2010-05-24T06:39:04Z</time>
      </trkpt>
      <trkpt lat="50.38635" lon="2.27289">
        <ele>125.1087646</ele>
        <time>2010-05-24T06:39:05Z</time>
      </trkpt>
      <trkpt lat="50.38629" lon="2.2727">
        <ele>125.5893555</ele>
        <time>2010-05-24T06:39:08Z</time>
      </trkpt>
      <trkpt lat="50.38612" lon="2.2723">
        <ele>127.0313721</ele>
        <time>2010-05-24T06:39:15Z</time>
      </trkpt>
      <trkpt lat="50.38588" lon="2.2719">
        <ele>127.5119629</ele>
        <time>2010-05-24T06:39:23Z</time>
      </trkpt>
      <trkpt lat="50.38575" lon="2.27161">
        <ele>129.9152832</ele>
        <time>2010-05-24T06:39:28Z</time>
      </trkpt>
      <trkpt lat="50.38552" lon="2.27108">
        <ele>130.876709</ele>
        <time>2010-05-24T06:39:37Z</time>
      </trkpt>
      <trkpt lat="50.38527" lon="2.27066">
        <ele>131.3572998</ele>
        <time>2010-05-24T06:39:45Z</time>
      </trkpt>
      <trkpt lat="50.38499" lon="2.27025">
        <ele>132.7993164</ele>
        <time>2010-05-24T06:39:53Z</time>
      </trkpt>
      <trkpt lat="50.38491" lon="2.26997">
        <ele>132.3186035</ele>
        <time>2010-05-24T06:39:57Z</time>
      </trkpt>
      <trkpt lat="50.38486" lon="2.26928">
        <ele>131.8378906</ele>
        <time>2010-05-24T06:40:06Z</time>
      </trkpt>
      <trkpt lat="50.38482" lon="2.26858">
        <ele>131.3572998</ele>
        <time>2010-05-24T06:40:15Z</time>
      </trkpt>
      <trkpt lat="50.3848" lon="2.26798">
        <ele>130.876709</ele>
        <time>2010-05-24T06:40:23Z</time>
      </trkpt>
      <trkpt lat="50.38478" lon="2.26732">
        <ele>130.3959961</ele>
        <time>2010-05-24T06:40:32Z</time>
      </trkpt>
      <trkpt lat="50.38475" lon="2.26649">
        <ele>131.3572998</ele>
        <time>2010-05-24T06:40:44Z</time>
      </trkpt>
      <trkpt lat="50.38472" lon="2.26585">
        <ele>132.3186035</ele>
        <time>2010-05-24T06:40:54Z</time>
      </trkpt>
      <trkpt lat="50.38467" lon="2.26523">
        <ele>132.7993164</ele>
        <time>2010-05-24T06:41:04Z</time>
      </trkpt>
      <trkpt lat="50.3846" lon="2.26451">
        <ele>134.2412109</ele>
        <time>2010-05-24T06:41:16Z</time>
      </trkpt>
      <trkpt lat="50.38454" lon="2.26383">
        <ele>135.6831055</ele>
        <time>2010-05-24T06:41:28Z</time>
      </trkpt>
      <trkpt lat="50.38448" lon="2.26322">
        <ele>137.1252441</ele>
        <time>2010-05-24T06:41:39Z</time>
      </trkpt>
      <trkpt lat="50.38448" lon="2.26287">
        <ele>138.5672607</ele>
        <time>2010-05-24T06:41:46Z</time>
      </trkpt>
      <trkpt lat="50.3846" lon="2.26279">
        <ele>139.0478516</ele>
        <time>2010-05-24T06:41:50Z</time>
      </trkpt>
      <trkpt lat="50.38494" lon="2.26273">
        <ele>139.5284424</ele>
        <time>2010-05-24T06:41:59Z</time>
      </trkpt>
      <trkpt lat="50.38526" lon="2.26264">
        <ele>140.4898682</ele>
        <time>2010-05-24T06:42:07Z</time>
      </trkpt>
      <trkpt lat="50.38552" lon="2.26253">
        <ele>140.4898682</ele>
        <time>2010-05-24T06:42:14Z</time>
      </trkpt>
      <trkpt lat="50.38567" lon="2.26248">
        <ele>139.5284424</ele>
        <time>2010-05-24T06:42:18Z</time>
      </trkpt>
      <trkpt lat="50.38614" lon="2.26235">
        <ele>139.5284424</ele>
        <time>2010-05-24T06:42:28Z</time>
      </trkpt>
      <trkpt lat="50.38649" lon="2.26225">
        <ele>142.4124756</ele>
        <time>2010-05-24T06:42:36Z</time>
      </trkpt>
      <trkpt lat="50.38677" lon="2.26215">
        <ele>144.8157959</ele>
        <time>2010-05-24T06:42:44Z</time>
      </trkpt>
      <trkpt lat="50.38697" lon="2.26205">
        <ele>146.7384033</ele>
        <time>2010-05-24T06:42:50Z</time>
      </trkpt>
      <trkpt lat="50.38739" lon="2.26187">
        <ele>147.699707</ele>
        <time>2010-05-24T06:43:02Z</time>
      </trkpt>
      <trkpt lat="50.38775" lon="2.26171">
        <ele>148.6610107</ele>
        <time>2010-05-24T06:43:13Z</time>
      </trkpt>
      <trkpt lat="50.38812" lon="2.26154">
        <ele>149.6223145</ele>
        <time>2010-05-24T06:43:24Z</time>
      </trkpt>
      <trkpt lat="50.38841" lon="2.26142">
        <ele>149.1416016</ele>
        <time>2010-05-24T06:43:32Z</time>
      </trkpt>
      <trkpt lat="50.38871" lon="2.26128">
        <ele>150.5836182</ele>
        <time>2010-05-24T06:43:40Z</time>
      </trkpt>
      <trkpt lat="50.38902" lon="2.26116">
        <ele>152.0257568</ele>
        <time>2010-05-24T06:43:48Z</time>
      </trkpt>
      <trkpt lat="50.38933" lon="2.26106">
        <ele>152.0257568</ele>
        <time>2010-05-24T06:43:56Z</time>
      </trkpt>
      <trkpt lat="50.38961" lon="2.26096">
        <ele>151.064209</ele>
        <time>2010-05-24T06:44:03Z</time>
      </trkpt>
      <trkpt lat="50.39004" lon="2.2608">
        <ele>149.1416016</ele>
        <time>2010-05-24T06:44:13Z</time>
      </trkpt>
      <trkpt lat="50.39023" lon="2.26071">
        <ele>149.1416016</ele>
        <time>2010-05-24T06:44:17Z</time>
      </trkpt>
      <trkpt lat="50.39043" lon="2.26062">
        <ele>149.1416016</ele>
        <time>2010-05-24T06:44:21Z</time>
      </trkpt>
      <trkpt lat="50.39085" lon="2.26044">
        <ele>146.7384033</ele>
        <time>2010-05-24T06:44:29Z</time>
      </trkpt>
      <trkpt lat="50.39138" lon="2.2602">
        <ele>145.2963867</ele>
        <time>2010-05-24T06:44:39Z</time>
      </trkpt>
      <trkpt lat="50.3917" lon="2.26004">
        <ele>143.8543701</ele>
        <time>2010-05-24T06:44:45Z</time>
      </trkpt>
      <trkpt lat="50.39239" lon="2.25971">
        <ele>142.8930664</ele>
        <time>2010-05-24T06:44:57Z</time>
      </trkpt>
      <trkpt lat="50.39285" lon="2.25951">
        <ele>141.9317627</ele>
        <time>2010-05-24T06:45:05Z</time>
      </trkpt>
      <trkpt lat="50.39312" lon="2.2594">
        <ele>140.0091553</ele>
        <time>2010-05-24T06:45:10Z</time>
      </trkpt>
      <trkpt lat="50.39325" lon="2.25951">
        <ele>139.5284424</ele>
        <time>2010-05-24T06:45:14Z</time>
      </trkpt>
      <trkpt lat="50.39332" lon="2.25983">
        <ele>140.970459</ele>
        <time>2010-05-24T06:45:19Z</time>
      </trkpt>
      <trkpt lat="50.39337" lon="2.25996">
        <ele>142.4124756</ele>
        <time>2010-05-24T06:45:21Z</time>
      </trkpt>
      <trkpt lat="50.39341" lon="2.2601">
        <ele>143.3736572</ele>
        <time>2010-05-24T06:45:23Z</time>
      </trkpt>
      <trkpt lat="50.39344" lon="2.26016">
        <ele>143.8543701</ele>
        <time>2010-05-24T06:45:24Z</time>
      </trkpt>
      <trkpt lat="50.39346" lon="2.26023">
        <ele>143.8543701</ele>
        <time>2010-05-24T06:45:25Z</time>
      </trkpt>
      <trkpt lat="50.39348" lon="2.2603">
        <ele>144.3352051</ele>
        <time>2010-05-24T06:45:26Z</time>
      </trkpt>
      <trkpt lat="50.3937" lon="2.26097">
        <ele>146.2578125</ele>
        <time>2010-05-24T06:45:35Z</time>
      </trkpt>
      <trkpt lat="50.39393" lon="2.26169">
        <ele>146.7384033</ele>
        <time>2010-05-24T06:45:44Z</time>
      </trkpt>
      <trkpt lat="50.39417" lon="2.2623">
        <ele>147.2189941</ele>
        <time>2010-05-24T06:45:52Z</time>
      </trkpt>
      <trkpt lat="50.3944" lon="2.26291">
        <ele>147.699707</ele>
        <time>2010-05-24T06:46:00Z</time>
      </trkpt>
      <trkpt lat="50.39462" lon="2.26353">
        <ele>148.6610107</ele>
        <time>2010-05-24T06:46:08Z</time>
      </trkpt>
      <trkpt lat="50.3948" lon="2.26403">
        <ele>149.6223145</ele>
        <time>2010-05-24T06:46:15Z</time>
      </trkpt>
      <trkpt lat="50.395" lon="2.26453">
        <ele>150.1030273</ele>
        <time>2010-05-24T06:46:22Z</time>
      </trkpt>
      <trkpt lat="50.39519" lon="2.26501">
        <ele>151.064209</ele>
        <time>2010-05-24T06:46:29Z</time>
      </trkpt>
      <trkpt lat="50.39538" lon="2.26546">
        <ele>151.064209</ele>
        <time>2010-05-24T06:46:36Z</time>
      </trkpt>
      <trkpt lat="50.39561" lon="2.26598">
        <ele>151.064209</ele>
        <time>2010-05-24T06:46:44Z</time>
      </trkpt>
      <trkpt lat="50.39586" lon="2.26659">
        <ele>152.0257568</ele>
        <time>2010-05-24T06:46:53Z</time>
      </trkpt>
      <trkpt lat="50.39605" lon="2.26706">
        <ele>152.5063477</ele>
        <time>2010-05-24T06:47:00Z</time>
      </trkpt>
      <trkpt lat="50.39626" lon="2.26759">
        <ele>152.9869385</ele>
        <time>2010-05-24T06:47:08Z</time>
      </trkpt>
      <trkpt lat="50.39636" lon="2.26798">
        <ele>152.9869385</ele>
        <time>2010-05-24T06:47:14Z</time>
      </trkpt>
      <trkpt lat="50.39646" lon="2.26806">
        <ele>153.9483643</ele>
        <time>2010-05-24T06:47:18Z</time>
      </trkpt>
      <trkpt lat="50.39653" lon="2.268">
        <ele>153.9483643</ele>
        <time>2010-05-24T06:47:20Z</time>
      </trkpt>
      <trkpt lat="50.39684" lon="2.26763">
        <ele>153.4676514</ele>
        <time>2010-05-24T06:47:28Z</time>
      </trkpt>
      <trkpt lat="50.397" lon="2.26744">
        <ele>152.5063477</ele>
        <time>2010-05-24T06:47:32Z</time>
      </trkpt>
      <trkpt lat="50.39733" lon="2.26706">
        <ele>150.5836182</ele>
        <time>2010-05-24T06:47:40Z</time>
      </trkpt>
      <trkpt lat="50.39769" lon="2.26667">
        <ele>150.5836182</ele>
        <time>2010-05-24T06:47:49Z</time>
      </trkpt>
      <trkpt lat="50.39791" lon="2.26645">
        <ele>153.4676514</ele>
        <time>2010-05-24T06:47:54Z</time>
      </trkpt>
      <trkpt lat="50.39809" lon="2.26627">
        <ele>153.4676514</ele>
        <time>2010-05-24T06:47:58Z</time>
      </trkpt>
      <trkpt lat="50.39818" lon="2.26605">
        <ele>150.1030273</ele>
        <time>2010-05-24T06:48:03Z</time>
      </trkpt>
      <trkpt lat="50.39818" lon="2.26599">
        <ele>149.6223145</ele>
        <time>2010-05-24T06:48:04Z</time>
      </trkpt>
      <trkpt lat="50.39815" lon="2.26572">
        <ele>146.7384033</ele>
        <time>2010-05-24T06:48:08Z</time>
      </trkpt>
      <trkpt lat="50.39798" lon="2.26521">
        <ele>139.0478516</ele>
        <time>2010-05-24T06:48:15Z</time>
      </trkpt>
      <trkpt lat="50.39777" lon="2.26472">
        <ele>134.2412109</ele>
        <time>2010-05-24T06:48:22Z</time>
      </trkpt>
      <trkpt lat="50.39765" lon="2.26445">
        <ele>130.3959961</ele>
        <time>2010-05-24T06:48:26Z</time>
      </trkpt>
      <trkpt lat="50.3974" lon="2.26401">
        <ele>131.8378906</ele>
        <time>2010-05-24T06:48:33Z</time>
      </trkpt>
      <trkpt lat="50.39739" lon="2.26373">
        <ele>132.3186035</ele>
        <time>2010-05-24T06:48:37Z</time>
      </trkpt>
      <trkpt lat="50.39742" lon="2.26366">
        <ele>132.7993164</ele>
        <time>2010-05-24T06:48:38Z</time>
      </trkpt>
      <trkpt lat="50.39766" lon="2.2632">
        <ele>136.1639404</ele>
        <time>2010-05-24T06:48:44Z</time>
      </trkpt>
      <trkpt lat="50.3979" lon="2.26293">
        <ele>139.0478516</ele>
        <time>2010-05-24T06:48:48Z</time>
      </trkpt>
      <trkpt lat="50.39855" lon="2.26247">
        <ele>136.6446533</ele>
        <time>2010-05-24T06:48:57Z</time>
      </trkpt>
      <trkpt lat="50.39892" lon="2.2622">
        <ele>133.760498</ele>
        <time>2010-05-24T06:49:02Z</time>
      </trkpt>
      <trkpt lat="50.39955" lon="2.26164">
        <ele>129.9152832</ele>
        <time>2010-05-24T06:49:11Z</time>
      </trkpt>
      <trkpt lat="50.39994" lon="2.26117">
        <ele>127.9925537</ele>
        <time>2010-05-24T06:49:17Z</time>
      </trkpt>
      <trkpt lat="50.40046" lon="2.26059">
        <ele>126.5506592</ele>
        <time>2010-05-24T06:49:25Z</time>
      </trkpt>
      <trkpt lat="50.4009" lon="2.26009">
        <ele>124.1473389</ele>
        <time>2010-05-24T06:49:32Z</time>
      </trkpt>
      <trkpt lat="50.40107" lon="2.2599">
        <ele>123.666748</ele>
        <time>2010-05-24T06:49:35Z</time>
      </trkpt>
      <trkpt lat="50.40128" lon="2.25985">
        <ele>123.1861572</ele>
        <time>2010-05-24T06:49:39Z</time>
      </trkpt>
      <trkpt lat="50.40154" lon="2.26007">
        <ele>122.7054443</ele>
        <time>2010-05-24T06:49:44Z</time>
      </trkpt>
      <trkpt lat="50.40183" lon="2.26011">
        <ele>122.2247314</ele>
        <time>2010-05-24T06:49:49Z</time>
      </trkpt>
      <trkpt lat="50.40207" lon="2.26004">
        <ele>121.7441406</ele>
        <time>2010-05-24T06:49:53Z</time>
      </trkpt>
      <trkpt lat="50.40229" lon="2.25997">
        <ele>121.7441406</ele>
        <time>2010-05-24T06:49:57Z</time>
      </trkpt>
      <trkpt lat="50.40263" lon="2.25987">
        <ele>123.666748</ele>
        <time>2010-05-24T06:50:04Z</time>
      </trkpt>
      <trkpt lat="50.40278" lon="2.25981">
        <ele>125.1087646</ele>
        <time>2010-05-24T06:50:08Z</time>
      </trkpt>
      <trkpt lat="50.40292" lon="2.25977">
        <ele>126.5506592</ele>
        <time>2010-05-24T06:50:12Z</time>
      </trkpt>
      <trkpt lat="50.40305" lon="2.25973">
        <ele>127.9925537</ele>
        <time>2010-05-24T06:50:16Z</time>
      </trkpt>
      <trkpt lat="50.40336" lon="2.25963">
        <ele>129.4346924</ele>
        <time>2010-05-24T06:50:25Z</time>
      </trkpt>
      <trkpt lat="50.40377" lon="2.25949">
        <ele>132.7993164</ele>
        <time>2010-05-24T06:50:36Z</time>
      </trkpt>
      <trkpt lat="50.40409" lon="2.25938">
        <ele>133.760498</ele>
        <time>2010-05-24T06:50:45Z</time>
      </trkpt>
      <trkpt lat="50.40449" lon="2.25923">
        <ele>134.7219238</ele>
        <time>2010-05-24T06:50:56Z</time>
      </trkpt>
      <trkpt lat="50.40485" lon="2.25902">
        <ele>134.2412109</ele>
        <time>2010-05-24T06:51:06Z</time>
      </trkpt>
      <trkpt lat="50.40525" lon="2.25884">
        <ele>135.2025146</ele>
        <time>2010-05-24T06:51:16Z</time>
      </trkpt>
      <trkpt lat="50.40567" lon="2.25864">
        <ele>134.2412109</ele>
        <time>2010-05-24T06:51:26Z</time>
      </trkpt>
      <trkpt lat="50.406" lon="2.25847">
        <ele>132.7993164</ele>
        <time>2010-05-24T06:51:34Z</time>
      </trkpt>
      <trkpt lat="50.4063" lon="2.25831">
        <ele>130.876709</ele>
        <time>2010-05-24T06:51:41Z</time>
      </trkpt>
      <trkpt lat="50.40641" lon="2.2582">
        <ele>129.9152832</ele>
        <time>2010-05-24T06:51:44Z</time>
      </trkpt>
      <trkpt lat="50.40662" lon="2.25786">
        <ele>130.3959961</ele>
        <time>2010-05-24T06:51:50Z</time>
      </trkpt>
      <trkpt lat="50.40676" lon="2.25787">
        <ele>131.3572998</ele>
        <time>2010-05-24T06:51:54Z</time>
      </trkpt>
      <trkpt lat="50.40679" lon="2.25792">
        <ele>131.3572998</ele>
        <time>2010-05-24T06:51:55Z</time>
      </trkpt>
      <trkpt lat="50.40699" lon="2.25837">
        <ele>132.3186035</ele>
        <time>2010-05-24T06:52:01Z</time>
      </trkpt>
      <trkpt lat="50.40713" lon="2.25874">
        <ele>132.3186035</ele>
        <time>2010-05-24T06:52:05Z</time>
      </trkpt>
      <trkpt lat="50.40717" lon="2.25884">
        <ele>132.3186035</ele>
        <time>2010-05-24T06:52:06Z</time>
      </trkpt>
      <trkpt lat="50.40736" lon="2.25946">
        <ele>131.3572998</ele>
        <time>2010-05-24T06:52:12Z</time>
      </trkpt>
      <trkpt lat="50.40749" lon="2.26036">
        <ele>130.3959961</ele>
        <time>2010-05-24T06:52:20Z</time>
      </trkpt>
      <trkpt lat="50.40765" lon="2.26139">
        <ele>127.9925537</ele>
        <time>2010-05-24T06:52:29Z</time>
      </trkpt>
      <trkpt lat="50.4078" lon="2.26235">
        <ele>126.0699463</ele>
        <time>2010-05-24T06:52:37Z</time>
      </trkpt>
      <trkpt lat="50.40785" lon="2.26309">
        <ele>125.5893555</ele>
        <time>2010-05-24T06:52:43Z</time>
      </trkpt>
      <trkpt lat="50.40789" lon="2.26392">
        <ele>124.1473389</ele>
        <time>2010-05-24T06:52:50Z</time>
      </trkpt>
      <trkpt lat="50.40802" lon="2.26449">
        <ele>122.7054443</ele>
        <time>2010-05-24T06:52:55Z</time>
      </trkpt>
      <trkpt lat="50.40816" lon="2.265">
        <ele>122.7054443</ele>
        <time>2010-05-24T06:53:00Z</time>
      </trkpt>
      <trkpt lat="50.40823" lon="2.26536">
        <ele>122.7054443</ele>
        <time>2010-05-24T06:53:04Z</time>
      </trkpt>
      <trkpt lat="50.40834" lon="2.26566">
        <ele>123.1861572</ele>
        <time>2010-05-24T06:53:08Z</time>
      </trkpt>
      <trkpt lat="50.40851" lon="2.2659">
        <ele>123.1861572</ele>
        <time>2010-05-24T06:53:12Z</time>
      </trkpt>
      <trkpt lat="50.40859" lon="2.26602">
        <ele>123.1861572</ele>
        <time>2010-05-24T06:53:14Z</time>
      </trkpt>
      <trkpt lat="50.40867" lon="2.26612">
        <ele>124.1473389</ele>
        <time>2010-05-24T06:53:16Z</time>
      </trkpt>
      <trkpt lat="50.40871" lon="2.26617">
        <ele>124.1473389</ele>
        <time>2010-05-24T06:53:17Z</time>
      </trkpt>
      <trkpt lat="50.4089" lon="2.26632">
        <ele>123.666748</ele>
        <time>2010-05-24T06:53:21Z</time>
      </trkpt>
      <trkpt lat="50.40918" lon="2.26647">
        <ele>122.7054443</ele>
        <time>2010-05-24T06:53:27Z</time>
      </trkpt>
      <trkpt lat="50.40969" lon="2.2667">
        <ele>122.2247314</ele>
        <time>2010-05-24T06:53:38Z</time>
      </trkpt>
      <trkpt lat="50.40989" lon="2.2667">
        <ele>123.666748</ele>
        <time>2010-05-24T06:53:43Z</time>
      </trkpt>
      <trkpt lat="50.41009" lon="2.26677">
        <ele>124.1473389</ele>
        <time>2010-05-24T06:53:50Z</time>
      </trkpt>
      <trkpt lat="50.41024" lon="2.26687">
        <ele>124.1473389</ele>
        <time>2010-05-24T06:53:54Z</time>
      </trkpt>
      <trkpt lat="50.41049" lon="2.26708">
        <ele>123.1861572</ele>
        <time>2010-05-24T06:54:01Z</time>
      </trkpt>
      <trkpt lat="50.41065" lon="2.2672">
        <ele>122.2247314</ele>
        <time>2010-05-24T06:54:05Z</time>
      </trkpt>
      <trkpt lat="50.41091" lon="2.26738">
        <ele>121.7441406</ele>
        <time>2010-05-24T06:54:11Z</time>
      </trkpt>
      <trkpt lat="50.41123" lon="2.26757">
        <ele>122.7054443</ele>
        <time>2010-05-24T06:54:19Z</time>
      </trkpt>
      <trkpt lat="50.41149" lon="2.26774">
        <ele>122.7054443</ele>
        <time>2010-05-24T06:54:26Z</time>
      </trkpt>
      <trkpt lat="50.41176" lon="2.26792">
        <ele>123.1861572</ele>
        <time>2010-05-24T06:54:33Z</time>
      </trkpt>
      <trkpt lat="50.41209" lon="2.26812">
        <ele>122.7054443</ele>
        <time>2010-05-24T06:54:42Z</time>
      </trkpt>
      <trkpt lat="50.41218" lon="2.26813">
        <ele>122.2247314</ele>
        <time>2010-05-24T06:54:44Z</time>
      </trkpt>
      <trkpt lat="50.41236" lon="2.26808">
        <ele>121.2635498</ele>
        <time>2010-05-24T06:54:48Z</time>
      </trkpt>
      <trkpt lat="50.41265" lon="2.26784">
        <ele>117.4182129</ele>
        <time>2010-05-24T06:54:55Z</time>
      </trkpt>
      <trkpt lat="50.41276" lon="2.26775">
        <ele>115.0148926</ele>
        <time>2010-05-24T06:54:57Z</time>
      </trkpt>
      <trkpt lat="50.41315" lon="2.26728">
        <ele>105.4017334</ele>
        <time>2010-05-24T06:55:05Z</time>
      </trkpt>
      <trkpt lat="50.4135" lon="2.26694">
        <ele>97.2304688</ele>
        <time>2010-05-24T06:55:12Z</time>
      </trkpt>
      <trkpt lat="50.41371" lon="2.26678">
        <ele>96.7498779</ele>
        <time>2010-05-24T06:55:17Z</time>
      </trkpt>
      <trkpt lat="50.41391" lon="2.26666">
        <ele>96.7498779</ele>
        <time>2010-05-24T06:55:22Z</time>
      </trkpt>
      <trkpt lat="50.41402" lon="2.26662">
        <ele>96.7498779</ele>
        <time>2010-05-24T06:55:25Z</time>
      </trkpt>
      <trkpt lat="50.41412" lon="2.2667">
        <ele>96.2692871</ele>
        <time>2010-05-24T06:55:29Z</time>
      </trkpt>
      <trkpt lat="50.41413" lon="2.26675">
        <ele>96.2692871</ele>
        <time>2010-05-24T06:55:30Z</time>
      </trkpt>
      <trkpt lat="50.4142" lon="2.26701">
        <ele>95.7884521</ele>
        <time>2010-05-24T06:55:35Z</time>
      </trkpt>
      <trkpt lat="50.41427" lon="2.26726">
        <ele>96.2692871</ele>
        <time>2010-05-24T06:55:40Z</time>
      </trkpt>
      <trkpt lat="50.41435" lon="2.26751">
        <ele>96.2692871</ele>
        <time>2010-05-24T06:55:45Z</time>
      </trkpt>
      <trkpt lat="50.41446" lon="2.26786">
        <ele>96.7498779</ele>
        <time>2010-05-24T06:55:52Z</time>
      </trkpt>
      <trkpt lat="50.41454" lon="2.26813">
        <ele>98.1918945</ele>
        <time>2010-05-24T06:55:57Z</time>
      </trkpt>
      <trkpt lat="50.41471" lon="2.26866">
        <ele>96.7498779</ele>
        <time>2010-05-24T06:56:07Z</time>
      </trkpt>
      <trkpt lat="50.41488" lon="2.26917">
        <ele>97.7111816</ele>
        <time>2010-05-24T06:56:17Z</time>
      </trkpt>
      <trkpt lat="50.41493" lon="2.2694">
        <ele>100.114502</ele>
        <time>2010-05-24T06:56:22Z</time>
      </trkpt>
      <trkpt lat="50.41483" lon="2.26959">
        <ele>102.0371094</ele>
        <time>2010-05-24T06:56:26Z</time>
      </trkpt>
      <trkpt lat="50.41468" lon="2.26971">
        <ele>100.5950928</ele>
        <time>2010-05-24T06:56:29Z</time>
      </trkpt>
      <trkpt lat="50.41428" lon="2.27003">
        <ele>96.7498779</ele>
        <time>2010-05-24T06:56:36Z</time>
      </trkpt>
      <trkpt lat="50.41399" lon="2.27029">
        <ele>94.8271484</ele>
        <time>2010-05-24T06:56:41Z</time>
      </trkpt>
      <trkpt lat="50.41368" lon="2.27068">
        <ele>92.904541</ele>
        <time>2010-05-24T06:56:47Z</time>
      </trkpt>
      <trkpt lat="50.41353" lon="2.27088">
        <ele>90.9819336</ele>
        <time>2010-05-24T06:56:50Z</time>
      </trkpt>
      <trkpt lat="50.41334" lon="2.27141">
        <ele>86.175293</ele>
        <time>2010-05-24T06:56:56Z</time>
      </trkpt>
      <trkpt lat="50.41314" lon="2.27165">
        <ele>84.7333984</ele>
        <time>2010-05-24T06:57:00Z</time>
      </trkpt>
      <trkpt lat="50.41295" lon="2.27175">
        <ele>84.2526855</ele>
        <time>2010-05-24T06:57:03Z</time>
      </trkpt>
      <trkpt lat="50.41269" lon="2.27194">
        <ele>84.2526855</ele>
        <time>2010-05-24T06:57:08Z</time>
      </trkpt>
      <trkpt lat="50.41258" lon="2.27209">
        <ele>85.2139893</ele>
        <time>2010-05-24T06:57:13Z</time>
      </trkpt>
      <trkpt lat="50.41254" lon="2.27217">
        <ele>86.6560059</ele>
        <time>2010-05-24T06:57:19Z</time>
      </trkpt>
      <trkpt lat="50.41253" lon="2.27221">
        <ele>89.0593262</ele>
        <time>2010-05-24T06:57:25Z</time>
      </trkpt>
      <trkpt lat="50.41252" lon="2.27223">
        <ele>89.539917</ele>
        <time>2010-05-24T06:57:29Z</time>
      </trkpt>
      <trkpt lat="50.41252" lon="2.27229">
        <ele>100.114502</ele>
        <time>2010-05-24T06:58:08Z</time>
      </trkpt>
      <trkpt lat="50.41252" lon="2.2723">
        <ele>100.5950928</ele>
        <time>2010-05-24T06:58:09Z</time>
      </trkpt>
      <trkpt lat="50.41252" lon="2.2723">
        <ele>101.0756836</ele>
        <time>2010-05-24T06:58:10Z</time>
      </trkpt>
      <trkpt lat="50.41256" lon="2.27229">
        <ele>100.5950928</ele>
        <time>2010-05-24T06:58:15Z</time>
      </trkpt>
      <trkpt lat="50.41256" lon="2.27229">
        <ele>100.114502</ele>
        <time>2010-05-24T06:58:17Z</time>
      </trkpt>
      <trkpt lat="50.41257" lon="2.2723">
        <ele>99.6337891</ele>
        <time>2010-05-24T06:58:19Z</time>
      </trkpt>
      <trkpt lat="50.41264" lon="2.27244">
        <ele>100.114502</ele>
        <time>2010-05-24T06:58:24Z</time>
      </trkpt>
      <trkpt lat="50.41268" lon="2.27259">
        <ele>100.114502</ele>
        <time>2010-05-24T06:58:30Z</time>
      </trkpt>
      <trkpt lat="50.41269" lon="2.27283">
        <ele>100.5950928</ele>
        <time>2010-05-24T06:58:36Z</time>
      </trkpt>
      <trkpt lat="50.41273" lon="2.27303">
        <ele>102.998291</ele>
        <time>2010-05-24T06:58:42Z</time>
      </trkpt>
      <trkpt lat="50.41273" lon="2.27304">
        <ele>102.0371094</ele>
        <time>2010-05-24T06:58:46Z</time>
      </trkpt>
      <trkpt lat="50.4127" lon="2.2727">
        <ele>87.1365967</ele>
        <time>2010-05-24T06:59:37Z</time>
      </trkpt>
      <trkpt lat="50.4127" lon="2.27249">
        <ele>85.6945801</ele>
        <time>2010-05-24T06:59:43Z</time>
      </trkpt>
      <trkpt lat="50.41266" lon="2.27238">
        <ele>88.0980225</ele>
        <time>2010-05-24T06:59:49Z</time>
      </trkpt>
      <trkpt lat="50.41265" lon="2.27232">
        <ele>84.7333984</ele>
        <time>2010-05-24T06:59:54Z</time>
      </trkpt>
      <trkpt lat="50.41263" lon="2.27228">
        <ele>80.8881836</ele>
        <time>2010-05-24T07:00:02Z</time>
      </trkpt>
      <trkpt lat="50.41256" lon="2.27224">
        <ele>78.9654541</ele>
        <time>2010-05-24T07:00:09Z</time>
      </trkpt>
      <trkpt lat="50.41254" lon="2.27226">
        <ele>79.9266357</ele>
        <time>2010-05-24T07:00:14Z</time>
      </trkpt>
      <trkpt lat="50.41253" lon="2.27228">
        <ele>80.4074707</ele>
        <time>2010-05-24T07:00:15Z</time>
      </trkpt>
      <trkpt lat="50.41244" lon="2.27243">
        <ele>83.2913818</ele>
        <time>2010-05-24T07:00:22Z</time>
      </trkpt>
      <trkpt lat="50.41243" lon="2.27256">
        <ele>83.7719727</ele>
        <time>2010-05-24T07:00:25Z</time>
      </trkpt>
      <trkpt lat="50.41248" lon="2.27299">
        <ele>88.0980225</ele>
        <time>2010-05-24T07:00:34Z</time>
      </trkpt>
      <trkpt lat="50.41255" lon="2.27341">
        <ele>90.5013428</ele>
        <time>2010-05-24T07:00:43Z</time>
      </trkpt>
      <trkpt lat="50.41261" lon="2.27375">
        <ele>94.3465576</ele>
        <time>2010-05-24T07:00:50Z</time>
      </trkpt>
      <trkpt lat="50.41269" lon="2.27409">
        <ele>99.1530762</ele>
        <time>2010-05-24T07:00:57Z</time>
      </trkpt>
      <trkpt lat="50.41274" lon="2.27448">
        <ele>103.4790039</ele>
        <time>2010-05-24T07:01:05Z</time>
      </trkpt>
      <trkpt lat="50.41271" lon="2.27475">
        <ele>103.9597168</ele>
        <time>2010-05-24T07:01:12Z</time>
      </trkpt>
      <trkpt lat="50.41271" lon="2.27498">
        <ele>101.0756836</ele>
        <time>2010-05-24T07:01:18Z</time>
      </trkpt>
      <trkpt lat="50.41272" lon="2.27516">
        <ele>102.0371094</ele>
        <time>2010-05-24T07:01:22Z</time>
      </trkpt>
      <trkpt lat="50.4128" lon="2.27544">
        <ele>108.2856445</ele>
        <time>2010-05-24T07:01:28Z</time>
      </trkpt>
      <trkpt lat="50.41287" lon="2.27577">
        <ele>113.0922852</ele>
        <time>2010-05-24T07:01:36Z</time>
      </trkpt>
      <trkpt lat="50.41296" lon="2.27605">
        <ele>116.9375</ele>
        <time>2010-05-24T07:01:43Z</time>
      </trkpt>
      <trkpt lat="50.41309" lon="2.27658">
        <ele>119.3408203</ele>
        <time>2010-05-24T07:01:56Z</time>
      </trkpt>
      <trkpt lat="50.4132" lon="2.27695">
        <ele>120.7828369</ele>
        <time>2010-05-24T07:02:05Z</time>
      </trkpt>
      <trkpt lat="50.41335" lon="2.27745">
        <ele>122.7054443</ele>
        <time>2010-05-24T07:02:17Z</time>
      </trkpt>
      <trkpt lat="50.41352" lon="2.27784">
        <ele>123.666748</ele>
        <time>2010-05-24T07:02:27Z</time>
      </trkpt>
      <trkpt lat="50.41365" lon="2.27814">
        <ele>123.666748</ele>
        <time>2010-05-24T07:02:34Z</time>
      </trkpt>
      <trkpt lat="50.41385" lon="2.27864">
        <ele>124.1473389</ele>
        <time>2010-05-24T07:02:43Z</time>
      </trkpt>
      <trkpt lat="50.41397" lon="2.27908">
        <ele>125.1087646</ele>
        <time>2010-05-24T07:02:50Z</time>
      </trkpt>
      <trkpt lat="50.41403" lon="2.27962">
        <ele>127.0313721</ele>
        <time>2010-05-24T07:02:58Z</time>
      </trkpt>
      <trkpt lat="50.41408" lon="2.28011">
        <ele>127.5119629</ele>
        <time>2010-05-24T07:03:05Z</time>
      </trkpt>
      <trkpt lat="50.41416" lon="2.28045">
        <ele>127.9925537</ele>
        <time>2010-05-24T07:03:10Z</time>
      </trkpt>
      <trkpt lat="50.41436" lon="2.28083">
        <ele>127.5119629</ele>
        <time>2010-05-24T07:03:16Z</time>
      </trkpt>
      <trkpt lat="50.41452" lon="2.28109">
        <ele>127.5119629</ele>
        <time>2010-05-24T07:03:20Z</time>
      </trkpt>
      <trkpt lat="50.41485" lon="2.2816">
        <ele>126.0699463</ele>
        <time>2010-05-24T07:03:28Z</time>
      </trkpt>
      <trkpt lat="50.41518" lon="2.2821">
        <ele>124.1473389</ele>
        <time>2010-05-24T07:03:36Z</time>
      </trkpt>
      <trkpt lat="50.41529" lon="2.28227">
        <ele>123.666748</ele>
        <time>2010-05-24T07:03:39Z</time>
      </trkpt>
      <trkpt lat="50.41534" lon="2.28239">
        <ele>122.7054443</ele>
        <time>2010-05-24T07:03:41Z</time>
      </trkpt>
      <trkpt lat="50.41548" lon="2.28245">
        <ele>122.2247314</ele>
        <time>2010-05-24T07:03:45Z</time>
      </trkpt>
      <trkpt lat="50.41557" lon="2.28238">
        <ele>120.7828369</ele>
        <time>2010-05-24T07:03:48Z</time>
      </trkpt>
      <trkpt lat="50.41568" lon="2.28226">
        <ele>119.8214111</ele>
        <time>2010-05-24T07:03:52Z</time>
      </trkpt>
      <trkpt lat="50.41571" lon="2.28223">
        <ele>119.8214111</ele>
        <time>2010-05-24T07:03:53Z</time>
      </trkpt>
      <trkpt lat="50.4158" lon="2.2822">
        <ele>118.3793945</ele>
        <time>2010-05-24T07:03:57Z</time>
      </trkpt>
      <trkpt lat="50.41598" lon="2.28229">
        <ele>118.3793945</ele>
        <time>2010-05-24T07:04:02Z</time>
      </trkpt>
      <trkpt lat="50.41613" lon="2.28237">
        <ele>115.9761963</ele>
        <time>2010-05-24T07:04:06Z</time>
      </trkpt>
      <trkpt lat="50.41634" lon="2.2824">
        <ele>115.0148926</ele>
        <time>2010-05-24T07:04:11Z</time>
      </trkpt>
      <trkpt lat="50.41639" lon="2.28239">
        <ele>112.6115723</ele>
        <time>2010-05-24T07:04:12Z</time>
      </trkpt>
      <trkpt lat="50.41659" lon="2.28246">
        <ele>109.7276611</ele>
        <time>2010-05-24T07:04:17Z</time>
      </trkpt>
      <trkpt lat="50.41672" lon="2.28255">
        <ele>106.8436279</ele>
        <time>2010-05-24T07:04:22Z</time>
      </trkpt>
      <trkpt lat="50.41679" lon="2.28273">
        <ele>105.8824463</ele>
        <time>2010-05-24T07:04:26Z</time>
      </trkpt>
      <trkpt lat="50.41687" lon="2.2829">
        <ele>108.2856445</ele>
        <time>2010-05-24T07:04:30Z</time>
      </trkpt>
      <trkpt lat="50.41697" lon="2.28312">
        <ele>108.2856445</ele>
        <time>2010-05-24T07:04:36Z</time>
      </trkpt>
      <trkpt lat="50.41713" lon="2.28348">
        <ele>108.7662354</ele>
        <time>2010-05-24T07:04:44Z</time>
      </trkpt>
      <trkpt lat="50.41729" lon="2.28378">
        <ele>108.2856445</ele>
        <time>2010-05-24T07:04:52Z</time>
      </trkpt>
      <trkpt lat="50.41751" lon="2.2842">
        <ele>106.8436279</ele>
        <time>2010-05-24T07:05:00Z</time>
      </trkpt>
      <trkpt lat="50.41771" lon="2.28457">
        <ele>103.4790039</ele>
        <time>2010-05-24T07:05:07Z</time>
      </trkpt>
      <trkpt lat="50.41794" lon="2.285">
        <ele>101.0756836</ele>
        <time>2010-05-24T07:05:15Z</time>
      </trkpt>
      <trkpt lat="50.41811" lon="2.28524">
        <ele>100.114502</ele>
        <time>2010-05-24T07:05:20Z</time>
      </trkpt>
      <trkpt lat="50.41814" lon="2.28527">
        <ele>99.6337891</ele>
        <time>2010-05-24T07:05:21Z</time>
      </trkpt>
      <trkpt lat="50.41828" lon="2.28541">
        <ele>98.1918945</ele>
        <time>2010-05-24T07:05:25Z</time>
      </trkpt>
      <trkpt lat="50.41847" lon="2.2856">
        <ele>95.3077393</ele>
        <time>2010-05-24T07:05:29Z</time>
      </trkpt>
      <trkpt lat="50.41887" lon="2.28592">
        <ele>89.0593262</ele>
        <time>2010-05-24T07:05:36Z</time>
      </trkpt>
      <trkpt lat="50.41899" lon="2.28603">
        <ele>85.2139893</ele>
        <time>2010-05-24T07:05:38Z</time>
      </trkpt>
      <trkpt lat="50.41916" lon="2.28634">
        <ele>78.9654541</ele>
        <time>2010-05-24T07:05:42Z</time>
      </trkpt>
      <trkpt lat="50.4194" lon="2.28698">
        <ele>75.6008301</ele>
        <time>2010-05-24T07:05:48Z</time>
      </trkpt>
      <trkpt lat="50.41964" lon="2.28748">
        <ele>70.3134766</ele>
        <time>2010-05-24T07:05:53Z</time>
      </trkpt>
      <trkpt lat="50.4197" lon="2.28757">
        <ele>70.3134766</ele>
        <time>2010-05-24T07:05:54Z</time>
      </trkpt>
      <trkpt lat="50.41983" lon="2.28774">
        <ele>69.8328857</ele>
        <time>2010-05-24T07:05:56Z</time>
      </trkpt>
      <trkpt lat="50.42008" lon="2.28785">
        <ele>69.3522949</ele>
        <time>2010-05-24T07:06:00Z</time>
      </trkpt>
      <trkpt lat="50.42033" lon="2.28791">
        <ele>71.2749023</ele>
        <time>2010-05-24T07:06:05Z</time>
      </trkpt>
      <trkpt lat="50.42035" lon="2.28797">
        <ele>71.2749023</ele>
        <time>2010-05-24T07:06:06Z</time>
      </trkpt>
      <trkpt lat="50.42045" lon="2.28843">
        <ele>71.2749023</ele>
        <time>2010-05-24T07:06:13Z</time>
      </trkpt>
      <trkpt lat="50.4206" lon="2.28905">
        <ele>68.3908691</ele>
        <time>2010-05-24T07:06:22Z</time>
      </trkpt>
      <trkpt lat="50.42065" lon="2.28924">
        <ele>68.3908691</ele>
        <time>2010-05-24T07:06:25Z</time>
      </trkpt>
      <trkpt lat="50.42066" lon="2.28943">
        <ele>68.3908691</ele>
        <time>2010-05-24T07:06:29Z</time>
      </trkpt>
      <trkpt lat="50.42065" lon="2.28953">
        <ele>70.3134766</ele>
        <time>2010-05-24T07:06:31Z</time>
      </trkpt>
      <trkpt lat="50.42074" lon="2.28973">
        <ele>75.1202393</ele>
        <time>2010-05-24T07:06:35Z</time>
      </trkpt>
      <trkpt lat="50.42091" lon="2.28997">
        <ele>78.0040283</ele>
        <time>2010-05-24T07:06:40Z</time>
      </trkpt>
      <trkpt lat="50.42105" lon="2.29016">
        <ele>80.4074707</ele>
        <time>2010-05-24T07:06:44Z</time>
      </trkpt>
      <trkpt lat="50.42122" lon="2.29039">
        <ele>82.3300781</ele>
        <time>2010-05-24T07:06:49Z</time>
      </trkpt>
      <trkpt lat="50.42143" lon="2.2907">
        <ele>83.7719727</ele>
        <time>2010-05-24T07:06:56Z</time>
      </trkpt>
      <trkpt lat="50.42157" lon="2.29096">
        <ele>84.2526855</ele>
        <time>2010-05-24T07:07:01Z</time>
      </trkpt>
      <trkpt lat="50.42172" lon="2.29131">
        <ele>83.7719727</ele>
        <time>2010-05-24T07:07:06Z</time>
      </trkpt>
      <trkpt lat="50.42193" lon="2.29198">
        <ele>83.2913818</ele>
        <time>2010-05-24T07:07:13Z</time>
      </trkpt>
      <trkpt lat="50.42211" lon="2.29257">
        <ele>83.2913818</ele>
        <time>2010-05-24T07:07:19Z</time>
      </trkpt>
      <trkpt lat="50.42231" lon="2.29315">
        <ele>81.3687744</ele>
        <time>2010-05-24T07:07:25Z</time>
      </trkpt>
      <trkpt lat="50.42243" lon="2.29348">
        <ele>81.8493652</ele>
        <time>2010-05-24T07:07:29Z</time>
      </trkpt>
      <trkpt lat="50.42262" lon="2.29409">
        <ele>81.8493652</ele>
        <time>2010-05-24T07:07:37Z</time>
      </trkpt>
      <trkpt lat="50.42276" lon="2.29453">
        <ele>82.3300781</ele>
        <time>2010-05-24T07:07:43Z</time>
      </trkpt>
      <trkpt lat="50.42283" lon="2.29475">
        <ele>81.3687744</ele>
        <time>2010-05-24T07:07:46Z</time>
      </trkpt>
      <trkpt lat="50.42287" lon="2.29498">
        <ele>81.3687744</ele>
        <time>2010-05-24T07:07:49Z</time>
      </trkpt>
      <trkpt lat="50.42287" lon="2.2952">
        <ele>83.2913818</ele>
        <time>2010-05-24T07:07:52Z</time>
      </trkpt>
      <trkpt lat="50.42282" lon="2.2955">
        <ele>84.2526855</ele>
        <time>2010-05-24T07:07:57Z</time>
      </trkpt>
      <trkpt lat="50.42274" lon="2.29576">
        <ele>84.2526855</ele>
        <time>2010-05-24T07:08:01Z</time>
      </trkpt>
      <trkpt lat="50.42261" lon="2.29599">
        <ele>82.3300781</ele>
        <time>2010-05-24T07:08:05Z</time>
      </trkpt>
      <trkpt lat="50.42258" lon="2.29604">
        <ele>82.3300781</ele>
        <time>2010-05-24T07:08:06Z</time>
      </trkpt>
      <trkpt lat="50.42246" lon="2.29634">
        <ele>83.2913818</ele>
        <time>2010-05-24T07:08:12Z</time>
      </trkpt>
      <trkpt lat="50.42241" lon="2.2965">
        <ele>83.2913818</ele>
        <time>2010-05-24T07:08:16Z</time>
      </trkpt>
      <trkpt lat="50.42239" lon="2.29663">
        <ele>82.810791</ele>
        <time>2010-05-24T07:08:19Z</time>
      </trkpt>
      <trkpt lat="50.42237" lon="2.29677">
        <ele>82.3300781</ele>
        <time>2010-05-24T07:08:22Z</time>
      </trkpt>
      <trkpt lat="50.42235" lon="2.2969">
        <ele>82.810791</ele>
        <time>2010-05-24T07:08:25Z</time>
      </trkpt>
      <trkpt lat="50.42234" lon="2.297">
        <ele>82.3300781</ele>
        <time>2010-05-24T07:08:27Z</time>
      </trkpt>
      <trkpt lat="50.42233" lon="2.29704">
        <ele>82.810791</ele>
        <time>2010-05-24T07:08:28Z</time>
      </trkpt>
      <trkpt lat="50.42231" lon="2.29712">
        <ele>83.7719727</ele>
        <time>2010-05-24T07:08:30Z</time>
      </trkpt>
      <trkpt lat="50.42224" lon="2.29742">
        <ele>85.2139893</ele>
        <time>2010-05-24T07:08:37Z</time>
      </trkpt>
      <trkpt lat="50.42217" lon="2.29769">
        <ele>88.0980225</ele>
        <time>2010-05-24T07:08:44Z</time>
      </trkpt>
      <trkpt lat="50.42214" lon="2.29784">
        <ele>87.1365967</ele>
        <time>2010-05-24T07:08:49Z</time>
      </trkpt>
      <trkpt lat="50.42204" lon="2.29795">
        <ele>88.5787354</ele>
        <time>2010-05-24T07:08:55Z</time>
      </trkpt>
      <trkpt lat="50.42191" lon="2.29813">
        <ele>89.539917</ele>
        <time>2010-05-24T07:09:01Z</time>
      </trkpt>
      <trkpt lat="50.42178" lon="2.29835">
        <ele>88.5787354</ele>
        <time>2010-05-24T07:09:06Z</time>
      </trkpt>
      <trkpt lat="50.42165" lon="2.29861">
        <ele>88.0980225</ele>
        <time>2010-05-24T07:09:11Z</time>
      </trkpt>
      <trkpt lat="50.42162" lon="2.29873">
        <ele>88.5787354</ele>
        <time>2010-05-24T07:09:13Z</time>
      </trkpt>
      <trkpt lat="50.42142" lon="2.29902">
        <ele>89.539917</ele>
        <time>2010-05-24T07:09:19Z</time>
      </trkpt>
      <trkpt lat="50.42139" lon="2.29906">
        <ele>90.0206299</ele>
        <time>2010-05-24T07:09:20Z</time>
      </trkpt>
      <trkpt lat="50.42116" lon="2.29932">
        <ele>88.5787354</ele>
        <time>2010-05-24T07:09:27Z</time>
      </trkpt>
      <trkpt lat="50.42105" lon="2.29944">
        <ele>86.6560059</ele>
        <time>2010-05-24T07:09:30Z</time>
      </trkpt>
      <trkpt lat="50.42095" lon="2.29953">
        <ele>84.2526855</ele>
        <time>2010-05-24T07:09:32Z</time>
      </trkpt>
      <trkpt lat="50.42056" lon="2.29974">
        <ele>80.8881836</ele>
        <time>2010-05-24T07:09:38Z</time>
      </trkpt>
      <trkpt lat="50.4203" lon="2.29993">
        <ele>78.4847412</ele>
        <time>2010-05-24T07:09:42Z</time>
      </trkpt>
      <trkpt lat="50.41989" lon="2.30022">
        <ele>77.0428467</ele>
        <time>2010-05-24T07:09:49Z</time>
      </trkpt>
      <trkpt lat="50.41971" lon="2.30024">
        <ele>75.6008301</ele>
        <time>2010-05-24T07:09:53Z</time>
      </trkpt>
      <trkpt lat="50.4196" lon="2.30016">
        <ele>75.6008301</ele>
        <time>2010-05-24T07:09:56Z</time>
      </trkpt>
      <trkpt lat="50.41954" lon="2.29994">
        <ele>70.7941895</ele>
        <time>2010-05-24T07:10:01Z</time>
      </trkpt>
      <trkpt lat="50.41956" lon="2.29968">
        <ele>69.8328857</ele>
        <time>2010-05-24T07:10:06Z</time>
      </trkpt>
      <trkpt lat="50.41951" lon="2.29947">
        <ele>69.3522949</ele>
        <time>2010-05-24T07:10:11Z</time>
      </trkpt>
      <trkpt lat="50.41943" lon="2.29942">
        <ele>68.871582</ele>
        <time>2010-05-24T07:10:14Z</time>
      </trkpt>
      <trkpt lat="50.41919" lon="2.29945">
        <ele>71.7554932</ele>
        <time>2010-05-24T07:10:20Z</time>
      </trkpt>
      <trkpt lat="50.41906" lon="2.2995">
        <ele>72.7169189</ele>
        <time>2010-05-24T07:10:23Z</time>
      </trkpt>
      <trkpt lat="50.41884" lon="2.29958">
        <ele>70.3134766</ele>
        <time>2010-05-24T07:10:28Z</time>
      </trkpt>
      <trkpt lat="50.41876" lon="2.29962">
        <ele>69.3522949</ele>
        <time>2010-05-24T07:10:30Z</time>
      </trkpt>
      <trkpt lat="50.41859" lon="2.29969">
        <ele>72.2362061</ele>
        <time>2010-05-24T07:10:34Z</time>
      </trkpt>
      <trkpt lat="50.41819" lon="2.29984">
        <ele>78.0040283</ele>
        <time>2010-05-24T07:10:44Z</time>
      </trkpt>
      <trkpt lat="50.41806" lon="2.2999">
        <ele>79.9266357</ele>
        <time>2010-05-24T07:10:49Z</time>
      </trkpt>
      <trkpt lat="50.41801" lon="2.30009">
        <ele>81.8493652</ele>
        <time>2010-05-24T07:10:53Z</time>
      </trkpt>
      <trkpt lat="50.41801" lon="2.3004">
        <ele>81.8493652</ele>
        <time>2010-05-24T07:10:58Z</time>
      </trkpt>
      <trkpt lat="50.41807" lon="2.30093">
        <ele>82.3300781</ele>
        <time>2010-05-24T07:11:05Z</time>
      </trkpt>
      <trkpt lat="50.41818" lon="2.30155">
        <ele>83.7719727</ele>
        <time>2010-05-24T07:11:13Z</time>
      </trkpt>
      <trkpt lat="50.41829" lon="2.30192">
        <ele>83.7719727</ele>
        <time>2010-05-24T07:11:19Z</time>
      </trkpt>
      <trkpt lat="50.41855" lon="2.30228">
        <ele>84.2526855</ele>
        <time>2010-05-24T07:11:27Z</time>
      </trkpt>
      <trkpt lat="50.41887" lon="2.30263">
        <ele>85.2139893</ele>
        <time>2010-05-24T07:11:35Z</time>
      </trkpt>
      <trkpt lat="50.41891" lon="2.30267">
        <ele>85.2139893</ele>
        <time>2010-05-24T07:11:36Z</time>
      </trkpt>
      <trkpt lat="50.41929" lon="2.30296">
        <ele>84.7333984</ele>
        <time>2010-05-24T07:11:45Z</time>
      </trkpt>
      <trkpt lat="50.41946" lon="2.30316">
        <ele>85.2139893</ele>
        <time>2010-05-24T07:11:50Z</time>
      </trkpt>
      <trkpt lat="50.41956" lon="2.30338">
        <ele>84.7333984</ele>
        <time>2010-05-24T07:11:54Z</time>
      </trkpt>
      <trkpt lat="50.41957" lon="2.30378">
        <ele>84.2526855</ele>
        <time>2010-05-24T07:12:00Z</time>
      </trkpt>
      <trkpt lat="50.4194" lon="2.30421">
        <ele>81.8493652</ele>
        <time>2010-05-24T07:12:07Z</time>
      </trkpt>
      <trkpt lat="50.41922" lon="2.30452">
        <ele>81.8493652</ele>
        <time>2010-05-24T07:12:14Z</time>
      </trkpt>
      <trkpt lat="50.41908" lon="2.30463">
        <ele>81.8493652</ele>
        <time>2010-05-24T07:12:19Z</time>
      </trkpt>
      <trkpt lat="50.41891" lon="2.30467">
        <ele>82.3300781</ele>
        <time>2010-05-24T07:12:26Z</time>
      </trkpt>
      <trkpt lat="50.41877" lon="2.30467">
        <ele>81.3687744</ele>
        <time>2010-05-24T07:12:33Z</time>
      </trkpt>
      <trkpt lat="50.41864" lon="2.30466">
        <ele>77.5234375</ele>
        <time>2010-05-24T07:12:38Z</time>
      </trkpt>
      <trkpt lat="50.41855" lon="2.30469">
        <ele>78.0040283</ele>
        <time>2010-05-24T07:12:42Z</time>
      </trkpt>
      <trkpt lat="50.41843" lon="2.30475">
        <ele>86.6560059</ele>
        <time>2010-05-24T07:12:48Z</time>
      </trkpt>
      <trkpt lat="50.41837" lon="2.30483">
        <ele>90.5013428</ele>
        <time>2010-05-24T07:12:52Z</time>
      </trkpt>
      <trkpt lat="50.41828" lon="2.30491">
        <ele>92.904541</ele>
        <time>2010-05-24T07:12:57Z</time>
      </trkpt>
      <trkpt lat="50.41819" lon="2.30501">
        <ele>98.1918945</ele>
        <time>2010-05-24T07:13:04Z</time>
      </trkpt>
      <trkpt lat="50.41804" lon="2.30516">
        <ele>101.0756836</ele>
        <time>2010-05-24T07:13:13Z</time>
      </trkpt>
      <trkpt lat="50.41795" lon="2.30523">
        <ele>101.5563965</ele>
        <time>2010-05-24T07:13:19Z</time>
      </trkpt>
      <trkpt lat="50.41779" lon="2.30533">
        <ele>99.1530762</ele>
        <time>2010-05-24T07:13:28Z</time>
      </trkpt>
      <trkpt lat="50.41763" lon="2.30544">
        <ele>100.114502</ele>
        <time>2010-05-24T07:13:36Z</time>
      </trkpt>
      <trkpt lat="50.41745" lon="2.30552">
        <ele>95.3077393</ele>
        <time>2010-05-24T07:13:45Z</time>
      </trkpt>
      <trkpt lat="50.41728" lon="2.30561">
        <ele>85.2139893</ele>
        <time>2010-05-24T07:13:53Z</time>
      </trkpt>
      <trkpt lat="50.41701" lon="2.30583">
        <ele>86.175293</ele>
        <time>2010-05-24T07:14:02Z</time>
      </trkpt>
      <trkpt lat="50.41688" lon="2.30595">
        <ele>85.6945801</ele>
        <time>2010-05-24T07:14:06Z</time>
      </trkpt>
      <trkpt lat="50.41666" lon="2.30613">
        <ele>87.6171875</ele>
        <time>2010-05-24T07:14:13Z</time>
      </trkpt>
      <trkpt lat="50.41644" lon="2.30627">
        <ele>88.5787354</ele>
        <time>2010-05-24T07:14:20Z</time>
      </trkpt>
      <trkpt lat="50.41623" lon="2.3064">
        <ele>89.539917</ele>
        <time>2010-05-24T07:14:25Z</time>
      </trkpt>
      <trkpt lat="50.41595" lon="2.30658">
        <ele>91.4625244</ele>
        <time>2010-05-24T07:14:30Z</time>
      </trkpt>
      <trkpt lat="50.41556" lon="2.30685">
        <ele>93.3851318</ele>
        <time>2010-05-24T07:14:37Z</time>
      </trkpt>
      <trkpt lat="50.41526" lon="2.30704">
        <ele>94.3465576</ele>
        <time>2010-05-24T07:14:43Z</time>
      </trkpt>
      <trkpt lat="50.41501" lon="2.30718">
        <ele>93.8658447</ele>
        <time>2010-05-24T07:14:48Z</time>
      </trkpt>
      <trkpt lat="50.41461" lon="2.30741">
        <ele>93.3851318</ele>
        <time>2010-05-24T07:14:56Z</time>
      </trkpt>
      <trkpt lat="50.41429" lon="2.30754">
        <ele>92.4239502</ele>
        <time>2010-05-24T07:15:03Z</time>
      </trkpt>
      <trkpt lat="50.41404" lon="2.30762">
        <ele>90.0206299</ele>
        <time>2010-05-24T07:15:10Z</time>
      </trkpt>
      <trkpt lat="50.41378" lon="2.30773">
        <ele>91.9432373</ele>
        <time>2010-05-24T07:15:15Z</time>
      </trkpt>
      <trkpt lat="50.41359" lon="2.30781">
        <ele>90.0206299</ele>
        <time>2010-05-24T07:15:19Z</time>
      </trkpt>
      <trkpt lat="50.41307" lon="2.30803">
        <ele>85.2139893</ele>
        <time>2010-05-24T07:15:31Z</time>
      </trkpt>
      <trkpt lat="50.41265" lon="2.30819">
        <ele>84.7333984</ele>
        <time>2010-05-24T07:15:41Z</time>
      </trkpt>
      <trkpt lat="50.41227" lon="2.30831">
        <ele>90.5013428</ele>
        <time>2010-05-24T07:15:50Z</time>
      </trkpt>
      <trkpt lat="50.4119" lon="2.30837">
        <ele>94.8271484</ele>
        <time>2010-05-24T07:15:59Z</time>
      </trkpt>
      <trkpt lat="50.41148" lon="2.30845">
        <ele>96.2692871</ele>
        <time>2010-05-24T07:16:09Z</time>
      </trkpt>
      <trkpt lat="50.41108" lon="2.30856">
        <ele>99.1530762</ele>
        <time>2010-05-24T07:16:19Z</time>
      </trkpt>
      <trkpt lat="50.41079" lon="2.30867">
        <ele>102.998291</ele>
        <time>2010-05-24T07:16:27Z</time>
      </trkpt>
      <trkpt lat="50.41038" lon="2.30883">
        <ele>105.8824463</ele>
        <time>2010-05-24T07:16:39Z</time>
      </trkpt>
      <trkpt lat="50.41014" lon="2.30893">
        <ele>107.3243408</ele>
        <time>2010-05-24T07:16:47Z</time>
      </trkpt>
      <trkpt lat="50.40998" lon="2.30901">
        <ele>107.3243408</ele>
        <time>2010-05-24T07:16:53Z</time>
      </trkpt>
      <trkpt lat="50.40967" lon="2.30913">
        <ele>104.4404297</ele>
        <time>2010-05-24T07:17:02Z</time>
      </trkpt>
      <trkpt lat="50.40936" lon="2.3093">
        <ele>102.998291</ele>
        <time>2010-05-24T07:17:10Z</time>
      </trkpt>
      <trkpt lat="50.40917" lon="2.30945">
        <ele>103.9597168</ele>
        <time>2010-05-24T07:17:15Z</time>
      </trkpt>
      <trkpt lat="50.4089" lon="2.30963">
        <ele>103.4790039</ele>
        <time>2010-05-24T07:17:21Z</time>
      </trkpt>
      <trkpt lat="50.40865" lon="2.30976">
        <ele>102.998291</ele>
        <time>2010-05-24T07:17:27Z</time>
      </trkpt>
      <trkpt lat="50.40844" lon="2.30987">
        <ele>101.5563965</ele>
        <time>2010-05-24T07:17:32Z</time>
      </trkpt>
      <trkpt lat="50.40813" lon="2.31007">
        <ele>100.114502</ele>
        <time>2010-05-24T07:17:41Z</time>
      </trkpt>
      <trkpt lat="50.40783" lon="2.31029">
        <ele>99.6337891</ele>
        <time>2010-05-24T07:17:50Z</time>
      </trkpt>
      <trkpt lat="50.40759" lon="2.31043">
        <ele>99.6337891</ele>
        <time>2010-05-24T07:17:58Z</time>
      </trkpt>
      <trkpt lat="50.40743" lon="2.31049">
        <ele>100.114502</ele>
        <time>2010-05-24T07:18:03Z</time>
      </trkpt>
      <trkpt lat="50.40715" lon="2.31056">
        <ele>100.5950928</ele>
        <time>2010-05-24T07:18:10Z</time>
      </trkpt>
      <trkpt lat="50.40689" lon="2.31063">
        <ele>101.5563965</ele>
        <time>2010-05-24T07:18:17Z</time>
      </trkpt>
      <trkpt lat="50.40674" lon="2.31069">
        <ele>102.5177002</ele>
        <time>2010-05-24T07:18:21Z</time>
      </trkpt>
      <trkpt lat="50.40651" lon="2.3108">
        <ele>102.998291</ele>
        <time>2010-05-24T07:18:27Z</time>
      </trkpt>
      <trkpt lat="50.406" lon="2.31106">
        <ele>101.0756836</ele>
        <time>2010-05-24T07:18:38Z</time>
      </trkpt>
      <trkpt lat="50.40576" lon="2.31122">
        <ele>99.6337891</ele>
        <time>2010-05-24T07:18:43Z</time>
      </trkpt>
      <trkpt lat="50.40537" lon="2.31145">
        <ele>100.114502</ele>
        <time>2010-05-24T07:18:51Z</time>
      </trkpt>
      <trkpt lat="50.40517" lon="2.31156">
        <ele>101.5563965</ele>
        <time>2010-05-24T07:18:57Z</time>
      </trkpt>
      <trkpt lat="50.40494" lon="2.31165">
        <ele>103.4790039</ele>
        <time>2010-05-24T07:19:04Z</time>
      </trkpt>
      <trkpt lat="50.4048" lon="2.31166">
        <ele>104.9210205</ele>
        <time>2010-05-24T07:19:09Z</time>
      </trkpt>
      <trkpt lat="50.40468" lon="2.31164">
        <ele>104.9210205</ele>
        <time>2010-05-24T07:19:14Z</time>
      </trkpt>
      <trkpt lat="50.40456" lon="2.31167">
        <ele>102.998291</ele>
        <time>2010-05-24T07:19:19Z</time>
      </trkpt>
      <trkpt lat="50.40455" lon="2.31167">
        <ele>102.5177002</ele>
        <time>2010-05-24T07:19:20Z</time>
      </trkpt>
      <trkpt lat="50.40451" lon="2.31171">
        <ele>100.5950928</ele>
        <time>2010-05-24T07:19:24Z</time>
      </trkpt>
      <trkpt lat="50.40449" lon="2.31194">
        <ele>100.5950928</ele>
        <time>2010-05-24T07:19:31Z</time>
      </trkpt>
      <trkpt lat="50.40445" lon="2.31214">
        <ele>103.4790039</ele>
        <time>2010-05-24T07:19:37Z</time>
      </trkpt>
      <trkpt lat="50.40437" lon="2.31242">
        <ele>108.2856445</ele>
        <time>2010-05-24T07:19:45Z</time>
      </trkpt>
      <trkpt lat="50.40432" lon="2.31269">
        <ele>113.572998</ele>
        <time>2010-05-24T07:19:53Z</time>
      </trkpt>
      <trkpt lat="50.40426" lon="2.31291">
        <ele>112.6115723</ele>
        <time>2010-05-24T07:19:59Z</time>
      </trkpt>
      <trkpt lat="50.40413" lon="2.31315">
        <ele>113.0922852</ele>
        <time>2010-05-24T07:20:06Z</time>
      </trkpt>
      <trkpt lat="50.40392" lon="2.31348">
        <ele>113.572998</ele>
        <time>2010-05-24T07:20:16Z</time>
      </trkpt>
      <trkpt lat="50.40371" lon="2.31371">
        <ele>117.4182129</ele>
        <time>2010-05-24T07:20:24Z</time>
      </trkpt>
      <trkpt lat="50.40332" lon="2.31404">
        <ele>120.7828369</ele>
        <time>2010-05-24T07:20:38Z</time>
      </trkpt>
      <trkpt lat="50.40305" lon="2.31433">
        <ele>122.7054443</ele>
        <time>2010-05-24T07:20:49Z</time>
      </trkpt>
      <trkpt lat="50.40293" lon="2.31462">
        <ele>127.5119629</ele>
        <time>2010-05-24T07:20:57Z</time>
      </trkpt>
      <trkpt lat="50.40284" lon="2.31504">
        <ele>132.7993164</ele>
        <time>2010-05-24T07:21:07Z</time>
      </trkpt>
      <trkpt lat="50.40278" lon="2.31547">
        <ele>135.2025146</ele>
        <time>2010-05-24T07:21:16Z</time>
      </trkpt>
      <trkpt lat="50.40282" lon="2.31584">
        <ele>133.760498</ele>
        <time>2010-05-24T07:21:23Z</time>
      </trkpt>
      <trkpt lat="50.40288" lon="2.31637">
        <ele>133.2799072</ele>
        <time>2010-05-24T07:21:33Z</time>
      </trkpt>
      <trkpt lat="50.40295" lon="2.31689">
        <ele>132.7993164</ele>
        <time>2010-05-24T07:21:43Z</time>
      </trkpt>
      <trkpt lat="50.40306" lon="2.31715">
        <ele>135.6831055</ele>
        <time>2010-05-24T07:21:49Z</time>
      </trkpt>
      <trkpt lat="50.40314" lon="2.31734">
        <ele>136.6446533</ele>
        <time>2010-05-24T07:21:53Z</time>
      </trkpt>
      <trkpt lat="50.40327" lon="2.31761">
        <ele>137.605835</ele>
        <time>2010-05-24T07:21:59Z</time>
      </trkpt>
      <trkpt lat="50.4034" lon="2.31785">
        <ele>137.1252441</ele>
        <time>2010-05-24T07:22:05Z</time>
      </trkpt>
      <trkpt lat="50.40357" lon="2.31807">
        <ele>137.1252441</ele>
        <time>2010-05-24T07:22:11Z</time>
      </trkpt>
      <trkpt lat="50.4038" lon="2.31847">
        <ele>137.605835</ele>
        <time>2010-05-24T07:22:20Z</time>
      </trkpt>
      <trkpt lat="50.404" lon="2.31887">
        <ele>137.605835</ele>
        <time>2010-05-24T07:22:28Z</time>
      </trkpt>
      <trkpt lat="50.40409" lon="2.3192">
        <ele>134.7219238</ele>
        <time>2010-05-24T07:22:34Z</time>
      </trkpt>
      <trkpt lat="50.40418" lon="2.31985">
        <ele>134.2412109</ele>
        <time>2010-05-24T07:22:45Z</time>
      </trkpt>
      <trkpt lat="50.40424" lon="2.3205">
        <ele>135.2025146</ele>
        <time>2010-05-24T07:22:55Z</time>
      </trkpt>
      <trkpt lat="50.4043" lon="2.32093">
        <ele>136.6446533</ele>
        <time>2010-05-24T07:23:01Z</time>
      </trkpt>
      <trkpt lat="50.40445" lon="2.32163">
        <ele>139.0478516</ele>
        <time>2010-05-24T07:23:10Z</time>
      </trkpt>
      <trkpt lat="50.4045" lon="2.32183">
        <ele>139.0478516</ele>
        <time>2010-05-24T07:23:13Z</time>
      </trkpt>
      <trkpt lat="50.40454" lon="2.32194">
        <ele>139.5284424</ele>
        <time>2010-05-24T07:23:15Z</time>
      </trkpt>
      <trkpt lat="50.40468" lon="2.3223">
        <ele>141.4510498</ele>
        <time>2010-05-24T07:23:21Z</time>
      </trkpt>
      <trkpt lat="50.4048" lon="2.32259">
        <ele>143.3736572</ele>
        <time>2010-05-24T07:23:26Z</time>
      </trkpt>
      <trkpt lat="50.40497" lon="2.32317">
        <ele>145.2963867</ele>
        <time>2010-05-24T07:23:35Z</time>
      </trkpt>
      <trkpt lat="50.40516" lon="2.32381">
        <ele>145.2963867</ele>
        <time>2010-05-24T07:23:45Z</time>
      </trkpt>
      <trkpt lat="50.40523" lon="2.32417">
        <ele>148.1804199</ele>
        <time>2010-05-24T07:23:51Z</time>
      </trkpt>
      <trkpt lat="50.4052" lon="2.32465">
        <ele>149.6223145</ele>
        <time>2010-05-24T07:23:59Z</time>
      </trkpt>
      <trkpt lat="50.40512" lon="2.32522">
        <ele>151.5449219</ele>
        <time>2010-05-24T07:24:08Z</time>
      </trkpt>
      <trkpt lat="50.40505" lon="2.3256">
        <ele>152.5063477</ele>
        <time>2010-05-24T07:24:14Z</time>
      </trkpt>
      <trkpt lat="50.40492" lon="2.32599">
        <ele>151.5449219</ele>
        <time>2010-05-24T07:24:21Z</time>
      </trkpt>
      <trkpt lat="50.40481" lon="2.32625">
        <ele>151.5449219</ele>
        <time>2010-05-24T07:24:26Z</time>
      </trkpt>
      <trkpt lat="50.40465" lon="2.32658">
        <ele>147.2189941</ele>
        <time>2010-05-24T07:24:32Z</time>
      </trkpt>
      <trkpt lat="50.40445" lon="2.32707">
        <ele>144.3352051</ele>
        <time>2010-05-24T07:24:39Z</time>
      </trkpt>
      <trkpt lat="50.40428" lon="2.32766">
        <ele>143.3736572</ele>
        <time>2010-05-24T07:24:46Z</time>
      </trkpt>
      <trkpt lat="50.40412" lon="2.32831">
        <ele>141.9317627</ele>
        <time>2010-05-24T07:24:54Z</time>
      </trkpt>
      <trkpt lat="50.40405" lon="2.32876">
        <ele>142.4124756</ele>
        <time>2010-05-24T07:25:00Z</time>
      </trkpt>
      <trkpt lat="50.40406" lon="2.32898">
        <ele>142.4124756</ele>
        <time>2010-05-24T07:25:03Z</time>
      </trkpt>
      <trkpt lat="50.40406" lon="2.32905">
        <ele>142.4124756</ele>
        <time>2010-05-24T07:25:04Z</time>
      </trkpt>
      <trkpt lat="50.4041" lon="2.32961">
        <ele>144.3352051</ele>
        <time>2010-05-24T07:25:11Z</time>
      </trkpt>
      <trkpt lat="50.40407" lon="2.32989">
        <ele>145.2963867</ele>
        <time>2010-05-24T07:25:15Z</time>
      </trkpt>
      <trkpt lat="50.404" lon="2.33015">
        <ele>145.7770996</ele>
        <time>2010-05-24T07:25:19Z</time>
      </trkpt>
      <trkpt lat="50.40388" lon="2.33054">
        <ele>146.2578125</ele>
        <time>2010-05-24T07:25:25Z</time>
      </trkpt>
      <trkpt lat="50.40382" lon="2.33076">
        <ele>146.7384033</ele>
        <time>2010-05-24T07:25:29Z</time>
      </trkpt>
      <trkpt lat="50.40385" lon="2.33086">
        <ele>147.2189941</ele>
        <time>2010-05-24T07:25:33Z</time>
      </trkpt>
      <trkpt lat="50.40388" lon="2.33084">
        <ele>147.2189941</ele>
        <time>2010-05-24T07:25:35Z</time>
      </trkpt>
      <trkpt lat="50.40403" lon="2.33072">
        <ele>146.2578125</ele>
        <time>2010-05-24T07:25:42Z</time>
      </trkpt>
      <trkpt lat="50.40427" lon="2.33059">
        <ele>145.2963867</ele>
        <time>2010-05-24T07:25:49Z</time>
      </trkpt>
      <trkpt lat="50.40446" lon="2.33055">
        <ele>146.2578125</ele>
        <time>2010-05-24T07:25:55Z</time>
      </trkpt>
      <trkpt lat="50.4047" lon="2.3305">
        <ele>147.2189941</ele>
        <time>2010-05-24T07:26:01Z</time>
      </trkpt>
      <trkpt lat="50.40499" lon="2.3304">
        <ele>148.1804199</ele>
        <time>2010-05-24T07:26:08Z</time>
      </trkpt>
      <trkpt lat="50.40532" lon="2.33025">
        <ele>148.6610107</ele>
        <time>2010-05-24T07:26:16Z</time>
      </trkpt>
      <trkpt lat="50.40571" lon="2.33005">
        <ele>149.6223145</ele>
        <time>2010-05-24T07:26:25Z</time>
      </trkpt>
      <trkpt lat="50.40604" lon="2.32986">
        <ele>150.1030273</ele>
        <time>2010-05-24T07:26:33Z</time>
      </trkpt>
      <trkpt lat="50.40628" lon="2.32967">
        <ele>149.1416016</ele>
        <time>2010-05-24T07:26:40Z</time>
      </trkpt>
      <trkpt lat="50.4066" lon="2.32942">
        <ele>148.6610107</ele>
        <time>2010-05-24T07:26:48Z</time>
      </trkpt>
      <trkpt lat="50.40697" lon="2.32916">
        <ele>148.1804199</ele>
        <time>2010-05-24T07:26:57Z</time>
      </trkpt>
      <trkpt lat="50.40728" lon="2.32892">
        <ele>147.699707</ele>
        <time>2010-05-24T07:27:05Z</time>
      </trkpt>
      <trkpt lat="50.40751" lon="2.32874">
        <ele>146.7384033</ele>
        <time>2010-05-24T07:27:11Z</time>
      </trkpt>
      <trkpt lat="50.40783" lon="2.32845">
        <ele>143.8543701</ele>
        <time>2010-05-24T07:27:18Z</time>
      </trkpt>
      <trkpt lat="50.40823" lon="2.32811">
        <ele>140.0091553</ele>
        <time>2010-05-24T07:27:25Z</time>
      </trkpt>
      <trkpt lat="50.40881" lon="2.32762">
        <ele>138.0865479</ele>
        <time>2010-05-24T07:27:34Z</time>
      </trkpt>
      <trkpt lat="50.40938" lon="2.32712">
        <ele>137.1252441</ele>
        <time>2010-05-24T07:27:43Z</time>
      </trkpt>
      <trkpt lat="50.40973" lon="2.32679">
        <ele>138.0865479</ele>
        <time>2010-05-24T07:27:50Z</time>
      </trkpt>
      <trkpt lat="50.40994" lon="2.3266">
        <ele>139.0478516</ele>
        <time>2010-05-24T07:27:55Z</time>
      </trkpt>
      <trkpt lat="50.4101" lon="2.32643">
        <ele>139.0478516</ele>
        <time>2010-05-24T07:27:59Z</time>
      </trkpt>
      <trkpt lat="50.41046" lon="2.32608">
        <ele>139.5284424</ele>
        <time>2010-05-24T07:28:08Z</time>
      </trkpt>
      <trkpt lat="50.41078" lon="2.32578">
        <ele>138.5672607</ele>
        <time>2010-05-24T07:28:16Z</time>
      </trkpt>
      <trkpt lat="50.41114" lon="2.32549">
        <ele>137.1252441</ele>
        <time>2010-05-24T07:28:24Z</time>
      </trkpt>
      <trkpt lat="50.41148" lon="2.32521">
        <ele>135.6831055</ele>
        <time>2010-05-24T07:28:31Z</time>
      </trkpt>
      <trkpt lat="50.412" lon="2.32479">
        <ele>133.760498</ele>
        <time>2010-05-24T07:28:41Z</time>
      </trkpt>
      <trkpt lat="50.41243" lon="2.32443">
        <ele>131.3572998</ele>
        <time>2010-05-24T07:28:49Z</time>
      </trkpt>
      <trkpt lat="50.41287" lon="2.32406">
        <ele>126.0699463</ele>
        <time>2010-05-24T07:28:56Z</time>
      </trkpt>
      <trkpt lat="50.41334" lon="2.32368">
        <ele>119.8214111</ele>
        <time>2010-05-24T07:29:02Z</time>
      </trkpt>
      <trkpt lat="50.41376" lon="2.32344">
        <ele>115.9761963</ele>
        <time>2010-05-24T07:29:07Z</time>
      </trkpt>
      <trkpt lat="50.41391" lon="2.32338">
        <ele>115.0148926</ele>
        <time>2010-05-24T07:29:09Z</time>
      </trkpt>
      <trkpt lat="50.41444" lon="2.32337">
        <ele>108.2856445</ele>
        <time>2010-05-24T07:29:14Z</time>
      </trkpt>
      <trkpt lat="50.41493" lon="2.32336">
        <ele>100.114502</ele>
        <time>2010-05-24T07:29:18Z</time>
      </trkpt>
      <trkpt lat="50.4157" lon="2.32341">
        <ele>92.4239502</ele>
        <time>2010-05-24T07:29:24Z</time>
      </trkpt>
      <trkpt lat="50.41592" lon="2.32345">
        <ele>90.9819336</ele>
        <time>2010-05-24T07:29:26Z</time>
      </trkpt>
      <trkpt lat="50.4164" lon="2.32375">
        <ele>89.539917</ele>
        <time>2010-05-24T07:29:31Z</time>
      </trkpt>
      <trkpt lat="50.41648" lon="2.32381">
        <ele>89.0593262</ele>
        <time>2010-05-24T07:29:32Z</time>
      </trkpt>
      <trkpt lat="50.41675" lon="2.32384">
        <ele>89.0593262</ele>
        <time>2010-05-24T07:29:36Z</time>
      </trkpt>
      <trkpt lat="50.41695" lon="2.32361">
        <ele>88.5787354</ele>
        <time>2010-05-24T07:29:40Z</time>
      </trkpt>
      <trkpt lat="50.41699" lon="2.32353">
        <ele>88.0980225</ele>
        <time>2010-05-24T07:29:41Z</time>
      </trkpt>
      <trkpt lat="50.41718" lon="2.32314">
        <ele>88.0980225</ele>
        <time>2010-05-24T07:29:46Z</time>
      </trkpt>
      <trkpt lat="50.41745" lon="2.3227">
        <ele>87.6171875</ele>
        <time>2010-05-24T07:29:53Z</time>
      </trkpt>
      <trkpt lat="50.41762" lon="2.32247">
        <ele>88.5787354</ele>
        <time>2010-05-24T07:29:58Z</time>
      </trkpt>
      <trkpt lat="50.41767" lon="2.32243">
        <ele>89.0593262</ele>
        <time>2010-05-24T07:30:00Z</time>
      </trkpt>
      <trkpt lat="50.41781" lon="2.32216">
        <ele>92.4239502</ele>
        <time>2010-05-24T07:30:11Z</time>
      </trkpt>
      <trkpt lat="50.4179" lon="2.32195">
        <ele>94.8271484</ele>
        <time>2010-05-24T07:30:21Z</time>
      </trkpt>
      <trkpt lat="50.41797" lon="2.3218">
        <ele>94.3465576</ele>
        <time>2010-05-24T07:30:28Z</time>
      </trkpt>
      <trkpt lat="50.41802" lon="2.32167">
        <ele>95.3077393</ele>
        <time>2010-05-24T07:30:36Z</time>
      </trkpt>
      <trkpt lat="50.41807" lon="2.32154">
        <ele>95.7884521</ele>
        <time>2010-05-24T07:30:46Z</time>
      </trkpt>
      <trkpt lat="50.41809" lon="2.3215">
        <ele>95.7884521</ele>
        <time>2010-05-24T07:30:52Z</time>
      </trkpt>
      <trkpt lat="50.41812" lon="2.32149">
        <ele>89.0593262</ele>
        <time>2010-05-24T07:31:19Z</time>
      </trkpt>
      <trkpt lat="50.4182" lon="2.32131">
        <ele>90.0206299</ele>
        <time>2010-05-24T07:31:24Z</time>
      </trkpt>
      <trkpt lat="50.41831" lon="2.321">
        <ele>92.4239502</ele>
        <time>2010-05-24T07:31:31Z</time>
      </trkpt>
      <trkpt lat="50.41845" lon="2.32063">
        <ele>93.8658447</ele>
        <time>2010-05-24T07:31:38Z</time>
      </trkpt>
      <trkpt lat="50.41854" lon="2.32037">
        <ele>94.3465576</ele>
        <time>2010-05-24T07:31:43Z</time>
      </trkpt>
      <trkpt lat="50.41868" lon="2.31996">
        <ele>93.8658447</ele>
        <time>2010-05-24T07:31:50Z</time>
      </trkpt>
      <trkpt lat="50.41879" lon="2.31956">
        <ele>93.3851318</ele>
        <time>2010-05-24T07:31:57Z</time>
      </trkpt>
      <trkpt lat="50.4189" lon="2.31918">
        <ele>92.4239502</ele>
        <time>2010-05-24T07:32:04Z</time>
      </trkpt>
      <trkpt lat="50.41902" lon="2.31906">
        <ele>92.904541</ele>
        <time>2010-05-24T07:32:08Z</time>
      </trkpt>
      <trkpt lat="50.41921" lon="2.31908">
        <ele>93.8658447</ele>
        <time>2010-05-24T07:32:13Z</time>
      </trkpt>
      <trkpt lat="50.4194" lon="2.3192">
        <ele>91.9432373</ele>
        <time>2010-05-24T07:32:18Z</time>
      </trkpt>
      <trkpt lat="50.41953" lon="2.31923">
        <ele>91.4625244</ele>
        <time>2010-05-24T07:32:21Z</time>
      </trkpt>
      <trkpt lat="50.41981" lon="2.31931">
        <ele>92.4239502</ele>
        <time>2010-05-24T07:32:28Z</time>
      </trkpt>
      <trkpt lat="50.42012" lon="2.31949">
        <ele>93.8658447</ele>
        <time>2010-05-24T07:32:36Z</time>
      </trkpt>
      <trkpt lat="50.42041" lon="2.31972">
        <ele>94.8271484</ele>
        <time>2010-05-24T07:32:44Z</time>
      </trkpt>
      <trkpt lat="50.42072" lon="2.32003">
        <ele>94.8271484</ele>
        <time>2010-05-24T07:32:53Z</time>
      </trkpt>
      <trkpt lat="50.42098" lon="2.32029">
        <ele>94.3465576</ele>
        <time>2010-05-24T07:33:01Z</time>
      </trkpt>
      <trkpt lat="50.42128" lon="2.32056">
        <ele>93.3851318</ele>
        <time>2010-05-24T07:33:10Z</time>
      </trkpt>
      <trkpt lat="50.42149" lon="2.32077">
        <ele>92.904541</ele>
        <time>2010-05-24T07:33:16Z</time>
      </trkpt>
      <trkpt lat="50.42169" lon="2.32096">
        <ele>93.3851318</ele>
        <time>2010-05-24T07:33:22Z</time>
      </trkpt>
      <trkpt lat="50.42189" lon="2.32113">
        <ele>93.8658447</ele>
        <time>2010-05-24T07:33:28Z</time>
      </trkpt>
      <trkpt lat="50.42209" lon="2.32129">
        <ele>94.3465576</ele>
        <time>2010-05-24T07:33:34Z</time>
      </trkpt>
      <trkpt lat="50.4224" lon="2.32139">
        <ele>95.7884521</ele>
        <time>2010-05-24T07:33:42Z</time>
      </trkpt>
      <trkpt lat="50.42264" lon="2.32144">
        <ele>96.2692871</ele>
        <time>2010-05-24T07:33:49Z</time>
      </trkpt>
      <trkpt lat="50.42295" lon="2.32157">
        <ele>96.2692871</ele>
        <time>2010-05-24T07:33:59Z</time>
      </trkpt>
      <trkpt lat="50.42305" lon="2.32161">
        <ele>97.2304688</ele>
        <time>2010-05-24T07:34:03Z</time>
      </trkpt>
      <trkpt lat="50.42326" lon="2.32166">
        <ele>99.1530762</ele>
        <time>2010-05-24T07:34:12Z</time>
      </trkpt>
      <trkpt lat="50.42342" lon="2.32166">
        <ele>99.6337891</ele>
        <time>2010-05-24T07:34:19Z</time>
      </trkpt>
      <trkpt lat="50.42361" lon="2.32171">
        <ele>101.5563965</ele>
        <time>2010-05-24T07:34:27Z</time>
      </trkpt>
      <trkpt lat="50.4238" lon="2.32185">
        <ele>103.4790039</ele>
        <time>2010-05-24T07:34:36Z</time>
      </trkpt>
      <trkpt lat="50.42396" lon="2.32201">
        <ele>104.4404297</ele>
        <time>2010-05-24T07:34:44Z</time>
      </trkpt>
      <trkpt lat="50.42411" lon="2.32211">
        <ele>106.3630371</ele>
        <time>2010-05-24T07:34:52Z</time>
      </trkpt>
      <trkpt lat="50.42421" lon="2.32217">
        <ele>108.2856445</ele>
        <time>2010-05-24T07:34:58Z</time>
      </trkpt>
      <trkpt lat="50.42429" lon="2.32223">
        <ele>110.208252</ele>
        <time>2010-05-24T07:35:03Z</time>
      </trkpt>
      <trkpt lat="50.4244" lon="2.32226">
        <ele>113.0922852</ele>
        <time>2010-05-24T07:35:10Z</time>
      </trkpt>
      <trkpt lat="50.42448" lon="2.32229">
        <ele>116.9375</ele>
        <time>2010-05-24T07:35:16Z</time>
      </trkpt>
      <trkpt lat="50.4246" lon="2.32233">
        <ele>121.7441406</ele>
        <time>2010-05-24T07:35:24Z</time>
      </trkpt>
      <trkpt lat="50.42465" lon="2.32236">
        <ele>124.1473389</ele>
        <time>2010-05-24T07:35:28Z</time>
      </trkpt>
      <trkpt lat="50.42475" lon="2.32242">
        <ele>125.1087646</ele>
        <time>2010-05-24T07:35:34Z</time>
      </trkpt>
      <trkpt lat="50.4249" lon="2.32251">
        <ele>126.0699463</ele>
        <time>2010-05-24T07:35:42Z</time>
      </trkpt>
      <trkpt lat="50.42505" lon="2.32259">
        <ele>126.5506592</ele>
        <time>2010-05-24T07:35:50Z</time>
      </trkpt>
      <trkpt lat="50.42526" lon="2.32266">
        <ele>126.0699463</ele>
        <time>2010-05-24T07:36:00Z</time>
      </trkpt>
      <trkpt lat="50.42547" lon="2.32275">
        <ele>127.0313721</ele>
        <time>2010-05-24T07:36:11Z</time>
      </trkpt>
      <trkpt lat="50.42571" lon="2.32286">
        <ele>127.9925537</ele>
        <time>2010-05-24T07:36:24Z</time>
      </trkpt>
      <trkpt lat="50.42587" lon="2.32294">
        <ele>129.4346924</ele>
        <time>2010-05-24T07:36:34Z</time>
      </trkpt>
      <trkpt lat="50.42594" lon="2.32298">
        <ele>129.9152832</ele>
        <time>2010-05-24T07:36:39Z</time>
      </trkpt>
      <trkpt lat="50.426" lon="2.32298">
        <ele>129.9152832</ele>
        <time>2010-05-24T07:36:46Z</time>
      </trkpt>
      <trkpt lat="50.42621" lon="2.32302">
        <ele>130.3959961</ele>
        <time>2010-05-24T07:36:56Z</time>
      </trkpt>
      <trkpt lat="50.42639" lon="2.32302">
        <ele>130.876709</ele>
        <time>2010-05-24T07:37:05Z</time>
      </trkpt>
      <trkpt lat="50.42661" lon="2.32304">
        <ele>132.3186035</ele>
        <time>2010-05-24T07:37:16Z</time>
      </trkpt>
      <trkpt lat="50.42681" lon="2.32308">
        <ele>133.2799072</ele>
        <time>2010-05-24T07:37:26Z</time>
      </trkpt>
      <trkpt lat="50.42702" lon="2.32312">
        <ele>134.2412109</ele>
        <time>2010-05-24T07:37:37Z</time>
      </trkpt>
      <trkpt lat="50.42719" lon="2.32314">
        <ele>135.6831055</ele>
        <time>2010-05-24T07:37:46Z</time>
      </trkpt>
      <trkpt lat="50.4274" lon="2.32317">
        <ele>137.1252441</ele>
        <time>2010-05-24T07:37:57Z</time>
      </trkpt>
      <trkpt lat="50.42757" lon="2.32319">
        <ele>138.0865479</ele>
        <time>2010-05-24T07:38:07Z</time>
      </trkpt>
      <trkpt lat="50.42773" lon="2.32323">
        <ele>139.0478516</ele>
        <time>2010-05-24T07:38:15Z</time>
      </trkpt>
      <trkpt lat="50.42795" lon="2.32329">
        <ele>140.0091553</ele>
        <time>2010-05-24T07:38:25Z</time>
      </trkpt>
      <trkpt lat="50.42812" lon="2.32336">
        <ele>140.970459</ele>
        <time>2010-05-24T07:38:34Z</time>
      </trkpt>
      <trkpt lat="50.42816" lon="2.32337">
        <ele>141.4510498</ele>
        <time>2010-05-24T07:38:36Z</time>
      </trkpt>
      <trkpt lat="50.42832" lon="2.32345">
        <ele>141.9317627</ele>
        <time>2010-05-24T07:38:44Z</time>
      </trkpt>
      <trkpt lat="50.42852" lon="2.32365">
        <ele>142.8930664</ele>
        <time>2010-05-24T07:38:55Z</time>
      </trkpt>
      <trkpt lat="50.42871" lon="2.32384">
        <ele>142.8930664</ele>
        <time>2010-05-24T07:39:05Z</time>
      </trkpt>
      <trkpt lat="50.42882" lon="2.3238">
        <ele>142.8930664</ele>
        <time>2010-05-24T07:39:10Z</time>
      </trkpt>
      <trkpt lat="50.42905" lon="2.32354">
        <ele>142.8930664</ele>
        <time>2010-05-24T07:39:22Z</time>
      </trkpt>
      <trkpt lat="50.42927" lon="2.32329">
        <ele>142.8930664</ele>
        <time>2010-05-24T07:39:32Z</time>
      </trkpt>
      <trkpt lat="50.42953" lon="2.32299">
        <ele>143.3736572</ele>
        <time>2010-05-24T07:39:42Z</time>
      </trkpt>
      <trkpt lat="50.42978" lon="2.32272">
        <ele>144.3352051</ele>
        <time>2010-05-24T07:39:52Z</time>
      </trkpt>
      <trkpt lat="50.42996" lon="2.32252">
        <ele>146.2578125</ele>
        <time>2010-05-24T07:40:01Z</time>
      </trkpt>
      <trkpt lat="50.43009" lon="2.32239">
        <ele>148.1804199</ele>
        <time>2010-05-24T07:40:08Z</time>
      </trkpt>
      <trkpt lat="50.43029" lon="2.32214">
        <ele>149.6223145</ele>
        <time>2010-05-24T07:40:17Z</time>
      </trkpt>
      <trkpt lat="50.43049" lon="2.32193">
        <ele>149.1416016</ele>
        <time>2010-05-24T07:40:25Z</time>
      </trkpt>
      <trkpt lat="50.43069" lon="2.3217">
        <ele>148.1804199</ele>
        <time>2010-05-24T07:40:33Z</time>
      </trkpt>
      <trkpt lat="50.43088" lon="2.32147">
        <ele>147.699707</ele>
        <time>2010-05-24T07:40:41Z</time>
      </trkpt>
      <trkpt lat="50.43109" lon="2.32127">
        <ele>146.2578125</ele>
        <time>2010-05-24T07:40:48Z</time>
      </trkpt>
      <trkpt lat="50.4312" lon="2.32116">
        <ele>145.2963867</ele>
        <time>2010-05-24T07:40:52Z</time>
      </trkpt>
      <trkpt lat="50.43133" lon="2.32104">
        <ele>144.8157959</ele>
        <time>2010-05-24T07:40:57Z</time>
      </trkpt>
      <trkpt lat="50.43146" lon="2.32117">
        <ele>144.8157959</ele>
        <time>2010-05-24T07:41:02Z</time>
      </trkpt>
      <trkpt lat="50.43164" lon="2.32141">
        <ele>145.2963867</ele>
        <time>2010-05-24T07:41:09Z</time>
      </trkpt>
      <trkpt lat="50.4318" lon="2.32173">
        <ele>145.7770996</ele>
        <time>2010-05-24T07:41:17Z</time>
      </trkpt>
      <trkpt lat="50.43192" lon="2.32202">
        <ele>144.8157959</ele>
        <time>2010-05-24T07:41:23Z</time>
      </trkpt>
      <trkpt lat="50.43204" lon="2.32237">
        <ele>145.2963867</ele>
        <time>2010-05-24T07:41:28Z</time>
      </trkpt>
      <trkpt lat="50.43224" lon="2.32293">
        <ele>141.9317627</ele>
        <time>2010-05-24T07:41:36Z</time>
      </trkpt>
      <trkpt lat="50.43236" lon="2.32335">
        <ele>140.970459</ele>
        <time>2010-05-24T07:41:43Z</time>
      </trkpt>
      <trkpt lat="50.43249" lon="2.32367">
        <ele>142.8930664</ele>
        <time>2010-05-24T07:41:50Z</time>
      </trkpt>
      <trkpt lat="50.4326" lon="2.32388">
        <ele>143.8543701</ele>
        <time>2010-05-24T07:41:56Z</time>
      </trkpt>
      <trkpt lat="50.43261" lon="2.3239">
        <ele>144.3352051</ele>
        <time>2010-05-24T07:41:57Z</time>
      </trkpt>
      <trkpt lat="50.43266" lon="2.32384">
        <ele>148.1804199</ele>
        <time>2010-05-24T07:48:52Z</time>
      </trkpt>
      <trkpt lat="50.43266" lon="2.32385">
        <ele>148.1804199</ele>
        <time>2010-05-24T07:48:53Z</time>
      </trkpt>
      <trkpt lat="50.43267" lon="2.32387">
        <ele>148.6610107</ele>
        <time>2010-05-24T07:48:54Z</time>
      </trkpt>
      <trkpt lat="50.43273" lon="2.32394">
        <ele>150.5836182</ele>
        <time>2010-05-24T07:48:57Z</time>
      </trkpt>
      <trkpt lat="50.43278" lon="2.324">
        <ele>151.064209</ele>
        <time>2010-05-24T07:48:59Z</time>
      </trkpt>
      <trkpt lat="50.43281" lon="2.32404">
        <ele>151.064209</ele>
        <time>2010-05-24T07:49:00Z</time>
      </trkpt>
      <trkpt lat="50.433" lon="2.32425">
        <ele>151.5449219</ele>
        <time>2010-05-24T07:49:07Z</time>
      </trkpt>
      <trkpt lat="50.43311" lon="2.32417">
        <ele>152.5063477</ele>
        <time>2010-05-24T07:49:11Z</time>
      </trkpt>
      <trkpt lat="50.43314" lon="2.32412">
        <ele>152.9869385</ele>
        <time>2010-05-24T07:49:12Z</time>
      </trkpt>
      <trkpt lat="50.43331" lon="2.32376">
        <ele>152.5063477</ele>
        <time>2010-05-24T07:49:21Z</time>
      </trkpt>
      <trkpt lat="50.4334" lon="2.32356">
        <ele>152.0257568</ele>
        <time>2010-05-24T07:49:26Z</time>
      </trkpt>
      <trkpt lat="50.43358" lon="2.32316">
        <ele>150.5836182</ele>
        <time>2010-05-24T07:49:33Z</time>
      </trkpt>
      <trkpt lat="50.43377" lon="2.32271">
        <ele>148.6610107</ele>
        <time>2010-05-24T07:49:39Z</time>
      </trkpt>
      <trkpt lat="50.43405" lon="2.32207">
        <ele>144.3352051</ele>
        <time>2010-05-24T07:49:46Z</time>
      </trkpt>
      <trkpt lat="50.43431" lon="2.32136">
        <ele>140.0091553</ele>
        <time>2010-05-24T07:49:52Z</time>
      </trkpt>
      <trkpt lat="50.43466" lon="2.32039">
        <ele>133.760498</ele>
        <time>2010-05-24T07:49:59Z</time>
      </trkpt>
      <trkpt lat="50.4347" lon="2.32024">
        <ele>132.7993164</ele>
        <time>2010-05-24T07:50:00Z</time>
      </trkpt>
      <trkpt lat="50.43475" lon="2.31955">
        <ele>129.9152832</ele>
        <time>2010-05-24T07:50:04Z</time>
      </trkpt>
      <trkpt lat="50.43472" lon="2.31938">
        <ele>129.4346924</ele>
        <time>2010-05-24T07:50:05Z</time>
      </trkpt>
      <trkpt lat="50.43453" lon="2.31817">
        <ele>125.1087646</ele>
        <time>2010-05-24T07:50:11Z</time>
      </trkpt>
      <trkpt lat="50.43453" lon="2.31722">
        <ele>119.3408203</ele>
        <time>2010-05-24T07:50:16Z</time>
      </trkpt>
      <trkpt lat="50.43455" lon="2.31684">
        <ele>117.4182129</ele>
        <time>2010-05-24T07:50:18Z</time>
      </trkpt>
      <trkpt lat="50.43471" lon="2.31617">
        <ele>111.6502686</ele>
        <time>2010-05-24T07:50:22Z</time>
      </trkpt>
      <trkpt lat="50.43494" lon="2.31567">
        <ele>106.8436279</ele>
        <time>2010-05-24T07:50:27Z</time>
      </trkpt>
      <trkpt lat="50.43497" lon="2.3156">
        <ele>106.3630371</ele>
        <time>2010-05-24T07:50:28Z</time>
      </trkpt>
      <trkpt lat="50.43508" lon="2.31564">
        <ele>103.9597168</ele>
        <time>2010-05-24T07:50:32Z</time>
      </trkpt>
      <trkpt lat="50.43511" lon="2.3157">
        <ele>103.4790039</ele>
        <time>2010-05-24T07:50:33Z</time>
      </trkpt>
      <trkpt lat="50.4354" lon="2.31613">
        <ele>102.5177002</ele>
        <time>2010-05-24T07:50:40Z</time>
      </trkpt>
      <trkpt lat="50.43557" lon="2.31632">
        <ele>102.5177002</ele>
        <time>2010-05-24T07:50:44Z</time>
      </trkpt>
      <trkpt lat="50.43568" lon="2.31644">
        <ele>102.5177002</ele>
        <time>2010-05-24T07:50:47Z</time>
      </trkpt>
      <trkpt lat="50.43571" lon="2.31648">
        <ele>102.5177002</ele>
        <time>2010-05-24T07:50:48Z</time>
      </trkpt>
      <trkpt lat="50.43595" lon="2.31675">
        <ele>102.998291</ele>
        <time>2010-05-24T07:50:55Z</time>
      </trkpt>
      <trkpt lat="50.43622" lon="2.31709">
        <ele>103.4790039</ele>
        <time>2010-05-24T07:51:03Z</time>
      </trkpt>
      <trkpt lat="50.43634" lon="2.31728">
        <ele>102.998291</ele>
        <time>2010-05-24T07:51:07Z</time>
      </trkpt>
      <trkpt lat="50.4365" lon="2.31755">
        <ele>102.5177002</ele>
        <time>2010-05-24T07:51:13Z</time>
      </trkpt>
      <trkpt lat="50.43657" lon="2.31785">
        <ele>103.4790039</ele>
        <time>2010-05-24T07:51:19Z</time>
      </trkpt>
      <trkpt lat="50.43654" lon="2.31795">
        <ele>103.9597168</ele>
        <time>2010-05-24T07:51:21Z</time>
      </trkpt>
      <trkpt lat="50.43652" lon="2.3182">
        <ele>105.4017334</ele>
        <time>2010-05-24T07:51:26Z</time>
      </trkpt>
      <trkpt lat="50.43662" lon="2.3184">
        <ele>103.9597168</ele>
        <time>2010-05-24T07:51:30Z</time>
      </trkpt>
      <trkpt lat="50.43686" lon="2.31869">
        <ele>103.9597168</ele>
        <time>2010-05-24T07:51:38Z</time>
      </trkpt>
      <trkpt lat="50.43715" lon="2.31901">
        <ele>104.4404297</ele>
        <time>2010-05-24T07:51:47Z</time>
      </trkpt>
      <trkpt lat="50.43742" lon="2.31932">
        <ele>105.8824463</ele>
        <time>2010-05-24T07:51:55Z</time>
      </trkpt>
      <trkpt lat="50.43762" lon="2.31966">
        <ele>106.3630371</ele>
        <time>2010-05-24T07:52:02Z</time>
      </trkpt>
      <trkpt lat="50.43783" lon="2.32014">
        <ele>107.8050537</ele>
        <time>2010-05-24T07:52:11Z</time>
      </trkpt>
      <trkpt lat="50.43804" lon="2.3206">
        <ele>110.6888428</ele>
        <time>2010-05-24T07:52:20Z</time>
      </trkpt>
      <trkpt lat="50.43827" lon="2.32111">
        <ele>113.572998</ele>
        <time>2010-05-24T07:52:30Z</time>
      </trkpt>
      <trkpt lat="50.43855" lon="2.32175">
        <ele>114.0535889</ele>
        <time>2010-05-24T07:52:42Z</time>
      </trkpt>
      <trkpt lat="50.43876" lon="2.32227">
        <ele>114.0535889</ele>
        <time>2010-05-24T07:52:52Z</time>
      </trkpt>
      <trkpt lat="50.4389" lon="2.32262">
        <ele>111.6502686</ele>
        <time>2010-05-24T07:52:59Z</time>
      </trkpt>
      <trkpt lat="50.439" lon="2.32288">
        <ele>111.6502686</ele>
        <time>2010-05-24T07:53:05Z</time>
      </trkpt>
      <trkpt lat="50.43919" lon="2.32328">
        <ele>112.6115723</ele>
        <time>2010-05-24T07:53:14Z</time>
      </trkpt>
      <trkpt lat="50.43936" lon="2.3237">
        <ele>113.572998</ele>
        <time>2010-05-24T07:53:24Z</time>
      </trkpt>
      <trkpt lat="50.43945" lon="2.32392">
        <ele>113.572998</ele>
        <time>2010-05-24T07:53:30Z</time>
      </trkpt>
      <trkpt lat="50.43953" lon="2.3242">
        <ele>113.572998</ele>
        <time>2010-05-24T07:53:37Z</time>
      </trkpt>
      <trkpt lat="50.43962" lon="2.32444">
        <ele>112.6115723</ele>
        <time>2010-05-24T07:53:43Z</time>
      </trkpt>
      <trkpt lat="50.43976" lon="2.32475">
        <ele>111.6502686</ele>
        <time>2010-05-24T07:53:51Z</time>
      </trkpt>
      <trkpt lat="50.43985" lon="2.32481">
        <ele>111.6502686</ele>
        <time>2010-05-24T07:53:55Z</time>
      </trkpt>
      <trkpt lat="50.43999" lon="2.32473">
        <ele>110.6888428</ele>
        <time>2010-05-24T07:54:01Z</time>
      </trkpt>
      <trkpt lat="50.44018" lon="2.3246">
        <ele>110.6888428</ele>
        <time>2010-05-24T07:54:10Z</time>
      </trkpt>
      <trkpt lat="50.44036" lon="2.32444">
        <ele>111.6502686</ele>
        <time>2010-05-24T07:54:18Z</time>
      </trkpt>
      <trkpt lat="50.44047" lon="2.32436">
        <ele>109.7276611</ele>
        <time>2010-05-24T07:54:24Z</time>
      </trkpt>
      <trkpt lat="50.44047" lon="2.32434">
        <ele>110.208252</ele>
        <time>2010-05-24T07:54:35Z</time>
      </trkpt>
      <trkpt lat="50.44052" lon="2.32429">
        <ele>109.7276611</ele>
        <time>2010-05-24T07:54:40Z</time>
      </trkpt>
      <trkpt lat="50.44067" lon="2.32418">
        <ele>108.2856445</ele>
        <time>2010-05-24T07:54:46Z</time>
      </trkpt>
      <trkpt lat="50.44084" lon="2.32405">
        <ele>109.7276611</ele>
        <time>2010-05-24T07:54:53Z</time>
      </trkpt>
      <trkpt lat="50.44102" lon="2.32394">
        <ele>107.8050537</ele>
        <time>2010-05-24T07:55:02Z</time>
      </trkpt>
      <trkpt lat="50.44118" lon="2.32385">
        <ele>105.8824463</ele>
        <time>2010-05-24T07:55:09Z</time>
      </trkpt>
      <trkpt lat="50.44138" lon="2.32366">
        <ele>109.7276611</ele>
        <time>2010-05-24T07:55:19Z</time>
      </trkpt>
      <trkpt lat="50.4415" lon="2.32353">
        <ele>114.5341797</ele>
        <time>2010-05-24T07:55:26Z</time>
      </trkpt>
      <trkpt lat="50.44162" lon="2.32346">
        <ele>117.4182129</ele>
        <time>2010-05-24T07:55:34Z</time>
      </trkpt>
      <trkpt lat="50.44164" lon="2.32346">
        <ele>117.4182129</ele>
        <time>2010-05-24T07:55:35Z</time>
      </trkpt>
      <trkpt lat="50.44176" lon="2.32355">
        <ele>119.3408203</ele>
        <time>2010-05-24T07:55:42Z</time>
      </trkpt>
      <trkpt lat="50.44192" lon="2.32367">
        <ele>120.7828369</ele>
        <time>2010-05-24T07:55:49Z</time>
      </trkpt>
      <trkpt lat="50.4421" lon="2.3238">
        <ele>123.1861572</ele>
        <time>2010-05-24T07:55:57Z</time>
      </trkpt>
      <trkpt lat="50.44228" lon="2.32396">
        <ele>125.1087646</ele>
        <time>2010-05-24T07:56:07Z</time>
      </trkpt>
      <trkpt lat="50.44245" lon="2.3241">
        <ele>127.5119629</ele>
        <time>2010-05-24T07:56:16Z</time>
      </trkpt>
      <trkpt lat="50.44262" lon="2.32423">
        <ele>130.876709</ele>
        <time>2010-05-24T07:56:26Z</time>
      </trkpt>
      <trkpt lat="50.44281" lon="2.32439">
        <ele>134.2412109</ele>
        <time>2010-05-24T07:56:37Z</time>
      </trkpt>
      <trkpt lat="50.44296" lon="2.32453">
        <ele>136.1639404</ele>
        <time>2010-05-24T07:56:47Z</time>
      </trkpt>
      <trkpt lat="50.443" lon="2.32467">
        <ele>139.5284424</ele>
        <time>2010-05-24T07:56:54Z</time>
      </trkpt>
      <trkpt lat="50.443" lon="2.32496">
        <ele>144.8157959</ele>
        <time>2010-05-24T07:57:03Z</time>
      </trkpt>
      <trkpt lat="50.44299" lon="2.32523">
        <ele>150.5836182</ele>
        <time>2010-05-24T07:57:12Z</time>
      </trkpt>
      <trkpt lat="50.44296" lon="2.32558">
        <ele>152.9869385</ele>
        <time>2010-05-24T07:57:21Z</time>
      </trkpt>
      <trkpt lat="50.44291" lon="2.32593">
        <ele>150.5836182</ele>
        <time>2010-05-24T07:57:29Z</time>
      </trkpt>
      <trkpt lat="50.44289" lon="2.32635">
        <ele>151.5449219</ele>
        <time>2010-05-24T07:57:38Z</time>
      </trkpt>
      <trkpt lat="50.44285" lon="2.32679">
        <ele>150.1030273</ele>
        <time>2010-05-24T07:57:47Z</time>
      </trkpt>
      <trkpt lat="50.44283" lon="2.327">
        <ele>150.1030273</ele>
        <time>2010-05-24T07:57:52Z</time>
      </trkpt>
      <trkpt lat="50.44276" lon="2.32721">
        <ele>149.6223145</ele>
        <time>2010-05-24T07:57:57Z</time>
      </trkpt>
      <trkpt lat="50.44274" lon="2.32724">
        <ele>149.6223145</ele>
        <time>2010-05-24T07:57:58Z</time>
      </trkpt>
      <trkpt lat="50.44266" lon="2.32737">
        <ele>149.1416016</ele>
        <time>2010-05-24T07:58:03Z</time>
      </trkpt>
      <trkpt lat="50.44263" lon="2.32747">
        <ele>148.6610107</ele>
        <time>2010-05-24T07:58:06Z</time>
      </trkpt>
      <trkpt lat="50.44253" lon="2.32782">
        <ele>147.699707</ele>
        <time>2010-05-24T07:58:12Z</time>
      </trkpt>
      <trkpt lat="50.44248" lon="2.32814">
        <ele>146.2578125</ele>
        <time>2010-05-24T07:58:17Z</time>
      </trkpt>
      <trkpt lat="50.44248" lon="2.32828">
        <ele>145.7770996</ele>
        <time>2010-05-24T07:58:19Z</time>
      </trkpt>
      <trkpt lat="50.44246" lon="2.32855">
        <ele>143.8543701</ele>
        <time>2010-05-24T07:58:23Z</time>
      </trkpt>
      <trkpt lat="50.44245" lon="2.32869">
        <ele>142.8930664</ele>
        <time>2010-05-24T07:58:25Z</time>
      </trkpt>
      <trkpt lat="50.44239" lon="2.32911">
        <ele>141.9317627</ele>
        <time>2010-05-24T07:58:31Z</time>
      </trkpt>
      <trkpt lat="50.44236" lon="2.32924">
        <ele>141.4510498</ele>
        <time>2010-05-24T07:58:33Z</time>
      </trkpt>
      <trkpt lat="50.44224" lon="2.32959">
        <ele>141.9317627</ele>
        <time>2010-05-24T07:58:38Z</time>
      </trkpt>
      <trkpt lat="50.44221" lon="2.32973">
        <ele>140.970459</ele>
        <time>2010-05-24T07:58:40Z</time>
      </trkpt>
      <trkpt lat="50.44218" lon="2.32987">
        <ele>139.0478516</ele>
        <time>2010-05-24T07:58:42Z</time>
      </trkpt>
      <trkpt lat="50.44215" lon="2.33028">
        <ele>135.2025146</ele>
        <time>2010-05-24T07:58:47Z</time>
      </trkpt>
      <trkpt lat="50.44215" lon="2.33061">
        <ele>135.2025146</ele>
        <time>2010-05-24T07:58:51Z</time>
      </trkpt>
      <trkpt lat="50.44216" lon="2.33071">
        <ele>135.2025146</ele>
        <time>2010-05-24T07:58:53Z</time>
      </trkpt>
      <trkpt lat="50.44219" lon="2.33108">
        <ele>137.1252441</ele>
        <time>2010-05-24T07:59:02Z</time>
      </trkpt>
      <trkpt lat="50.4422" lon="2.3311">
        <ele>136.1639404</ele>
        <time>2010-05-24T07:59:05Z</time>
      </trkpt>
      <trkpt lat="50.44224" lon="2.33111">
        <ele>137.1252441</ele>
        <time>2010-05-24T07:59:12Z</time>
      </trkpt>
      <trkpt lat="50.44228" lon="2.33111">
        <ele>135.6831055</ele>
        <time>2010-05-24T07:59:19Z</time>
      </trkpt>
      <trkpt lat="50.44229" lon="2.33109">
        <ele>134.7219238</ele>
        <time>2010-05-24T07:59:24Z</time>
      </trkpt>
      <trkpt lat="50.44231" lon="2.33107">
        <ele>133.760498</ele>
        <time>2010-05-24T07:59:30Z</time>
      </trkpt>
      <trkpt lat="50.44234" lon="2.33105">
        <ele>131.3572998</ele>
        <time>2010-05-24T07:59:35Z</time>
      </trkpt>
      <trkpt lat="50.44239" lon="2.33104">
        <ele>129.4346924</ele>
        <time>2010-05-24T07:59:44Z</time>
      </trkpt>
      <trkpt lat="50.4424" lon="2.33105">
        <ele>128.9541016</ele>
        <time>2010-05-24T07:59:49Z</time>
      </trkpt>
      <trkpt lat="50.44243" lon="2.33107">
        <ele>127.5119629</ele>
        <time>2010-05-24T07:59:55Z</time>
      </trkpt>
      <trkpt lat="50.44243" lon="2.33101">
        <ele>134.7219238</ele>
        <time>2010-05-24T08:00:05Z</time>
      </trkpt>
      <trkpt lat="50.44244" lon="2.33098">
        <ele>138.0865479</ele>
        <time>2010-05-24T08:00:15Z</time>
      </trkpt>
      <trkpt lat="50.44248" lon="2.33097">
        <ele>139.5284424</ele>
        <time>2010-05-24T08:00:23Z</time>
      </trkpt>
      <trkpt lat="50.44251" lon="2.33096">
        <ele>138.0865479</ele>
        <time>2010-05-24T08:00:26Z</time>
      </trkpt>
      <trkpt lat="50.4426" lon="2.33093">
        <ele>136.6446533</ele>
        <time>2010-05-24T08:00:32Z</time>
      </trkpt>
      <trkpt lat="50.44266" lon="2.33091">
        <ele>136.1639404</ele>
        <time>2010-05-24T08:00:36Z</time>
      </trkpt>
      <trkpt lat="50.44272" lon="2.33088">
        <ele>136.6446533</ele>
        <time>2010-05-24T08:00:40Z</time>
      </trkpt>
      <trkpt lat="50.44282" lon="2.33083">
        <ele>137.605835</ele>
        <time>2010-05-24T08:00:47Z</time>
      </trkpt>
      <trkpt lat="50.44294" lon="2.33081">
        <ele>137.1252441</ele>
        <time>2010-05-24T08:00:56Z</time>
      </trkpt>
      <trkpt lat="50.44306" lon="2.33082">
        <ele>137.1252441</ele>
        <time>2010-05-24T08:01:05Z</time>
      </trkpt>
      <trkpt lat="50.44308" lon="2.33083">
        <ele>137.1252441</ele>
        <time>2010-05-24T08:01:07Z</time>
      </trkpt>
      <trkpt lat="50.44313" lon="2.33095">
        <ele>138.5672607</ele>
        <time>2010-05-24T08:01:14Z</time>
      </trkpt>
      <trkpt lat="50.44316" lon="2.33113">
        <ele>140.4898682</ele>
        <time>2010-05-24T08:01:21Z</time>
      </trkpt>
      <trkpt lat="50.44317" lon="2.33136">
        <ele>139.0478516</ele>
        <time>2010-05-24T08:01:26Z</time>
      </trkpt>
      <trkpt lat="50.44317" lon="2.33154">
        <ele>137.605835</ele>
        <time>2010-05-24T08:01:30Z</time>
      </trkpt>
      <trkpt lat="50.4432" lon="2.33183">
        <ele>140.0091553</ele>
        <time>2010-05-24T08:01:37Z</time>
      </trkpt>
      <trkpt lat="50.4432" lon="2.33202">
        <ele>142.8930664</ele>
        <time>2010-05-24T08:01:41Z</time>
      </trkpt>
      <trkpt lat="50.44323" lon="2.33226">
        <ele>145.2963867</ele>
        <time>2010-05-24T08:01:46Z</time>
      </trkpt>
      <trkpt lat="50.44331" lon="2.33254">
        <ele>145.7770996</ele>
        <time>2010-05-24T08:01:51Z</time>
      </trkpt>
      <trkpt lat="50.44342" lon="2.33282">
        <ele>147.699707</ele>
        <time>2010-05-24T08:01:57Z</time>
      </trkpt>
      <trkpt lat="50.44356" lon="2.33316">
        <ele>148.1804199</ele>
        <time>2010-05-24T08:02:05Z</time>
      </trkpt>
      <trkpt lat="50.44368" lon="2.33336">
        <ele>150.1030273</ele>
        <time>2010-05-24T08:02:12Z</time>
      </trkpt>
      <trkpt lat="50.44371" lon="2.33338">
        <ele>150.1030273</ele>
        <time>2010-05-24T08:02:13Z</time>
      </trkpt>
      <trkpt lat="50.44378" lon="2.33336">
        <ele>150.1030273</ele>
        <time>2010-05-24T08:02:18Z</time>
      </trkpt>
      <trkpt lat="50.44375" lon="2.33346">
        <ele>149.1416016</ele>
        <time>2010-05-24T08:02:21Z</time>
      </trkpt>
      <trkpt lat="50.44357" lon="2.33379">
        <ele>147.699707</ele>
        <time>2010-05-24T08:02:26Z</time>
      </trkpt>
      <trkpt lat="50.44328" lon="2.33425">
        <ele>144.3352051</ele>
        <time>2010-05-24T08:02:31Z</time>
      </trkpt>
      <trkpt lat="50.44304" lon="2.33462">
        <ele>139.5284424</ele>
        <time>2010-05-24T08:02:35Z</time>
      </trkpt>
      <trkpt lat="50.44298" lon="2.33472">
        <ele>138.0865479</ele>
        <time>2010-05-24T08:02:36Z</time>
      </trkpt>
      <trkpt lat="50.44267" lon="2.335">
        <ele>133.760498</ele>
        <time>2010-05-24T08:02:41Z</time>
      </trkpt>
      <trkpt lat="50.44249" lon="2.33497">
        <ele>132.7993164</ele>
        <time>2010-05-24T08:02:44Z</time>
      </trkpt>
      <trkpt lat="50.44233" lon="2.33481">
        <ele>132.3186035</ele>
        <time>2010-05-24T08:02:48Z</time>
      </trkpt>
      <trkpt lat="50.44217" lon="2.33464">
        <ele>132.7993164</ele>
        <time>2010-05-24T08:02:52Z</time>
      </trkpt>
      <trkpt lat="50.44211" lon="2.33454">
        <ele>132.3186035</ele>
        <time>2010-05-24T08:02:54Z</time>
      </trkpt>
      <trkpt lat="50.44203" lon="2.33431">
        <ele>129.9152832</ele>
        <time>2010-05-24T08:02:58Z</time>
      </trkpt>
      <trkpt lat="50.44197" lon="2.33397">
        <ele>127.0313721</ele>
        <time>2010-05-24T08:03:03Z</time>
      </trkpt>
      <trkpt lat="50.44196" lon="2.3339">
        <ele>127.0313721</ele>
        <time>2010-05-24T08:03:04Z</time>
      </trkpt>
      <trkpt lat="50.44194" lon="2.33377">
        <ele>126.0699463</ele>
        <time>2010-05-24T08:03:07Z</time>
      </trkpt>
      <trkpt lat="50.44191" lon="2.3336">
        <ele>126.0699463</ele>
        <time>2010-05-24T08:03:13Z</time>
      </trkpt>
      <trkpt lat="50.4419" lon="2.33355">
        <ele>126.5506592</ele>
        <time>2010-05-24T08:03:16Z</time>
      </trkpt>
      <trkpt lat="50.44187" lon="2.33347">
        <ele>128.4733887</ele>
        <time>2010-05-24T08:03:19Z</time>
      </trkpt>
      <trkpt lat="50.44185" lon="2.33342">
        <ele>130.3959961</ele>
        <time>2010-05-24T08:03:21Z</time>
      </trkpt>
      <trkpt lat="50.4418" lon="2.3333">
        <ele>133.760498</ele>
        <time>2010-05-24T08:03:25Z</time>
      </trkpt>
      <trkpt lat="50.44179" lon="2.33328">
        <ele>133.760498</ele>
        <time>2010-05-24T08:03:26Z</time>
      </trkpt>
      <trkpt lat="50.44169" lon="2.33316">
        <ele>135.2025146</ele>
        <time>2010-05-24T08:03:32Z</time>
      </trkpt>
      <trkpt lat="50.44161" lon="2.33298">
        <ele>137.605835</ele>
        <time>2010-05-24T08:03:40Z</time>
      </trkpt>
      <trkpt lat="50.44155" lon="2.33287">
        <ele>139.5284424</ele>
        <time>2010-05-24T08:03:46Z</time>
      </trkpt>
      <trkpt lat="50.44148" lon="2.33276">
        <ele>145.7770996</ele>
        <time>2010-05-24T08:03:53Z</time>
      </trkpt>
      <trkpt lat="50.44138" lon="2.33267">
        <ele>147.2189941</ele>
        <time>2010-05-24T08:03:59Z</time>
      </trkpt>
      <trkpt lat="50.44129" lon="2.33261">
        <ele>151.064209</ele>
        <time>2010-05-24T08:04:05Z</time>
      </trkpt>
      <trkpt lat="50.44126" lon="2.33261">
        <ele>152.0257568</ele>
        <time>2010-05-24T08:04:06Z</time>
      </trkpt>
      <trkpt lat="50.44112" lon="2.33258">
        <ele>153.9483643</ele>
        <time>2010-05-24T08:04:13Z</time>
      </trkpt>
      <trkpt lat="50.44104" lon="2.33259">
        <ele>155.8709717</ele>
        <time>2010-05-24T08:04:18Z</time>
      </trkpt>
      <trkpt lat="50.4409" lon="2.33259">
        <ele>153.9483643</ele>
        <time>2010-05-24T08:04:25Z</time>
      </trkpt>
      <trkpt lat="50.4408" lon="2.33263">
        <ele>150.5836182</ele>
        <time>2010-05-24T08:04:30Z</time>
      </trkpt>
      <trkpt lat="50.44071" lon="2.33268">
        <ele>150.5836182</ele>
        <time>2010-05-24T08:04:36Z</time>
      </trkpt>
      <trkpt lat="50.4406" lon="2.33276">
        <ele>149.1416016</ele>
        <time>2010-05-24T08:04:45Z</time>
      </trkpt>
      <trkpt lat="50.44051" lon="2.33282">
        <ele>151.5449219</ele>
        <time>2010-05-24T08:04:51Z</time>
      </trkpt>
      <trkpt lat="50.44038" lon="2.33292">
        <ele>151.064209</ele>
        <time>2010-05-24T08:05:00Z</time>
      </trkpt>
      <trkpt lat="50.44036" lon="2.33294">
        <ele>150.5836182</ele>
        <time>2010-05-24T08:05:02Z</time>
      </trkpt>
      <trkpt lat="50.44024" lon="2.33305">
        <ele>151.5449219</ele>
        <time>2010-05-24T08:05:09Z</time>
      </trkpt>
      <trkpt lat="50.44014" lon="2.3331">
        <ele>151.064209</ele>
        <time>2010-05-24T08:05:14Z</time>
      </trkpt>
      <trkpt lat="50.43999" lon="2.33319">
        <ele>153.9483643</ele>
        <time>2010-05-24T08:05:21Z</time>
      </trkpt>
      <trkpt lat="50.43981" lon="2.33328">
        <ele>158.2741699</ele>
        <time>2010-05-24T08:05:30Z</time>
      </trkpt>
      <trkpt lat="50.43964" lon="2.33338">
        <ele>160.6774902</ele>
        <time>2010-05-24T08:05:40Z</time>
      </trkpt>
      <trkpt lat="50.43948" lon="2.33348">
        <ele>163.5615234</ele>
        <time>2010-05-24T08:05:50Z</time>
      </trkpt>
      <trkpt lat="50.43933" lon="2.33358">
        <ele>162.6000977</ele>
        <time>2010-05-24T08:05:58Z</time>
      </trkpt>
      <trkpt lat="50.43914" lon="2.33367">
        <ele>161.638916</ele>
        <time>2010-05-24T08:06:07Z</time>
      </trkpt>
      <trkpt lat="50.4389" lon="2.3338">
        <ele>160.6774902</ele>
        <time>2010-05-24T08:06:19Z</time>
      </trkpt>
      <trkpt lat="50.43869" lon="2.33393">
        <ele>160.1968994</ele>
        <time>2010-05-24T08:06:29Z</time>
      </trkpt>
      <trkpt lat="50.43848" lon="2.33405">
        <ele>161.1582031</ele>
        <time>2010-05-24T08:06:38Z</time>
      </trkpt>
      <trkpt lat="50.4383" lon="2.33416">
        <ele>163.5615234</ele>
        <time>2010-05-24T08:06:45Z</time>
      </trkpt>
      <trkpt lat="50.4381" lon="2.33429">
        <ele>166.9260254</ele>
        <time>2010-05-24T08:06:54Z</time>
      </trkpt>
      <trkpt lat="50.43799" lon="2.33435">
        <ele>168.8487549</ele>
        <time>2010-05-24T08:06:59Z</time>
      </trkpt>
      <trkpt lat="50.43798" lon="2.33448">
        <ele>169.8100586</ele>
        <time>2010-05-24T08:07:04Z</time>
      </trkpt>
      <trkpt lat="50.438" lon="2.33463">
        <ele>168.368042</ele>
        <time>2010-05-24T08:07:07Z</time>
      </trkpt>
      <trkpt lat="50.43805" lon="2.33507">
        <ele>169.8100586</ele>
        <time>2010-05-24T08:07:15Z</time>
      </trkpt>
      <trkpt lat="50.4381" lon="2.3355">
        <ele>170.7713623</ele>
        <time>2010-05-24T08:07:21Z</time>
      </trkpt>
      <trkpt lat="50.43813" lon="2.33604">
        <ele>172.2132568</ele>
        <time>2010-05-24T08:07:28Z</time>
      </trkpt>
      <trkpt lat="50.43814" lon="2.33662">
        <ele>173.1746826</ele>
        <time>2010-05-24T08:07:36Z</time>
      </trkpt>
      <trkpt lat="50.43815" lon="2.33759">
        <ele>174.6165771</ele>
        <time>2010-05-24T08:07:49Z</time>
      </trkpt>
      <trkpt lat="50.43816" lon="2.33831">
        <ele>175.09729</ele>
        <time>2010-05-24T08:07:59Z</time>
      </trkpt>
      <trkpt lat="50.43818" lon="2.33896">
        <ele>176.0585938</ele>
        <time>2010-05-24T08:08:08Z</time>
      </trkpt>
      <trkpt lat="50.43822" lon="2.33961">
        <ele>176.0585938</ele>
        <time>2010-05-24T08:08:17Z</time>
      </trkpt>
      <trkpt lat="50.43829" lon="2.34054">
        <ele>177.0200195</ele>
        <time>2010-05-24T08:08:29Z</time>
      </trkpt>
      <trkpt lat="50.43836" lon="2.34128">
        <ele>177.0200195</ele>
        <time>2010-05-24T08:08:39Z</time>
      </trkpt>
      <trkpt lat="50.43845" lon="2.34211">
        <ele>176.5393066</ele>
        <time>2010-05-24T08:08:50Z</time>
      </trkpt>
      <trkpt lat="50.43849" lon="2.3428">
        <ele>171.2520752</ele>
        <time>2010-05-24T08:08:59Z</time>
      </trkpt>
      <trkpt lat="50.43848" lon="2.34343">
        <ele>167.8873291</ele>
        <time>2010-05-24T08:09:07Z</time>
      </trkpt>
      <trkpt lat="50.43846" lon="2.34405">
        <ele>164.5227051</ele>
        <time>2010-05-24T08:09:15Z</time>
      </trkpt>
      <trkpt lat="50.43846" lon="2.34419">
        <ele>164.0421143</ele>
        <time>2010-05-24T08:09:17Z</time>
      </trkpt>
      <trkpt lat="50.43849" lon="2.34448">
        <ele>163.5615234</ele>
        <time>2010-05-24T08:09:21Z</time>
      </trkpt>
      <trkpt lat="50.43858" lon="2.34493">
        <ele>162.1195068</ele>
        <time>2010-05-24T08:09:27Z</time>
      </trkpt>
      <trkpt lat="50.43851" lon="2.34512">
        <ele>163.0808105</ele>
        <time>2010-05-24T08:09:31Z</time>
      </trkpt>
      <trkpt lat="50.4381" lon="2.3453">
        <ele>163.0808105</ele>
        <time>2010-05-24T08:09:40Z</time>
      </trkpt>
      <trkpt lat="50.43792" lon="2.34539">
        <ele>163.5615234</ele>
        <time>2010-05-24T08:09:44Z</time>
      </trkpt>
      <trkpt lat="50.43764" lon="2.34552">
        <ele>164.0421143</ele>
        <time>2010-05-24T08:09:50Z</time>
      </trkpt>
      <trkpt lat="50.43719" lon="2.34571">
        <ele>166.4453125</ele>
        <time>2010-05-24T08:10:00Z</time>
      </trkpt>
      <trkpt lat="50.43673" lon="2.34592">
        <ele>168.368042</ele>
        <time>2010-05-24T08:10:10Z</time>
      </trkpt>
      <trkpt lat="50.43636" lon="2.34608">
        <ele>169.3294678</ele>
        <time>2010-05-24T08:10:18Z</time>
      </trkpt>
      <trkpt lat="50.4361" lon="2.34619">
        <ele>170.2906494</ele>
        <time>2010-05-24T08:10:24Z</time>
      </trkpt>
      <trkpt lat="50.43597" lon="2.34625">
        <ele>170.7713623</ele>
        <time>2010-05-24T08:10:27Z</time>
      </trkpt>
      <trkpt lat="50.43581" lon="2.34632">
        <ele>170.7713623</ele>
        <time>2010-05-24T08:10:31Z</time>
      </trkpt>
      <trkpt lat="50.43534" lon="2.3465">
        <ele>168.8487549</ele>
        <time>2010-05-24T08:10:42Z</time>
      </trkpt>
      <trkpt lat="50.43496" lon="2.34666">
        <ele>165.9647217</ele>
        <time>2010-05-24T08:10:50Z</time>
      </trkpt>
      <trkpt lat="50.43452" lon="2.34688">
        <ele>159.7161865</ele>
        <time>2010-05-24T08:10:59Z</time>
      </trkpt>
      <trkpt lat="50.43445" lon="2.34692">
        <ele>158.2741699</ele>
        <time>2010-05-24T08:11:01Z</time>
      </trkpt>
      <trkpt lat="50.43435" lon="2.34684">
        <ele>157.3128662</ele>
        <time>2010-05-24T08:11:05Z</time>
      </trkpt>
      <trkpt lat="50.43433" lon="2.34677">
        <ele>157.3128662</ele>
        <time>2010-05-24T08:11:06Z</time>
      </trkpt>
      <trkpt lat="50.43424" lon="2.34621">
        <ele>157.7935791</ele>
        <time>2010-05-24T08:11:13Z</time>
      </trkpt>
      <trkpt lat="50.43413" lon="2.34567">
        <ele>158.7547607</ele>
        <time>2010-05-24T08:11:20Z</time>
      </trkpt>
      <trkpt lat="50.43404" lon="2.34506">
        <ele>160.1968994</ele>
        <time>2010-05-24T08:11:28Z</time>
      </trkpt>
      <trkpt lat="50.43391" lon="2.34437">
        <ele>161.638916</ele>
        <time>2010-05-24T08:11:37Z</time>
      </trkpt>
      <trkpt lat="50.4338" lon="2.34379">
        <ele>162.6000977</ele>
        <time>2010-05-24T08:11:45Z</time>
      </trkpt>
      <trkpt lat="50.43366" lon="2.34305">
        <ele>163.5615234</ele>
        <time>2010-05-24T08:11:55Z</time>
      </trkpt>
      <trkpt lat="50.43361" lon="2.3427">
        <ele>164.5227051</ele>
        <time>2010-05-24T08:12:01Z</time>
      </trkpt>
      <trkpt lat="50.43356" lon="2.34257">
        <ele>165.4841309</ele>
        <time>2010-05-24T08:12:04Z</time>
      </trkpt>
      <trkpt lat="50.43342" lon="2.34259">
        <ele>165.9647217</ele>
        <time>2010-05-24T08:12:08Z</time>
      </trkpt>
      <trkpt lat="50.43305" lon="2.34282">
        <ele>165.9647217</ele>
        <time>2010-05-24T08:12:17Z</time>
      </trkpt>
      <trkpt lat="50.43272" lon="2.34302">
        <ele>165.9647217</ele>
        <time>2010-05-24T08:12:25Z</time>
      </trkpt>
      <trkpt lat="50.43237" lon="2.34322">
        <ele>165.4841309</ele>
        <time>2010-05-24T08:12:33Z</time>
      </trkpt>
      <trkpt lat="50.43197" lon="2.34346">
        <ele>164.5227051</ele>
        <time>2010-05-24T08:12:42Z</time>
      </trkpt>
      <trkpt lat="50.43159" lon="2.34368">
        <ele>164.5227051</ele>
        <time>2010-05-24T08:12:50Z</time>
      </trkpt>
      <trkpt lat="50.43126" lon="2.34391">
        <ele>162.6000977</ele>
        <time>2010-05-24T08:12:57Z</time>
      </trkpt>
      <trkpt lat="50.43076" lon="2.34425">
        <ele>162.6000977</ele>
        <time>2010-05-24T08:13:06Z</time>
      </trkpt>
      <trkpt lat="50.43032" lon="2.34454">
        <ele>163.5615234</ele>
        <time>2010-05-24T08:13:14Z</time>
      </trkpt>
      <trkpt lat="50.42991" lon="2.34481">
        <ele>164.5227051</ele>
        <time>2010-05-24T08:13:22Z</time>
      </trkpt>
      <trkpt lat="50.42966" lon="2.34497">
        <ele>164.5227051</ele>
        <time>2010-05-24T08:13:27Z</time>
      </trkpt>
      <trkpt lat="50.42929" lon="2.34521">
        <ele>164.5227051</ele>
        <time>2010-05-24T08:13:35Z</time>
      </trkpt>
      <trkpt lat="50.42926" lon="2.34536">
        <ele>164.5227051</ele>
        <time>2010-05-24T08:13:39Z</time>
      </trkpt>
      <trkpt lat="50.42929" lon="2.3454">
        <ele>164.5227051</ele>
        <time>2010-05-24T08:13:40Z</time>
      </trkpt>
      <trkpt lat="50.42952" lon="2.34569">
        <ele>165.4841309</ele>
        <time>2010-05-24T08:13:46Z</time>
      </trkpt>
      <trkpt lat="50.42983" lon="2.34604">
        <ele>165.4841309</ele>
        <time>2010-05-24T08:13:53Z</time>
      </trkpt>
      <trkpt lat="50.43015" lon="2.34641">
        <ele>164.5227051</ele>
        <time>2010-05-24T08:14:00Z</time>
      </trkpt>
      <trkpt lat="50.43052" lon="2.34684">
        <ele>163.0808105</ele>
        <time>2010-05-24T08:14:08Z</time>
      </trkpt>
      <trkpt lat="50.43083" lon="2.3472">
        <ele>160.6774902</ele>
        <time>2010-05-24T08:14:15Z</time>
      </trkpt>
      <trkpt lat="50.43119" lon="2.34763">
        <ele>158.2741699</ele>
        <time>2010-05-24T08:14:23Z</time>
      </trkpt>
      <trkpt lat="50.43128" lon="2.34773">
        <ele>157.7935791</ele>
        <time>2010-05-24T08:14:25Z</time>
      </trkpt>
      <trkpt lat="50.43146" lon="2.34817">
        <ele>155.8709717</ele>
        <time>2010-05-24T08:14:31Z</time>
      </trkpt>
      <trkpt lat="50.4317" lon="2.34878">
        <ele>152.5063477</ele>
        <time>2010-05-24T08:14:37Z</time>
      </trkpt>
      <trkpt lat="50.43177" lon="2.34898">
        <ele>151.5449219</ele>
        <time>2010-05-24T08:14:39Z</time>
      </trkpt>
      <trkpt lat="50.43175" lon="2.34929">
        <ele>150.5836182</ele>
        <time>2010-05-24T08:14:43Z</time>
      </trkpt>
      <trkpt lat="50.43164" lon="2.34938">
        <ele>150.1030273</ele>
        <time>2010-05-24T08:14:45Z</time>
      </trkpt>
      <trkpt lat="50.43127" lon="2.34961">
        <ele>150.1030273</ele>
        <time>2010-05-24T08:14:51Z</time>
      </trkpt>
      <trkpt lat="50.43104" lon="2.34976">
        <ele>151.064209</ele>
        <time>2010-05-24T08:14:55Z</time>
      </trkpt>
      <trkpt lat="50.43078" lon="2.35014">
        <ele>152.5063477</ele>
        <time>2010-05-24T08:15:00Z</time>
      </trkpt>
      <trkpt lat="50.43061" lon="2.35045">
        <ele>154.9095459</ele>
        <time>2010-05-24T08:15:04Z</time>
      </trkpt>
      <trkpt lat="50.43052" lon="2.35065">
        <ele>157.3128662</ele>
        <time>2010-05-24T08:15:07Z</time>
      </trkpt>
      <trkpt lat="50.43043" lon="2.35082">
        <ele>159.7161865</ele>
        <time>2010-05-24T08:15:10Z</time>
      </trkpt>
      <trkpt lat="50.43037" lon="2.35093">
        <ele>161.638916</ele>
        <time>2010-05-24T08:15:12Z</time>
      </trkpt>
      <trkpt lat="50.43023" lon="2.35118">
        <ele>165.003418</ele>
        <time>2010-05-24T08:15:17Z</time>
      </trkpt>
      <trkpt lat="50.42996" lon="2.35169">
        <ele>167.4067383</ele>
        <time>2010-05-24T08:15:26Z</time>
      </trkpt>
      <trkpt lat="50.42969" lon="2.35225">
        <ele>167.4067383</ele>
        <time>2010-05-24T08:15:35Z</time>
      </trkpt>
      <trkpt lat="50.42956" lon="2.35252">
        <ele>165.9647217</ele>
        <time>2010-05-24T08:15:40Z</time>
      </trkpt>
      <trkpt lat="50.42954" lon="2.35281">
        <ele>164.5227051</ele>
        <time>2010-05-24T08:15:45Z</time>
      </trkpt>
      <trkpt lat="50.4296" lon="2.35297">
        <ele>164.5227051</ele>
        <time>2010-05-24T08:15:48Z</time>
      </trkpt>
      <trkpt lat="50.42977" lon="2.35356">
        <ele>162.6000977</ele>
        <time>2010-05-24T08:15:56Z</time>
      </trkpt>
      <trkpt lat="50.42994" lon="2.35419">
        <ele>161.638916</ele>
        <time>2010-05-24T08:16:04Z</time>
      </trkpt>
      <trkpt lat="50.43009" lon="2.35473">
        <ele>161.638916</ele>
        <time>2010-05-24T08:16:11Z</time>
      </trkpt>
      <trkpt lat="50.43013" lon="2.35487">
        <ele>161.638916</ele>
        <time>2010-05-24T08:16:13Z</time>
      </trkpt>
      <trkpt lat="50.43023" lon="2.3552">
        <ele>162.6000977</ele>
        <time>2010-05-24T08:16:18Z</time>
      </trkpt>
      <trkpt lat="50.43024" lon="2.35552">
        <ele>163.0808105</ele>
        <time>2010-05-24T08:16:23Z</time>
      </trkpt>
      <trkpt lat="50.43024" lon="2.35558">
        <ele>163.0808105</ele>
        <time>2010-05-24T08:16:24Z</time>
      </trkpt>
      <trkpt lat="50.43011" lon="2.35581">
        <ele>159.2354736</ele>
        <time>2010-05-24T08:16:29Z</time>
      </trkpt>
      <trkpt lat="50.42969" lon="2.35613">
        <ele>155.8709717</ele>
        <time>2010-05-24T08:16:37Z</time>
      </trkpt>
      <trkpt lat="50.42932" lon="2.3564">
        <ele>155.3902588</ele>
        <time>2010-05-24T08:16:44Z</time>
      </trkpt>
      <trkpt lat="50.42897" lon="2.35665">
        <ele>157.3128662</ele>
        <time>2010-05-24T08:16:52Z</time>
      </trkpt>
      <trkpt lat="50.42893" lon="2.35666">
        <ele>157.7935791</ele>
        <time>2010-05-24T08:16:53Z</time>
      </trkpt>
      <trkpt lat="50.42881" lon="2.3566">
        <ele>160.6774902</ele>
        <time>2010-05-24T08:16:57Z</time>
      </trkpt>
      <trkpt lat="50.42877" lon="2.3565">
        <ele>162.6000977</ele>
        <time>2010-05-24T08:16:59Z</time>
      </trkpt>
      <trkpt lat="50.42866" lon="2.356">
        <ele>164.0421143</ele>
        <time>2010-05-24T08:17:08Z</time>
      </trkpt>
      <trkpt lat="50.42856" lon="2.35572">
        <ele>162.6000977</ele>
        <time>2010-05-24T08:17:13Z</time>
      </trkpt>
      <trkpt lat="50.4284" lon="2.35536">
        <ele>161.638916</ele>
        <time>2010-05-24T08:17:19Z</time>
      </trkpt>
      <trkpt lat="50.42821" lon="2.35494">
        <ele>160.6774902</ele>
        <time>2010-05-24T08:17:26Z</time>
      </trkpt>
      <trkpt lat="50.42794" lon="2.35435">
        <ele>158.2741699</ele>
        <time>2010-05-24T08:17:36Z</time>
      </trkpt>
      <trkpt lat="50.42765" lon="2.35369">
        <ele>156.3515625</ele>
        <time>2010-05-24T08:17:47Z</time>
      </trkpt>
      <trkpt lat="50.42745" lon="2.35322">
        <ele>154.4289551</ele>
        <time>2010-05-24T08:17:55Z</time>
      </trkpt>
      <trkpt lat="50.4272" lon="2.35263">
        <ele>152.5063477</ele>
        <time>2010-05-24T08:18:04Z</time>
      </trkpt>
      <trkpt lat="50.42705" lon="2.35226">
        <ele>152.5063477</ele>
        <time>2010-05-24T08:18:10Z</time>
      </trkpt>
      <trkpt lat="50.42691" lon="2.35191">
        <ele>150.5836182</ele>
        <time>2010-05-24T08:18:15Z</time>
      </trkpt>
      <trkpt lat="50.42679" lon="2.35141">
        <ele>142.8930664</ele>
        <time>2010-05-24T08:18:20Z</time>
      </trkpt>
      <trkpt lat="50.42668" lon="2.35091">
        <ele>134.7219238</ele>
        <time>2010-05-24T08:18:24Z</time>
      </trkpt>
      <trkpt lat="50.42658" lon="2.35052">
        <ele>128.9541016</ele>
        <time>2010-05-24T08:18:28Z</time>
      </trkpt>
      <trkpt lat="50.42644" lon="2.35012">
        <ele>126.5506592</ele>
        <time>2010-05-24T08:18:33Z</time>
      </trkpt>
      <trkpt lat="50.42624" lon="2.34976">
        <ele>122.7054443</ele>
        <time>2010-05-24T08:18:39Z</time>
      </trkpt>
      <trkpt lat="50.42613" lon="2.34958">
        <ele>121.7441406</ele>
        <time>2010-05-24T08:18:42Z</time>
      </trkpt>
      <trkpt lat="50.42592" lon="2.34935">
        <ele>122.7054443</ele>
        <time>2010-05-24T08:18:47Z</time>
      </trkpt>
      <trkpt lat="50.42575" lon="2.3492">
        <ele>121.7441406</ele>
        <time>2010-05-24T08:18:52Z</time>
      </trkpt>
      <trkpt lat="50.42561" lon="2.34907">
        <ele>121.7441406</ele>
        <time>2010-05-24T08:18:57Z</time>
      </trkpt>
      <trkpt lat="50.42555" lon="2.34902">
        <ele>122.2247314</ele>
        <time>2010-05-24T08:18:59Z</time>
      </trkpt>
      <trkpt lat="50.42532" lon="2.34888">
        <ele>122.7054443</ele>
        <time>2010-05-24T08:19:06Z</time>
      </trkpt>
      <trkpt lat="50.42513" lon="2.34874">
        <ele>122.7054443</ele>
        <time>2010-05-24T08:19:11Z</time>
      </trkpt>
      <trkpt lat="50.4249" lon="2.34854">
        <ele>125.5893555</ele>
        <time>2010-05-24T08:19:17Z</time>
      </trkpt>
      <trkpt lat="50.42476" lon="2.34841">
        <ele>126.5506592</ele>
        <time>2010-05-24T08:19:21Z</time>
      </trkpt>
      <trkpt lat="50.42464" lon="2.34826">
        <ele>128.9541016</ele>
        <time>2010-05-24T08:19:25Z</time>
      </trkpt>
      <trkpt lat="50.42449" lon="2.34816">
        <ele>129.4346924</ele>
        <time>2010-05-24T08:19:31Z</time>
      </trkpt>
      <trkpt lat="50.42439" lon="2.34808">
        <ele>128.4733887</ele>
        <time>2010-05-24T08:19:37Z</time>
      </trkpt>
      <trkpt lat="50.42423" lon="2.34789">
        <ele>126.0699463</ele>
        <time>2010-05-24T08:19:42Z</time>
      </trkpt>
      <trkpt lat="50.42406" lon="2.34774">
        <ele>125.1087646</ele>
        <time>2010-05-24T08:19:46Z</time>
      </trkpt>
      <trkpt lat="50.424" lon="2.34765">
        <ele>124.1473389</ele>
        <time>2010-05-24T08:19:48Z</time>
      </trkpt>
      <trkpt lat="50.42374" lon="2.3473">
        <ele>121.7441406</ele>
        <time>2010-05-24T08:19:54Z</time>
      </trkpt>
      <trkpt lat="50.42361" lon="2.3471">
        <ele>122.2247314</ele>
        <time>2010-05-24T08:19:58Z</time>
      </trkpt>
      <trkpt lat="50.42354" lon="2.34699">
        <ele>123.1861572</ele>
        <time>2010-05-24T08:20:00Z</time>
      </trkpt>
      <trkpt lat="50.42334" lon="2.34664">
        <ele>124.6280518</ele>
        <time>2010-05-24T08:20:06Z</time>
      </trkpt>
      <trkpt lat="50.42328" lon="2.34653">
        <ele>125.1087646</ele>
        <time>2010-05-24T08:20:08Z</time>
      </trkpt>
      <trkpt lat="50.42311" lon="2.34606">
        <ele>132.3186035</ele>
        <time>2010-05-24T08:20:16Z</time>
      </trkpt>
      <trkpt lat="50.42298" lon="2.34579">
        <ele>133.760498</ele>
        <time>2010-05-24T08:20:21Z</time>
      </trkpt>
      <trkpt lat="50.42276" lon="2.34547">
        <ele>131.8378906</ele>
        <time>2010-05-24T08:20:28Z</time>
      </trkpt>
      <trkpt lat="50.42247" lon="2.34514">
        <ele>127.5119629</ele>
        <time>2010-05-24T08:20:37Z</time>
      </trkpt>
      <trkpt lat="50.42231" lon="2.34495">
        <ele>126.5506592</ele>
        <time>2010-05-24T08:20:42Z</time>
      </trkpt>
      <trkpt lat="50.4222" lon="2.3448">
        <ele>127.0313721</ele>
        <time>2010-05-24T08:20:46Z</time>
      </trkpt>
      <trkpt lat="50.42211" lon="2.34469">
        <ele>126.5506592</ele>
        <time>2010-05-24T08:20:49Z</time>
      </trkpt>
      <trkpt lat="50.42202" lon="2.34457">
        <ele>126.0699463</ele>
        <time>2010-05-24T08:20:52Z</time>
      </trkpt>
      <trkpt lat="50.42195" lon="2.34449">
        <ele>125.5893555</ele>
        <time>2010-05-24T08:20:54Z</time>
      </trkpt>
      <trkpt lat="50.42168" lon="2.34421">
        <ele>125.1087646</ele>
        <time>2010-05-24T08:21:02Z</time>
      </trkpt>
      <trkpt lat="50.42142" lon="2.34399">
        <ele>126.5506592</ele>
        <time>2010-05-24T08:21:10Z</time>
      </trkpt>
      <trkpt lat="50.42123" lon="2.34383">
        <ele>127.0313721</ele>
        <time>2010-05-24T08:21:15Z</time>
      </trkpt>
      <trkpt lat="50.42095" lon="2.34362">
        <ele>127.0313721</ele>
        <time>2010-05-24T08:21:21Z</time>
      </trkpt>
      <trkpt lat="50.42063" lon="2.34338">
        <ele>123.666748</ele>
        <time>2010-05-24T08:21:26Z</time>
      </trkpt>
      <trkpt lat="50.42028" lon="2.34315">
        <ele>120.7828369</ele>
        <time>2010-05-24T08:21:31Z</time>
      </trkpt>
      <trkpt lat="50.4202" lon="2.34309">
        <ele>119.3408203</ele>
        <time>2010-05-24T08:21:32Z</time>
      </trkpt>
      <trkpt lat="50.41987" lon="2.34281">
        <ele>116.4567871</ele>
        <time>2010-05-24T08:21:37Z</time>
      </trkpt>
      <trkpt lat="50.41946" lon="2.34242">
        <ele>114.0535889</ele>
        <time>2010-05-24T08:21:45Z</time>
      </trkpt>
      <trkpt lat="50.41928" lon="2.34226">
        <ele>114.0535889</ele>
        <time>2010-05-24T08:21:49Z</time>
      </trkpt>
      <trkpt lat="50.4191" lon="2.34214">
        <ele>114.5341797</ele>
        <time>2010-05-24T08:21:53Z</time>
      </trkpt>
      <trkpt lat="50.41907" lon="2.34211">
        <ele>115.9761963</ele>
        <time>2010-05-24T08:21:54Z</time>
      </trkpt>
      <trkpt lat="50.41894" lon="2.34202">
        <ele>116.4567871</ele>
        <time>2010-05-24T08:21:58Z</time>
      </trkpt>
      <trkpt lat="50.41876" lon="2.34189">
        <ele>124.1473389</ele>
        <time>2010-05-24T08:22:04Z</time>
      </trkpt>
      <trkpt lat="50.41858" lon="2.34174">
        <ele>131.8378906</ele>
        <time>2010-05-24T08:22:09Z</time>
      </trkpt>
      <trkpt lat="50.41842" lon="2.34164">
        <ele>133.760498</ele>
        <time>2010-05-24T08:22:13Z</time>
      </trkpt>
      <trkpt lat="50.41819" lon="2.3415">
        <ele>132.3186035</ele>
        <time>2010-05-24T08:22:18Z</time>
      </trkpt>
      <trkpt lat="50.41814" lon="2.34147">
        <ele>132.3186035</ele>
        <time>2010-05-24T08:22:19Z</time>
      </trkpt>
      <trkpt lat="50.41795" lon="2.34136">
        <ele>132.3186035</ele>
        <time>2010-05-24T08:22:23Z</time>
      </trkpt>
      <trkpt lat="50.41776" lon="2.34127">
        <ele>132.7993164</ele>
        <time>2010-05-24T08:22:27Z</time>
      </trkpt>
      <trkpt lat="50.41762" lon="2.34123">
        <ele>133.760498</ele>
        <time>2010-05-24T08:22:30Z</time>
      </trkpt>
      <trkpt lat="50.41744" lon="2.34118">
        <ele>134.7219238</ele>
        <time>2010-05-24T08:22:34Z</time>
      </trkpt>
      <trkpt lat="50.41723" lon="2.34113">
        <ele>132.7993164</ele>
        <time>2010-05-24T08:22:39Z</time>
      </trkpt>
      <trkpt lat="50.41692" lon="2.34107">
        <ele>128.9541016</ele>
        <time>2010-05-24T08:22:47Z</time>
      </trkpt>
      <trkpt lat="50.41672" lon="2.34104">
        <ele>127.9925537</ele>
        <time>2010-05-24T08:22:51Z</time>
      </trkpt>
      <trkpt lat="50.4165" lon="2.34111">
        <ele>127.0313721</ele>
        <time>2010-05-24T08:22:55Z</time>
      </trkpt>
      <trkpt lat="50.41639" lon="2.34119">
        <ele>126.5506592</ele>
        <time>2010-05-24T08:22:57Z</time>
      </trkpt>
      <trkpt lat="50.41621" lon="2.34143">
        <ele>124.1473389</ele>
        <time>2010-05-24T08:23:01Z</time>
      </trkpt>
      <trkpt lat="50.41595" lon="2.34184">
        <ele>119.3408203</ele>
        <time>2010-05-24T08:23:07Z</time>
      </trkpt>
      <trkpt lat="50.4157" lon="2.34211">
        <ele>115.9761963</ele>
        <time>2010-05-24T08:23:12Z</time>
      </trkpt>
      <trkpt lat="50.41559" lon="2.34222">
        <ele>115.4956055</ele>
        <time>2010-05-24T08:23:14Z</time>
      </trkpt>
      <trkpt lat="50.41547" lon="2.34238">
        <ele>113.572998</ele>
        <time>2010-05-24T08:23:17Z</time>
      </trkpt>
      <trkpt lat="50.41533" lon="2.34235">
        <ele>110.208252</ele>
        <time>2010-05-24T08:23:21Z</time>
      </trkpt>
      <trkpt lat="50.41536" lon="2.34217">
        <ele>108.7662354</ele>
        <time>2010-05-24T08:23:24Z</time>
      </trkpt>
      <trkpt lat="50.41538" lon="2.3421">
        <ele>108.7662354</ele>
        <time>2010-05-24T08:23:25Z</time>
      </trkpt>
      <trkpt lat="50.41547" lon="2.34166">
        <ele>107.3243408</ele>
        <time>2010-05-24T08:23:31Z</time>
      </trkpt>
      <trkpt lat="50.41561" lon="2.34099">
        <ele>104.9210205</ele>
        <time>2010-05-24T08:23:40Z</time>
      </trkpt>
      <trkpt lat="50.41572" lon="2.34046">
        <ele>106.8436279</ele>
        <time>2010-05-24T08:23:47Z</time>
      </trkpt>
      <trkpt lat="50.41581" lon="2.33992">
        <ele>107.3243408</ele>
        <time>2010-05-24T08:23:54Z</time>
      </trkpt>
      <trkpt lat="50.41592" lon="2.33935">
        <ele>107.8050537</ele>
        <time>2010-05-24T08:24:01Z</time>
      </trkpt>
      <trkpt lat="50.41601" lon="2.33886">
        <ele>109.2469482</ele>
        <time>2010-05-24T08:24:07Z</time>
      </trkpt>
      <trkpt lat="50.41613" lon="2.33815">
        <ele>106.3630371</ele>
        <time>2010-05-24T08:24:16Z</time>
      </trkpt>
      <trkpt lat="50.41621" lon="2.33777">
        <ele>105.4017334</ele>
        <time>2010-05-24T08:24:21Z</time>
      </trkpt>
      <trkpt lat="50.4163" lon="2.33714">
        <ele>102.998291</ele>
        <time>2010-05-24T08:24:30Z</time>
      </trkpt>
      <trkpt lat="50.41632" lon="2.33688">
        <ele>102.0371094</ele>
        <time>2010-05-24T08:24:34Z</time>
      </trkpt>
      <trkpt lat="50.41637" lon="2.33645">
        <ele>104.4404297</ele>
        <time>2010-05-24T08:24:40Z</time>
      </trkpt>
      <trkpt lat="50.41639" lon="2.33597">
        <ele>106.3630371</ele>
        <time>2010-05-24T08:24:46Z</time>
      </trkpt>
      <trkpt lat="50.4164" lon="2.33561">
        <ele>100.5950928</ele>
        <time>2010-05-24T08:24:52Z</time>
      </trkpt>
      <trkpt lat="50.41641" lon="2.33548">
        <ele>100.114502</ele>
        <time>2010-05-24T08:24:54Z</time>
      </trkpt>
      <trkpt lat="50.41638" lon="2.33533">
        <ele>100.114502</ele>
        <time>2010-05-24T08:24:56Z</time>
      </trkpt>
      <trkpt lat="50.41636" lon="2.33517">
        <ele>102.0371094</ele>
        <time>2010-05-24T08:24:58Z</time>
      </trkpt>
      <trkpt lat="50.41625" lon="2.33468">
        <ele>103.9597168</ele>
        <time>2010-05-24T08:25:05Z</time>
      </trkpt>
      <trkpt lat="50.41623" lon="2.33456">
        <ele>104.4404297</ele>
        <time>2010-05-24T08:25:07Z</time>
      </trkpt>
      <trkpt lat="50.41615" lon="2.33429">
        <ele>105.8824463</ele>
        <time>2010-05-24T08:25:12Z</time>
      </trkpt>
      <trkpt lat="50.41611" lon="2.33421">
        <ele>107.3243408</ele>
        <time>2010-05-24T08:25:14Z</time>
      </trkpt>
      <trkpt lat="50.41596" lon="2.33417">
        <ele>106.8436279</ele>
        <time>2010-05-24T08:25:19Z</time>
      </trkpt>
      <trkpt lat="50.41586" lon="2.33418">
        <ele>106.3630371</ele>
        <time>2010-05-24T08:25:22Z</time>
      </trkpt>
      <trkpt lat="50.41582" lon="2.33418">
        <ele>106.8436279</ele>
        <time>2010-05-24T08:25:23Z</time>
      </trkpt>
      <trkpt lat="50.41578" lon="2.33418">
        <ele>106.8436279</ele>
        <time>2010-05-24T08:25:24Z</time>
      </trkpt>
      <trkpt lat="50.41559" lon="2.33418">
        <ele>108.7662354</ele>
        <time>2010-05-24T08:25:29Z</time>
      </trkpt>
      <trkpt lat="50.41526" lon="2.33422">
        <ele>108.7662354</ele>
        <time>2010-05-24T08:25:37Z</time>
      </trkpt>
      <trkpt lat="50.415" lon="2.33424">
        <ele>109.7276611</ele>
        <time>2010-05-24T08:25:44Z</time>
      </trkpt>
      <trkpt lat="50.41479" lon="2.33425">
        <ele>111.1695557</ele>
        <time>2010-05-24T08:25:51Z</time>
      </trkpt>
      <trkpt lat="50.41455" lon="2.33417">
        <ele>110.6888428</ele>
        <time>2010-05-24T08:25:58Z</time>
      </trkpt>
      <trkpt lat="50.41428" lon="2.33404">
        <ele>110.6888428</ele>
        <time>2010-05-24T08:26:06Z</time>
      </trkpt>
      <trkpt lat="50.41413" lon="2.33398">
        <ele>111.1695557</ele>
        <time>2010-05-24T08:26:12Z</time>
      </trkpt>
      <trkpt lat="50.41399" lon="2.33395">
        <ele>113.0922852</ele>
        <time>2010-05-24T08:26:18Z</time>
      </trkpt>
      <trkpt lat="50.41388" lon="2.3339">
        <ele>115.4956055</ele>
        <time>2010-05-24T08:26:23Z</time>
      </trkpt>
      <trkpt lat="50.41378" lon="2.33386">
        <ele>116.4567871</ele>
        <time>2010-05-24T08:26:28Z</time>
      </trkpt>
      <trkpt lat="50.41365" lon="2.33381">
        <ele>116.4567871</ele>
        <time>2010-05-24T08:26:34Z</time>
      </trkpt>
      <trkpt lat="50.41347" lon="2.33376">
        <ele>115.4956055</ele>
        <time>2010-05-24T08:26:41Z</time>
      </trkpt>
      <trkpt lat="50.41327" lon="2.33367">
        <ele>116.4567871</ele>
        <time>2010-05-24T08:26:49Z</time>
      </trkpt>
      <trkpt lat="50.41312" lon="2.3336">
        <ele>120.7828369</ele>
        <time>2010-05-24T08:26:56Z</time>
      </trkpt>
      <trkpt lat="50.41295" lon="2.33357">
        <ele>120.7828369</ele>
        <time>2010-05-24T08:27:03Z</time>
      </trkpt>
      <trkpt lat="50.41276" lon="2.33355">
        <ele>121.7441406</ele>
        <time>2010-05-24T08:27:11Z</time>
      </trkpt>
      <trkpt lat="50.41259" lon="2.33356">
        <ele>123.1861572</ele>
        <time>2010-05-24T08:27:17Z</time>
      </trkpt>
      <trkpt lat="50.41244" lon="2.33361">
        <ele>125.5893555</ele>
        <time>2010-05-24T08:27:23Z</time>
      </trkpt>
      <trkpt lat="50.4122" lon="2.33366">
        <ele>126.0699463</ele>
        <time>2010-05-24T08:27:30Z</time>
      </trkpt>
      <trkpt lat="50.41203" lon="2.33372">
        <ele>126.0699463</ele>
        <time>2010-05-24T08:27:36Z</time>
      </trkpt>
      <trkpt lat="50.41179" lon="2.3338">
        <ele>126.5506592</ele>
        <time>2010-05-24T08:27:43Z</time>
      </trkpt>
      <trkpt lat="50.41151" lon="2.33388">
        <ele>127.0313721</ele>
        <time>2010-05-24T08:27:50Z</time>
      </trkpt>
      <trkpt lat="50.41122" lon="2.33402">
        <ele>127.5119629</ele>
        <time>2010-05-24T08:27:58Z</time>
      </trkpt>
      <trkpt lat="50.41085" lon="2.3342">
        <ele>128.4733887</ele>
        <time>2010-05-24T08:28:08Z</time>
      </trkpt>
      <trkpt lat="50.41045" lon="2.33437">
        <ele>130.876709</ele>
        <time>2010-05-24T08:28:19Z</time>
      </trkpt>
      <trkpt lat="50.41017" lon="2.33445">
        <ele>132.7993164</ele>
        <time>2010-05-24T08:28:28Z</time>
      </trkpt>
      <trkpt lat="50.40978" lon="2.33458">
        <ele>135.2025146</ele>
        <time>2010-05-24T08:28:40Z</time>
      </trkpt>
      <trkpt lat="50.4095" lon="2.33461">
        <ele>136.6446533</ele>
        <time>2010-05-24T08:28:48Z</time>
      </trkpt>
      <trkpt lat="50.4092" lon="2.33464">
        <ele>137.605835</ele>
        <time>2010-05-24T08:28:56Z</time>
      </trkpt>
      <trkpt lat="50.40882" lon="2.33473">
        <ele>139.0478516</ele>
        <time>2010-05-24T08:29:06Z</time>
      </trkpt>
      <trkpt lat="50.40858" lon="2.33482">
        <ele>140.970459</ele>
        <time>2010-05-24T08:29:12Z</time>
      </trkpt>
      <trkpt lat="50.40838" lon="2.33487">
        <ele>142.8930664</ele>
        <time>2010-05-24T08:29:17Z</time>
      </trkpt>
      <trkpt lat="50.40811" lon="2.335">
        <ele>144.3352051</ele>
        <time>2010-05-24T08:29:24Z</time>
      </trkpt>
      <trkpt lat="50.40768" lon="2.33511">
        <ele>146.2578125</ele>
        <time>2010-05-24T08:29:34Z</time>
      </trkpt>
      <trkpt lat="50.4072" lon="2.33515">
        <ele>148.6610107</ele>
        <time>2010-05-24T08:29:45Z</time>
      </trkpt>
      <trkpt lat="50.40677" lon="2.33515">
        <ele>150.5836182</ele>
        <time>2010-05-24T08:29:55Z</time>
      </trkpt>
      <trkpt lat="50.40636" lon="2.33508">
        <ele>152.5063477</ele>
        <time>2010-05-24T08:30:05Z</time>
      </trkpt>
      <trkpt lat="50.40598" lon="2.33504">
        <ele>153.4676514</ele>
        <time>2010-05-24T08:30:14Z</time>
      </trkpt>
      <trkpt lat="50.40547" lon="2.3351">
        <ele>154.9095459</ele>
        <time>2010-05-24T08:30:26Z</time>
      </trkpt>
      <trkpt lat="50.40514" lon="2.33521">
        <ele>156.3515625</ele>
        <time>2010-05-24T08:30:34Z</time>
      </trkpt>
      <trkpt lat="50.40465" lon="2.3354">
        <ele>157.7935791</ele>
        <time>2010-05-24T08:30:46Z</time>
      </trkpt>
      <trkpt lat="50.40449" lon="2.33549">
        <ele>158.7547607</ele>
        <time>2010-05-24T08:30:50Z</time>
      </trkpt>
      <trkpt lat="50.40416" lon="2.33559">
        <ele>160.1968994</ele>
        <time>2010-05-24T08:30:58Z</time>
      </trkpt>
      <trkpt lat="50.40376" lon="2.33567">
        <ele>161.638916</ele>
        <time>2010-05-24T08:31:07Z</time>
      </trkpt>
      <trkpt lat="50.40333" lon="2.33564">
        <ele>163.5615234</ele>
        <time>2010-05-24T08:31:16Z</time>
      </trkpt>
      <trkpt lat="50.40295" lon="2.33556">
        <ele>164.0421143</ele>
        <time>2010-05-24T08:31:25Z</time>
      </trkpt>
      <trkpt lat="50.40261" lon="2.33547">
        <ele>163.5615234</ele>
        <time>2010-05-24T08:31:33Z</time>
      </trkpt>
      <trkpt lat="50.40245" lon="2.33555">
        <ele>163.5615234</ele>
        <time>2010-05-24T08:31:37Z</time>
      </trkpt>
      <trkpt lat="50.40238" lon="2.33562">
        <ele>163.5615234</ele>
        <time>2010-05-24T08:31:41Z</time>
      </trkpt>
      <trkpt lat="50.4023" lon="2.33564">
        <ele>153.4676514</ele>
        <time>2010-05-24T08:32:22Z</time>
      </trkpt>
      <trkpt lat="50.40228" lon="2.33566">
        <ele>152.9869385</ele>
        <time>2010-05-24T08:32:23Z</time>
      </trkpt>
      <trkpt lat="50.40225" lon="2.33569">
        <ele>153.4676514</ele>
        <time>2010-05-24T08:32:24Z</time>
      </trkpt>
      <trkpt lat="50.40205" lon="2.33584">
        <ele>154.4289551</ele>
        <time>2010-05-24T08:32:29Z</time>
      </trkpt>
      <trkpt lat="50.40175" lon="2.33595">
        <ele>154.9095459</ele>
        <time>2010-05-24T08:32:36Z</time>
      </trkpt>
      <trkpt lat="50.40142" lon="2.33608">
        <ele>155.3902588</ele>
        <time>2010-05-24T08:32:43Z</time>
      </trkpt>
      <trkpt lat="50.40105" lon="2.3363">
        <ele>156.3515625</ele>
        <time>2010-05-24T08:32:51Z</time>
      </trkpt>
      <trkpt lat="50.4006" lon="2.33642">
        <ele>156.3515625</ele>
        <time>2010-05-24T08:32:59Z</time>
      </trkpt>
      <trkpt lat="50.40027" lon="2.33653">
        <ele>155.8709717</ele>
        <time>2010-05-24T08:33:05Z</time>
      </trkpt>
      <trkpt lat="50.39983" lon="2.3367">
        <ele>154.9095459</ele>
        <time>2010-05-24T08:33:13Z</time>
      </trkpt>
      <trkpt lat="50.39943" lon="2.33684">
        <ele>155.3902588</ele>
        <time>2010-05-24T08:33:21Z</time>
      </trkpt>
      <trkpt lat="50.39912" lon="2.33694">
        <ele>153.9483643</ele>
        <time>2010-05-24T08:33:27Z</time>
      </trkpt>
      <trkpt lat="50.39904" lon="2.33699">
        <ele>152.9869385</ele>
        <time>2010-05-24T08:33:29Z</time>
      </trkpt>
      <trkpt lat="50.39889" lon="2.33689">
        <ele>151.064209</ele>
        <time>2010-05-24T08:33:33Z</time>
      </trkpt>
      <trkpt lat="50.39873" lon="2.33659">
        <ele>149.6223145</ele>
        <time>2010-05-24T08:33:38Z</time>
      </trkpt>
      <trkpt lat="50.39864" lon="2.33637">
        <ele>148.6610107</ele>
        <time>2010-05-24T08:33:41Z</time>
      </trkpt>
      <trkpt lat="50.39858" lon="2.33623">
        <ele>148.6610107</ele>
        <time>2010-05-24T08:33:43Z</time>
      </trkpt>
      <trkpt lat="50.39831" lon="2.33554">
        <ele>145.2963867</ele>
        <time>2010-05-24T08:33:52Z</time>
      </trkpt>
      <trkpt lat="50.39804" lon="2.33489">
        <ele>142.8930664</ele>
        <time>2010-05-24T08:34:01Z</time>
      </trkpt>
      <trkpt lat="50.39792" lon="2.33456">
        <ele>141.4510498</ele>
        <time>2010-05-24T08:34:06Z</time>
      </trkpt>
      <trkpt lat="50.39784" lon="2.33417">
        <ele>140.4898682</ele>
        <time>2010-05-24T08:34:12Z</time>
      </trkpt>
      <trkpt lat="50.39769" lon="2.33364">
        <ele>136.6446533</ele>
        <time>2010-05-24T08:34:19Z</time>
      </trkpt>
      <trkpt lat="50.39752" lon="2.33313">
        <ele>132.7993164</ele>
        <time>2010-05-24T08:34:26Z</time>
      </trkpt>
      <trkpt lat="50.39727" lon="2.3325">
        <ele>126.5506592</ele>
        <time>2010-05-24T08:34:35Z</time>
      </trkpt>
      <trkpt lat="50.397" lon="2.33195">
        <ele>121.7441406</ele>
        <time>2010-05-24T08:34:43Z</time>
      </trkpt>
      <trkpt lat="50.39693" lon="2.33183">
        <ele>122.2247314</ele>
        <time>2010-05-24T08:34:45Z</time>
      </trkpt>
      <trkpt lat="50.39661" lon="2.33144">
        <ele>121.7441406</ele>
        <time>2010-05-24T08:34:52Z</time>
      </trkpt>
      <trkpt lat="50.39621" lon="2.33098">
        <ele>119.3408203</ele>
        <time>2010-05-24T08:35:00Z</time>
      </trkpt>
      <trkpt lat="50.39593" lon="2.33074">
        <ele>118.8601074</ele>
        <time>2010-05-24T08:35:05Z</time>
      </trkpt>
      <trkpt lat="50.3956" lon="2.3306">
        <ele>116.9375</ele>
        <time>2010-05-24T08:35:11Z</time>
      </trkpt>
      <trkpt lat="50.39527" lon="2.33048">
        <ele>115.4956055</ele>
        <time>2010-05-24T08:35:16Z</time>
      </trkpt>
      <trkpt lat="50.39494" lon="2.33035">
        <ele>114.5341797</ele>
        <time>2010-05-24T08:35:21Z</time>
      </trkpt>
      <trkpt lat="50.39457" lon="2.33021">
        <ele>110.6888428</ele>
        <time>2010-05-24T08:35:26Z</time>
      </trkpt>
      <trkpt lat="50.39417" lon="2.33001">
        <ele>107.8050537</ele>
        <time>2010-05-24T08:35:31Z</time>
      </trkpt>
      <trkpt lat="50.39382" lon="2.32965">
        <ele>105.8824463</ele>
        <time>2010-05-24T08:35:36Z</time>
      </trkpt>
      <trkpt lat="50.39339" lon="2.32911">
        <ele>103.4790039</ele>
        <time>2010-05-24T08:35:42Z</time>
      </trkpt>
      <trkpt lat="50.39332" lon="2.32902">
        <ele>102.998291</ele>
        <time>2010-05-24T08:35:43Z</time>
      </trkpt>
      <trkpt lat="50.3931" lon="2.32854">
        <ele>100.5950928</ele>
        <time>2010-05-24T08:35:47Z</time>
      </trkpt>
      <trkpt lat="50.39303" lon="2.32814">
        <ele>99.6337891</ele>
        <time>2010-05-24T08:35:50Z</time>
      </trkpt>
      <trkpt lat="50.39295" lon="2.32714">
        <ele>96.7498779</ele>
        <time>2010-05-24T08:35:58Z</time>
      </trkpt>
      <trkpt lat="50.39276" lon="2.3265">
        <ele>96.2692871</ele>
        <time>2010-05-24T08:36:04Z</time>
      </trkpt>
      <trkpt lat="50.3927" lon="2.32631">
        <ele>97.2304688</ele>
        <time>2010-05-24T08:36:07Z</time>
      </trkpt>
      <trkpt lat="50.39269" lon="2.32627">
        <ele>95.7884521</ele>
        <time>2010-05-24T08:36:09Z</time>
      </trkpt>
      <trkpt lat="50.39269" lon="2.32628">
        <ele>96.2692871</ele>
        <time>2010-05-24T08:37:06Z</time>
      </trkpt>
      <trkpt lat="50.39269" lon="2.32627">
        <ele>95.7884521</ele>
        <time>2010-05-24T08:37:07Z</time>
      </trkpt>
      <trkpt lat="50.39264" lon="2.32614">
        <ele>96.7498779</ele>
        <time>2010-05-24T08:37:11Z</time>
      </trkpt>
      <trkpt lat="50.39251" lon="2.3259">
        <ele>98.6724854</ele>
        <time>2010-05-24T08:37:16Z</time>
      </trkpt>
      <trkpt lat="50.39229" lon="2.32546">
        <ele>100.114502</ele>
        <time>2010-05-24T08:37:22Z</time>
      </trkpt>
      <trkpt lat="50.39198" lon="2.32487">
        <ele>100.5950928</ele>
        <time>2010-05-24T08:37:30Z</time>
      </trkpt>
      <trkpt lat="50.3918" lon="2.32436">
        <ele>100.5950928</ele>
        <time>2010-05-24T08:37:36Z</time>
      </trkpt>
      <trkpt lat="50.39174" lon="2.32409">
        <ele>99.1530762</ele>
        <time>2010-05-24T08:37:39Z</time>
      </trkpt>
      <trkpt lat="50.39172" lon="2.324">
        <ele>98.1918945</ele>
        <time>2010-05-24T08:37:40Z</time>
      </trkpt>
      <trkpt lat="50.39167" lon="2.32331">
        <ele>93.8658447</ele>
        <time>2010-05-24T08:37:47Z</time>
      </trkpt>
      <trkpt lat="50.39167" lon="2.32296">
        <ele>91.4625244</ele>
        <time>2010-05-24T08:37:51Z</time>
      </trkpt>
      <trkpt lat="50.39164" lon="2.32284">
        <ele>88.5787354</ele>
        <time>2010-05-24T08:37:55Z</time>
      </trkpt>
      <trkpt lat="50.39162" lon="2.32279">
        <ele>88.0980225</ele>
        <time>2010-05-24T08:38:01Z</time>
      </trkpt>
      <trkpt lat="50.39166" lon="2.32261">
        <ele>87.6171875</ele>
        <time>2010-05-24T08:38:06Z</time>
      </trkpt>
      <trkpt lat="50.39167" lon="2.32257">
        <ele>87.6171875</ele>
        <time>2010-05-24T08:38:07Z</time>
      </trkpt>
      <trkpt lat="50.39176" lon="2.32216">
        <ele>88.0980225</ele>
        <time>2010-05-24T08:38:14Z</time>
      </trkpt>
      <trkpt lat="50.3918" lon="2.32166">
        <ele>88.0980225</ele>
        <time>2010-05-24T08:38:21Z</time>
      </trkpt>
      <trkpt lat="50.39183" lon="2.32101">
        <ele>91.4625244</ele>
        <time>2010-05-24T08:38:30Z</time>
      </trkpt>
      <trkpt lat="50.39183" lon="2.32074">
        <ele>92.4239502</ele>
        <time>2010-05-24T08:38:34Z</time>
      </trkpt>
      <trkpt lat="50.39181" lon="2.32054">
        <ele>93.3851318</ele>
        <time>2010-05-24T08:38:37Z</time>
      </trkpt>
      <trkpt lat="50.39166" lon="2.32006">
        <ele>95.7884521</ele>
        <time>2010-05-24T08:38:45Z</time>
      </trkpt>
      <trkpt lat="50.39155" lon="2.31974">
        <ele>97.7111816</ele>
        <time>2010-05-24T08:38:51Z</time>
      </trkpt>
      <trkpt lat="50.3914" lon="2.31932">
        <ele>96.2692871</ele>
        <time>2010-05-24T08:39:00Z</time>
      </trkpt>
      <trkpt lat="50.39129" lon="2.31896">
        <ele>95.7884521</ele>
        <time>2010-05-24T08:39:07Z</time>
      </trkpt>
      <trkpt lat="50.39123" lon="2.31872">
        <ele>94.8271484</ele>
        <time>2010-05-24T08:39:13Z</time>
      </trkpt>
      <trkpt lat="50.39111" lon="2.31833">
        <ele>95.7884521</ele>
        <time>2010-05-24T08:39:22Z</time>
      </trkpt>
      <trkpt lat="50.39103" lon="2.31809">
        <ele>97.7111816</ele>
        <time>2010-05-24T08:39:28Z</time>
      </trkpt>
      <trkpt lat="50.39094" lon="2.31787">
        <ele>99.6337891</ele>
        <time>2010-05-24T08:39:34Z</time>
      </trkpt>
      <trkpt lat="50.39091" lon="2.31764">
        <ele>98.6724854</ele>
        <time>2010-05-24T08:39:40Z</time>
      </trkpt>
      <trkpt lat="50.39098" lon="2.31751">
        <ele>97.2304688</ele>
        <time>2010-05-24T08:39:44Z</time>
      </trkpt>
      <trkpt lat="50.39119" lon="2.31727">
        <ele>96.7498779</ele>
        <time>2010-05-24T08:39:50Z</time>
      </trkpt>
      <trkpt lat="50.39148" lon="2.31696">
        <ele>95.7884521</ele>
        <time>2010-05-24T08:39:59Z</time>
      </trkpt>
      <trkpt lat="50.39177" lon="2.31661">
        <ele>95.3077393</ele>
        <time>2010-05-24T08:40:07Z</time>
      </trkpt>
      <trkpt lat="50.39205" lon="2.3163">
        <ele>94.8271484</ele>
        <time>2010-05-24T08:40:14Z</time>
      </trkpt>
      <trkpt lat="50.39237" lon="2.31593">
        <ele>93.8658447</ele>
        <time>2010-05-24T08:40:22Z</time>
      </trkpt>
      <trkpt lat="50.39274" lon="2.31551">
        <ele>93.3851318</ele>
        <time>2010-05-24T08:40:31Z</time>
      </trkpt>
      <trkpt lat="50.39309" lon="2.31511">
        <ele>93.3851318</ele>
        <time>2010-05-24T08:40:39Z</time>
      </trkpt>
      <trkpt lat="50.39337" lon="2.31475">
        <ele>92.904541</ele>
        <time>2010-05-24T08:40:46Z</time>
      </trkpt>
      <trkpt lat="50.39362" lon="2.31444">
        <ele>91.4625244</ele>
        <time>2010-05-24T08:40:52Z</time>
      </trkpt>
      <trkpt lat="50.39382" lon="2.31417">
        <ele>90.0206299</ele>
        <time>2010-05-24T08:40:57Z</time>
      </trkpt>
      <trkpt lat="50.3942" lon="2.31375">
        <ele>89.0593262</ele>
        <time>2010-05-24T08:41:06Z</time>
      </trkpt>
      <trkpt lat="50.39454" lon="2.31342">
        <ele>89.0593262</ele>
        <time>2010-05-24T08:41:14Z</time>
      </trkpt>
      <trkpt lat="50.39489" lon="2.31311">
        <ele>89.0593262</ele>
        <time>2010-05-24T08:41:21Z</time>
      </trkpt>
      <trkpt lat="50.3953" lon="2.31274">
        <ele>90.0206299</ele>
        <time>2010-05-24T08:41:30Z</time>
      </trkpt>
      <trkpt lat="50.39559" lon="2.31253">
        <ele>90.5013428</ele>
        <time>2010-05-24T08:41:37Z</time>
      </trkpt>
      <trkpt lat="50.39593" lon="2.31229">
        <ele>89.0593262</ele>
        <time>2010-05-24T08:41:46Z</time>
      </trkpt>
      <trkpt lat="50.39618" lon="2.3121">
        <ele>90.0206299</ele>
        <time>2010-05-24T08:41:52Z</time>
      </trkpt>
      <trkpt lat="50.39627" lon="2.31203">
        <ele>90.0206299</ele>
        <time>2010-05-24T08:41:54Z</time>
      </trkpt>
      <trkpt lat="50.39657" lon="2.31171">
        <ele>90.5013428</ele>
        <time>2010-05-24T08:42:01Z</time>
      </trkpt>
      <trkpt lat="50.39689" lon="2.31129">
        <ele>90.5013428</ele>
        <time>2010-05-24T08:42:09Z</time>
      </trkpt>
      <trkpt lat="50.39714" lon="2.31089">
        <ele>90.5013428</ele>
        <time>2010-05-24T08:42:16Z</time>
      </trkpt>
      <trkpt lat="50.39739" lon="2.31054">
        <ele>89.539917</ele>
        <time>2010-05-24T08:42:23Z</time>
      </trkpt>
      <trkpt lat="50.39767" lon="2.31015">
        <ele>88.0980225</ele>
        <time>2010-05-24T08:42:30Z</time>
      </trkpt>
      <trkpt lat="50.39796" lon="2.30973">
        <ele>87.6171875</ele>
        <time>2010-05-24T08:42:38Z</time>
      </trkpt>
      <trkpt lat="50.39824" lon="2.30933">
        <ele>87.1365967</ele>
        <time>2010-05-24T08:42:46Z</time>
      </trkpt>
      <trkpt lat="50.39852" lon="2.30893">
        <ele>87.6171875</ele>
        <time>2010-05-24T08:42:54Z</time>
      </trkpt>
      <trkpt lat="50.39859" lon="2.30878">
        <ele>87.6171875</ele>
        <time>2010-05-24T08:42:57Z</time>
      </trkpt>
      <trkpt lat="50.39873" lon="2.30851">
        <ele>89.539917</ele>
        <time>2010-05-24T08:43:04Z</time>
      </trkpt>
      <trkpt lat="50.39867" lon="2.30831">
        <ele>90.5013428</ele>
        <time>2010-05-24T08:43:08Z</time>
      </trkpt>
      <trkpt lat="50.39842" lon="2.30797">
        <ele>91.9432373</ele>
        <time>2010-05-24T08:43:16Z</time>
      </trkpt>
      <trkpt lat="50.39823" lon="2.30772">
        <ele>92.904541</ele>
        <time>2010-05-24T08:43:22Z</time>
      </trkpt>
      <trkpt lat="50.39815" lon="2.30751">
        <ele>93.3851318</ele>
        <time>2010-05-24T08:43:26Z</time>
      </trkpt>
      <trkpt lat="50.3981" lon="2.30724">
        <ele>93.8658447</ele>
        <time>2010-05-24T08:43:30Z</time>
      </trkpt>
      <trkpt lat="50.39802" lon="2.30701">
        <ele>93.8658447</ele>
        <time>2010-05-24T08:43:34Z</time>
      </trkpt>
      <trkpt lat="50.39771" lon="2.30649">
        <ele>93.8658447</ele>
        <time>2010-05-24T08:43:44Z</time>
      </trkpt>
      <trkpt lat="50.39742" lon="2.306">
        <ele>94.8271484</ele>
        <time>2010-05-24T08:43:53Z</time>
      </trkpt>
      <trkpt lat="50.39722" lon="2.3057">
        <ele>95.7884521</ele>
        <time>2010-05-24T08:43:59Z</time>
      </trkpt>
      <trkpt lat="50.39693" lon="2.3053">
        <ele>96.2692871</ele>
        <time>2010-05-24T08:44:07Z</time>
      </trkpt>
      <trkpt lat="50.39685" lon="2.30519">
        <ele>96.2692871</ele>
        <time>2010-05-24T08:44:09Z</time>
      </trkpt>
      <trkpt lat="50.39653" lon="2.30493">
        <ele>97.2304688</ele>
        <time>2010-05-24T08:44:16Z</time>
      </trkpt>
      <trkpt lat="50.39616" lon="2.30447">
        <ele>101.5563965</ele>
        <time>2010-05-24T08:44:25Z</time>
      </trkpt>
      <trkpt lat="50.39579" lon="2.30417">
        <ele>105.4017334</ele>
        <time>2010-05-24T08:44:33Z</time>
      </trkpt>
      <trkpt lat="50.39551" lon="2.30396">
        <ele>109.2469482</ele>
        <time>2010-05-24T08:44:40Z</time>
      </trkpt>
      <trkpt lat="50.39527" lon="2.30377">
        <ele>113.572998</ele>
        <time>2010-05-24T08:44:47Z</time>
      </trkpt>
      <trkpt lat="50.39493" lon="2.30344">
        <ele>112.6115723</ele>
        <time>2010-05-24T08:44:56Z</time>
      </trkpt>
      <trkpt lat="50.3946" lon="2.30312">
        <ele>112.1309814</ele>
        <time>2010-05-24T08:45:05Z</time>
      </trkpt>
      <trkpt lat="50.39433" lon="2.30278">
        <ele>112.6115723</ele>
        <time>2010-05-24T08:45:13Z</time>
      </trkpt>
      <trkpt lat="50.39405" lon="2.3024">
        <ele>113.0922852</ele>
        <time>2010-05-24T08:45:21Z</time>
      </trkpt>
      <trkpt lat="50.394" lon="2.3023">
        <ele>110.208252</ele>
        <time>2010-05-24T08:45:23Z</time>
      </trkpt>
      <trkpt lat="50.39389" lon="2.30196">
        <ele>105.8824463</ele>
        <time>2010-05-24T08:45:29Z</time>
      </trkpt>
      <trkpt lat="50.39381" lon="2.30152">
        <ele>105.4017334</ele>
        <time>2010-05-24T08:45:36Z</time>
      </trkpt>
      <trkpt lat="50.39379" lon="2.30145">
        <ele>105.4017334</ele>
        <time>2010-05-24T08:45:37Z</time>
      </trkpt>
      <trkpt lat="50.39366" lon="2.30099">
        <ele>99.6337891</ele>
        <time>2010-05-24T08:45:45Z</time>
      </trkpt>
      <trkpt lat="50.39354" lon="2.30051">
        <ele>95.7884521</ele>
        <time>2010-05-24T08:45:53Z</time>
      </trkpt>
      <trkpt lat="50.39346" lon="2.30008">
        <ele>94.8271484</ele>
        <time>2010-05-24T08:46:00Z</time>
      </trkpt>
      <trkpt lat="50.39345" lon="2.30002">
        <ele>94.8271484</ele>
        <time>2010-05-24T08:46:01Z</time>
      </trkpt>
      <trkpt lat="50.39341" lon="2.29989">
        <ele>95.7884521</ele>
        <time>2010-05-24T08:46:05Z</time>
      </trkpt>
      <trkpt lat="50.39337" lon="2.2996">
        <ele>98.1918945</ele>
        <time>2010-05-24T08:46:11Z</time>
      </trkpt>
      <trkpt lat="50.39333" lon="2.29923">
        <ele>100.114502</ele>
        <time>2010-05-24T08:46:17Z</time>
      </trkpt>
      <trkpt lat="50.39328" lon="2.29895">
        <ele>97.7111816</ele>
        <time>2010-05-24T08:46:21Z</time>
      </trkpt>
      <trkpt lat="50.39325" lon="2.29855">
        <ele>97.2304688</ele>
        <time>2010-05-24T08:46:27Z</time>
      </trkpt>
      <trkpt lat="50.39317" lon="2.29827">
        <ele>98.1918945</ele>
        <time>2010-05-24T08:46:32Z</time>
      </trkpt>
      <trkpt lat="50.39291" lon="2.29785">
        <ele>94.3465576</ele>
        <time>2010-05-24T08:46:40Z</time>
      </trkpt>
      <trkpt lat="50.3928" lon="2.29762">
        <ele>92.904541</ele>
        <time>2010-05-24T08:46:45Z</time>
      </trkpt>
      <trkpt lat="50.39272" lon="2.29742">
        <ele>93.8658447</ele>
        <time>2010-05-24T08:46:50Z</time>
      </trkpt>
      <trkpt lat="50.39254" lon="2.2972">
        <ele>102.5177002</ele>
        <time>2010-05-24T08:46:56Z</time>
      </trkpt>
      <trkpt lat="50.39236" lon="2.29698">
        <ele>112.1309814</ele>
        <time>2010-05-24T08:47:02Z</time>
      </trkpt>
      <trkpt lat="50.39213" lon="2.29677">
        <ele>120.302124</ele>
        <time>2010-05-24T08:47:09Z</time>
      </trkpt>
      <trkpt lat="50.39184" lon="2.29657">
        <ele>122.7054443</ele>
        <time>2010-05-24T08:47:17Z</time>
      </trkpt>
      <trkpt lat="50.39159" lon="2.2964">
        <ele>120.7828369</ele>
        <time>2010-05-24T08:47:24Z</time>
      </trkpt>
      <trkpt lat="50.39143" lon="2.2962">
        <ele>121.7441406</ele>
        <time>2010-05-24T08:47:30Z</time>
      </trkpt>
      <trkpt lat="50.39123" lon="2.29604">
        <ele>119.3408203</ele>
        <time>2010-05-24T08:47:36Z</time>
      </trkpt>
      <trkpt lat="50.39099" lon="2.29583">
        <ele>118.3793945</ele>
        <time>2010-05-24T08:47:43Z</time>
      </trkpt>
      <trkpt lat="50.39077" lon="2.29567">
        <ele>119.3408203</ele>
        <time>2010-05-24T08:47:49Z</time>
      </trkpt>
      <trkpt lat="50.3905" lon="2.29538">
        <ele>119.3408203</ele>
        <time>2010-05-24T08:47:57Z</time>
      </trkpt>
      <trkpt lat="50.39037" lon="2.29519">
        <ele>119.8214111</ele>
        <time>2010-05-24T08:48:02Z</time>
      </trkpt>
      <trkpt lat="50.39015" lon="2.29487">
        <ele>121.7441406</ele>
        <time>2010-05-24T08:48:10Z</time>
      </trkpt>
      <trkpt lat="50.38996" lon="2.29462">
        <ele>122.2247314</ele>
        <time>2010-05-24T08:48:17Z</time>
      </trkpt>
      <trkpt lat="50.38974" lon="2.29441">
        <ele>122.2247314</ele>
        <time>2010-05-24T08:48:23Z</time>
      </trkpt>
      <trkpt lat="50.38939" lon="2.29407">
        <ele>121.7441406</ele>
        <time>2010-05-24T08:48:32Z</time>
      </trkpt>
      <trkpt lat="50.38911" lon="2.29381">
        <ele>121.7441406</ele>
        <time>2010-05-24T08:48:39Z</time>
      </trkpt>
      <trkpt lat="50.38884" lon="2.29358">
        <ele>121.2635498</ele>
        <time>2010-05-24T08:48:46Z</time>
      </trkpt>
      <trkpt lat="50.38858" lon="2.29329">
        <ele>121.7441406</ele>
        <time>2010-05-24T08:48:53Z</time>
      </trkpt>
      <trkpt lat="50.38827" lon="2.29289">
        <ele>121.7441406</ele>
        <time>2010-05-24T08:49:02Z</time>
      </trkpt>
      <trkpt lat="50.38795" lon="2.29253">
        <ele>122.2247314</ele>
        <time>2010-05-24T08:49:11Z</time>
      </trkpt>
      <trkpt lat="50.38769" lon="2.29229">
        <ele>123.666748</ele>
        <time>2010-05-24T08:49:18Z</time>
      </trkpt>
      <trkpt lat="50.38748" lon="2.29209">
        <ele>125.1087646</ele>
        <time>2010-05-24T08:49:24Z</time>
      </trkpt>
      <trkpt lat="50.38728" lon="2.29182">
        <ele>126.5506592</ele>
        <time>2010-05-24T08:49:30Z</time>
      </trkpt>
      <trkpt lat="50.38713" lon="2.29152">
        <ele>126.5506592</ele>
        <time>2010-05-24T08:49:36Z</time>
      </trkpt>
      <trkpt lat="50.38691" lon="2.29119">
        <ele>126.0699463</ele>
        <time>2010-05-24T08:49:43Z</time>
      </trkpt>
      <trkpt lat="50.3865" lon="2.29069">
        <ele>126.0699463</ele>
        <time>2010-05-24T08:49:55Z</time>
      </trkpt>
      <trkpt lat="50.38616" lon="2.29027">
        <ele>126.5506592</ele>
        <time>2010-05-24T08:50:05Z</time>
      </trkpt>
      <trkpt lat="50.38575" lon="2.28977">
        <ele>127.9925537</ele>
        <time>2010-05-24T08:50:17Z</time>
      </trkpt>
      <trkpt lat="50.38541" lon="2.28936">
        <ele>129.4346924</ele>
        <time>2010-05-24T08:50:27Z</time>
      </trkpt>
      <trkpt lat="50.38527" lon="2.28937">
        <ele>130.3959961</ele>
        <time>2010-05-24T08:50:31Z</time>
      </trkpt>
      <trkpt lat="50.38523" lon="2.28947">
        <ele>129.9152832</ele>
        <time>2010-05-24T08:50:33Z</time>
      </trkpt>
      <trkpt lat="50.38517" lon="2.28965">
        <ele>128.9541016</ele>
        <time>2010-05-24T08:50:36Z</time>
      </trkpt>
      <trkpt lat="50.38506" lon="2.28977">
        <ele>127.0313721</ele>
        <time>2010-05-24T08:50:40Z</time>
      </trkpt>
      <trkpt lat="50.38496" lon="2.28966">
        <ele>126.5506592</ele>
        <time>2010-05-24T08:50:43Z</time>
      </trkpt>
      <trkpt lat="50.38493" lon="2.2896">
        <ele>126.5506592</ele>
        <time>2010-05-24T08:50:44Z</time>
      </trkpt>
      <trkpt lat="50.38462" lon="2.28905">
        <ele>126.0699463</ele>
        <time>2010-05-24T08:50:54Z</time>
      </trkpt>
      <trkpt lat="50.38444" lon="2.28865">
        <ele>126.0699463</ele>
        <time>2010-05-24T08:51:01Z</time>
      </trkpt>
      <trkpt lat="50.38436" lon="2.28821">
        <ele>125.5893555</ele>
        <time>2010-05-24T08:51:07Z</time>
      </trkpt>
      <trkpt lat="50.38431" lon="2.28749">
        <ele>127.9925537</ele>
        <time>2010-05-24T08:51:15Z</time>
      </trkpt>
      <trkpt lat="50.38434" lon="2.2867">
        <ele>128.9541016</ele>
        <time>2010-05-24T08:51:24Z</time>
      </trkpt>
      <trkpt lat="50.38436" lon="2.28614">
        <ele>130.3959961</ele>
        <time>2010-05-24T08:51:31Z</time>
      </trkpt>
      <trkpt lat="50.38436" lon="2.28556">
        <ele>131.8378906</ele>
        <time>2010-05-24T08:51:39Z</time>
      </trkpt>
      <trkpt lat="50.38432" lon="2.28493">
        <ele>134.2412109</ele>
        <time>2010-05-24T08:51:48Z</time>
      </trkpt>
      <trkpt lat="50.38431" lon="2.28486">
        <ele>134.2412109</ele>
        <time>2010-05-24T08:51:49Z</time>
      </trkpt>
      <trkpt lat="50.3843" lon="2.28476">
        <ele>131.8378906</ele>
        <time>2010-05-24T08:51:51Z</time>
      </trkpt>
      <trkpt lat="50.38418" lon="2.28426">
        <ele>131.8378906</ele>
        <time>2010-05-24T08:52:00Z</time>
      </trkpt>
      <trkpt lat="50.38414" lon="2.28397">
        <ele>131.3572998</ele>
        <time>2010-05-24T08:52:05Z</time>
      </trkpt>
      <trkpt lat="50.38408" lon="2.28372">
        <ele>131.3572998</ele>
        <time>2010-05-24T08:52:09Z</time>
      </trkpt>
      <trkpt lat="50.38406" lon="2.28337">
        <ele>135.2025146</ele>
        <time>2010-05-24T08:52:14Z</time>
      </trkpt>
      <trkpt lat="50.38413" lon="2.28286">
        <ele>135.6831055</ele>
        <time>2010-05-24T08:52:22Z</time>
      </trkpt>
      <trkpt lat="50.38416" lon="2.28275">
        <ele>135.6831055</ele>
        <time>2010-05-24T08:52:24Z</time>
      </trkpt>
      <trkpt lat="50.3842" lon="2.28232">
        <ele>136.1639404</ele>
        <time>2010-05-24T08:52:31Z</time>
      </trkpt>
      <trkpt lat="50.38412" lon="2.28199">
        <ele>134.7219238</ele>
        <time>2010-05-24T08:52:37Z</time>
      </trkpt>
      <trkpt lat="50.38397" lon="2.28159">
        <ele>133.760498</ele>
        <time>2010-05-24T08:52:44Z</time>
      </trkpt>
      <trkpt lat="50.38381" lon="2.28125">
        <ele>134.2412109</ele>
        <time>2010-05-24T08:52:51Z</time>
      </trkpt>
      <trkpt lat="50.38373" lon="2.28097">
        <ele>134.7219238</ele>
        <time>2010-05-24T08:52:56Z</time>
      </trkpt>
      <trkpt lat="50.38373" lon="2.28067">
        <ele>135.2025146</ele>
        <time>2010-05-24T08:53:02Z</time>
      </trkpt>
      <trkpt lat="50.38368" lon="2.28043">
        <ele>133.2799072</ele>
        <time>2010-05-24T08:53:08Z</time>
      </trkpt>
      <trkpt lat="50.38362" lon="2.28008">
        <ele>134.7219238</ele>
        <time>2010-05-24T08:53:15Z</time>
      </trkpt>
      <trkpt lat="50.38369" lon="2.27966">
        <ele>136.6446533</ele>
        <time>2010-05-24T08:53:24Z</time>
      </trkpt>
      <trkpt lat="50.38374" lon="2.2795">
        <ele>138.0865479</ele>
        <time>2010-05-24T08:53:28Z</time>
      </trkpt>
      <trkpt lat="50.38369" lon="2.27931">
        <ele>140.970459</ele>
        <time>2010-05-24T08:53:33Z</time>
      </trkpt>
      <trkpt lat="50.38368" lon="2.27927">
        <ele>140.4898682</ele>
        <time>2010-05-24T08:53:37Z</time>
      </trkpt>
      <trkpt lat="50.38368" lon="2.27927">
        <ele>140.0091553</ele>
        <time>2010-05-24T08:53:38Z</time>
      </trkpt>
    </trkseg>
  </trk>
</gpx>